Darstellungsparameter: Aktuell verwendete Einstellungen:
Skalierung der Graphiken ... ?
xyx+y,   Skalierungsfaktor:      Skalierung: Modus: x, Faktor: 1
Darstellungszeitraum ... ?
Vom - - bis: - -   Zeitraum: 29.01.2015 - 28.07.2015
Min/Max/Avg-Anzeige ... ?
Zeige MMA aktuell
Zeige MMA Monat
Zeige MMA alles
Zeige --A aktuell
Zeige --A Monat
Zeige --A alles
Keine MMA-Anzeige
MMA:
Average (ber die Originaldaten)
MMA-Basis: 29.01.2015 - 28.07.2015
Quicknavigation für Darstellung... ?
Tage:      1T, 2T, 3T, 5T -1T -2T -3T -5T +1T +2T +3T +5T
Wochen: 1W, 2W, 3W -1W -2W -3W +1W +2W +3W
Monate: 1M, 3M, 6M -1M -3M -6M +1M +3M +6M
Jahre:    1J, 3J, 5J, 10J -1J -3J -5J -10J +1J +3J +5J +10J
Nutze für die Darstellung ... ?
Originaldaten oder Mittelwerte auf ...
Stundenbasis Tagesbasis Wochenbasis
Monatsbasis Jahresbasis      Datenbasis: Original-Daten
Darstellen als:
Statistik (Auto) Statistik J:M      Darstellung:
Zur Graphik,    zurück zur Übersicht aller Sensoren.
 
Tabellarische Datenbersicht: ?
 
Sensor: Nr:Datum:Temp:Abs-Feuchte:Windchill:Wind:
Aussen-T/F 1 29-01-2015 00:00:00 2.5 C 5.06 g/m*3 0.71 C 6.4 km/h
2 29-01-2015 00:05:00 2.5 C 5.06 g/m*3 0.17 C 8.1 km/h
3 29-01-2015 00:10:00 2.4 C 5.02 g/m*3 0.05 C 8.1 km/h
4 29-01-2015 00:15:00 2.4 C 5.02 g/m*3 2.4 C 4.8 km/h
5 29-01-2015 00:20:00 2.3 C 4.99 g/m*3 -1.2 C 12.9 km/h
6 29-01-2015 00:25:00 2.4 C 5.02 g/m*3 -0.74 C 11.3 km/h
7 29-01-2015 00:30:00 2.4 C 5.02 g/m*3 0.59 C 6.4 km/h
8 29-01-2015 00:35:00 2.4 C 4.97 g/m*3 2.4 C 4.8 km/h
9 29-01-2015 00:40:00 2.4 C 5.02 g/m*3 2.4 C 4.8 km/h
10 29-01-2015 00:45:00 2.3 C 4.99 g/m*3 -0.49 C 9.7 km/h
11 29-01-2015 00:50:00 2.3 C 4.99 g/m*3 -0.07 C 8.1 km/h
12 29-01-2015 00:55:00 2.4 C 4.97 g/m*3 0.05 C 8.1 km/h
13 29-01-2015 01:00:00 2.6 C 4.98 g/m*3 -0.14 C 9.7 km/h
14 29-01-2015 01:05:00 2.8 C 4.99 g/m*3 -0.59 C 12.9 km/h
15 29-01-2015 01:10:00 2.8 C 4.93 g/m*3 -0.88 C 14.5 km/h
16 29-01-2015 01:15:00 2.9 C 4.9 g/m*3 -0.76 C 14.5 km/h
17 29-01-2015 01:20:00 3 C 4.93 g/m*3 0.34 C 9.7 km/h
18 29-01-2015 01:25:00 2.9 C 4.9 g/m*3 -1.02 C 16.1 km/h
19 29-01-2015 01:30:00 2.9 C 4.96 g/m*3 -1.02 C 16.1 km/h
20 29-01-2015 01:35:00 2.8 C 4.93 g/m*3 0.1 C 9.7 km/h
21 29-01-2015 01:40:00 2.8 C 4.93 g/m*3 -0.59 C 12.9 km/h
22 29-01-2015 01:45:00 2.7 C 4.89 g/m*3 0.4 C 8.1 km/h
23 29-01-2015 01:50:00 2.7 C 4.89 g/m*3 0.4 C 8.1 km/h
24 29-01-2015 01:55:00 2.6 C 4.86 g/m*3 -0.83 C 12.9 km/h
25 29-01-2015 02:00:00 2.5 C 4.89 g/m*3 2.5 C 4.8 km/h
Sensor: Nr:Datum:Temp:Abs-Feuchte:Windchill:Wind:
Aussen-T/F 26 29-01-2015 02:05:00 2.4 C 4.85 g/m*3 -1.07 C 12.9 km/h
27 29-01-2015 02:10:00 2.3 C 4.82 g/m*3 -1.49 C 14.5 km/h
28 29-01-2015 02:15:00 2.4 C 4.8 g/m*3 -0.74 C 11.3 km/h
29 29-01-2015 02:20:00 2.4 C 4.8 g/m*3 0.59 C 6.4 km/h
30 29-01-2015 02:25:00 2.3 C 4.82 g/m*3 -0.07 C 8.1 km/h
31 29-01-2015 02:30:00 2.2 C 4.79 g/m*3 -0.18 C 8.1 km/h
32 29-01-2015 02:35:00 2 C 4.78 g/m*3 0.13 C 6.4 km/h
33 29-01-2015 02:40:00 1.9 C 4.8 g/m*3 1.9 C 4.8 km/h
34 29-01-2015 02:45:00 1.8 C 4.77 g/m*3 -1.47 C 11.3 km/h
35 29-01-2015 02:50:00 2 C 4.78 g/m*3 2 C 4.8 km/h
36 29-01-2015 02:55:00 2 C 4.78 g/m*3 0.13 C 6.4 km/h
37 29-01-2015 03:00:00 2 C 4.72 g/m*3 -0.42 C 8.1 km/h
38 29-01-2015 03:05:00 2.1 C 4.76 g/m*3 -0.73 C 9.7 km/h
39 29-01-2015 03:10:00 2.1 C 4.76 g/m*3 -0.3 C 8.1 km/h
40 29-01-2015 03:15:00 2 C 4.78 g/m*3 0.13 C 6.4 km/h
41 29-01-2015 03:20:00 1.9 C 4.75 g/m*3 -2.26 C 16.1 km/h
42 29-01-2015 03:25:00 2 C 4.78 g/m*3 -0.85 C 9.7 km/h
43 29-01-2015 03:30:00 2.1 C 4.76 g/m*3 -0.73 C 9.7 km/h
44 29-01-2015 03:35:00 2.1 C 4.76 g/m*3 -1.11 C 11.3 km/h
45 29-01-2015 03:40:00 2.1 C 4.76 g/m*3 -1.44 C 12.9 km/h
46 29-01-2015 03:45:00 2.1 C 4.76 g/m*3 -0.73 C 9.7 km/h
47 29-01-2015 03:50:00 2.1 C 4.76 g/m*3 -0.73 C 9.7 km/h
48 29-01-2015 03:55:00 2.1 C 4.7 g/m*3 -0.3 C 8.1 km/h
49 29-01-2015 04:00:00 2.1 C 4.7 g/m*3 -1.44 C 12.9 km/h
50 29-01-2015 04:05:00 2.1 C 4.7 g/m*3 -1.44 C 12.9 km/h
Sensor: Nr:Datum:Temp:Abs-Feuchte:Windchill:Wind:
Aussen-T/F 51 29-01-2015 04:10:00 2.1 C 4.7 g/m*3 -1.11 C 11.3 km/h
52 29-01-2015 04:15:00 2.1 C 4.7 g/m*3 -1.11 C 11.3 km/h
53 29-01-2015 04:20:00 2.1 C 4.64 g/m*3 -1.44 C 12.9 km/h
54 29-01-2015 04:25:00 2.1 C 4.7 g/m*3 -0.73 C 9.7 km/h
55 29-01-2015 04:30:00 2.1 C 4.7 g/m*3 0.24 C 6.4 km/h
56 29-01-2015 04:35:00 1.9 C 4.64 g/m*3 -0.54 C 8.1 km/h
57 29-01-2015 04:40:00 1.8 C 4.66 g/m*3 -1.47 C 11.3 km/h
58 29-01-2015 04:45:00 1.8 C 4.66 g/m*3 -1.47 C 11.3 km/h
59 29-01-2015 04:50:00 1.9 C 4.69 g/m*3 -0.97 C 9.7 km/h
60 29-01-2015 04:55:00 1.8 C 4.66 g/m*3 -1.09 C 9.7 km/h
61 29-01-2015 05:00:00 1.8 C 4.66 g/m*3 -1.09 C 9.7 km/h
62 29-01-2015 05:05:00 1.7 C 4.68 g/m*3 -1.21 C 9.7 km/h
63 29-01-2015 05:10:00 1.7 C 4.68 g/m*3 -1.21 C 9.7 km/h
64 29-01-2015 05:15:00 1.6 C 4.65 g/m*3 -1.33 C 9.7 km/h
65 29-01-2015 05:20:00 1.7 C 4.68 g/m*3 -1.93 C 12.9 km/h
66 29-01-2015 05:25:00 1.7 C 4.74 g/m*3 -1.59 C 11.3 km/h
67 29-01-2015 05:30:00 1.7 C 4.68 g/m*3 -2.23 C 14.5 km/h
68 29-01-2015 05:35:00 1.8 C 4.71 g/m*3 -2.64 C 17.7 km/h
69 29-01-2015 05:40:00 1.8 C 4.71 g/m*3 -1.09 C 9.7 km/h
70 29-01-2015 05:45:00 1.8 C 4.77 g/m*3 -2.11 C 14.5 km/h
71 29-01-2015 05:50:00 1.8 C 4.77 g/m*3 -1.8 C 12.9 km/h
72 29-01-2015 05:55:00 1.8 C 4.77 g/m*3 -1.47 C 11.3 km/h
73 29-01-2015 06:00:00 1.9 C 4.8 g/m*3 -1.98 C 14.5 km/h
74 29-01-2015 06:05:00 2.1 C 4.81 g/m*3 -2.26 C 17.7 km/h
75 29-01-2015 06:10:00 2.1 C 4.81 g/m*3 -1.74 C 14.5 km/h
Sensor: Nr:Datum:Temp:Abs-Feuchte:Windchill:Wind:
Aussen-T/F 76 29-01-2015 06:15:00 2 C 4.78 g/m*3 -1.56 C 12.9 km/h
77 29-01-2015 06:20:00 2.1 C 4.81 g/m*3 -1.44 C 12.9 km/h
78 29-01-2015 06:25:00 2.1 C 4.81 g/m*3 -2.92 C 22.5 km/h
79 29-01-2015 06:30:00 2.1 C 4.81 g/m*3 -2.92 C 22.5 km/h
80 29-01-2015 06:35:00 2.1 C 4.81 g/m*3 -1.44 C 12.9 km/h
81 29-01-2015 06:40:00 2.2 C 4.84 g/m*3 -1.89 C 16.1 km/h
82 29-01-2015 06:45:00 2.2 C 4.84 g/m*3 -1.89 C 16.1 km/h
83 29-01-2015 06:50:00 2.3 C 4.88 g/m*3 -2.85 C 24.1 km/h
84 29-01-2015 06:55:00 2.3 C 4.88 g/m*3 -0.49 C 9.7 km/h
85 29-01-2015 07:00:00 2.3 C 4.88 g/m*3 -0.49 C 9.7 km/h
86 29-01-2015 07:05:00 2.3 C 4.88 g/m*3 -1.49 C 14.5 km/h
87 29-01-2015 07:10:00 2.4 C 4.91 g/m*3 0.05 C 8.1 km/h
88 29-01-2015 07:15:00 2.4 C 4.91 g/m*3 -0.37 C 9.7 km/h
89 29-01-2015 07:20:00 2.4 C 4.91 g/m*3 0.05 C 8.1 km/h
90 29-01-2015 07:25:00 2.4 C 4.91 g/m*3 -0.74 C 11.3 km/h
91 29-01-2015 07:30:00 2.4 C 4.91 g/m*3 -0.37 C 9.7 km/h
92 29-01-2015 07:35:00 2.5 C 4.89 g/m*3 -0.26 C 9.7 km/h
93 29-01-2015 07:40:00 2.6 C 4.98 g/m*3 2.6 C 4.8 km/h
94 29-01-2015 07:45:00 2.5 C 4.94 g/m*3 0.17 C 8.1 km/h
95 29-01-2015 07:50:00 2.4 C 4.91 g/m*3 -1.07 C 12.9 km/h
96 29-01-2015 07:55:00 2.4 C 4.91 g/m*3 0.05 C 8.1 km/h
97 29-01-2015 08:00:00 2.4 C 4.91 g/m*3 0.05 C 8.1 km/h
98 29-01-2015 08:05:00 2.4 C 4.91 g/m*3 -0.37 C 9.7 km/h
99 29-01-2015 08:10:00 2.5 C 4.94 g/m*3 -0.62 C 11.3 km/h
100 29-01-2015 08:15:00 2.6 C 4.98 g/m*3 -0.14 C 9.7 km/h
Sensor: Nr:Datum:Temp:Abs-Feuchte:Windchill:Wind:
Aussen-T/F 101 29-01-2015 08:20:00 2.6 C 4.98 g/m*3 0.29 C 8.1 km/h
102 29-01-2015 08:25:00 2.5 C 5 g/m*3 -0.62 C 11.3 km/h
103 29-01-2015 08:30:00 2.5 C 5 g/m*3 -0.26 C 9.7 km/h
104 29-01-2015 08:35:00 2.5 C 4.94 g/m*3 0.17 C 8.1 km/h
105 29-01-2015 08:40:00 2.6 C 4.98 g/m*3 0.29 C 8.1 km/h
106 29-01-2015 08:45:00 2.6 C 4.98 g/m*3 -2.28 C 22.5 km/h
107 29-01-2015 08:50:00 2.6 C 4.98 g/m*3 -1.12 C 14.5 km/h
108 29-01-2015 08:55:00 2.7 C 5.01 g/m*3 -1.51 C 17.7 km/h
109 29-01-2015 09:00:00 2.7 C 5.01 g/m*3 -0.38 C 11.3 km/h
110 29-01-2015 09:05:00 2.7 C 5.01 g/m*3 -0.71 C 12.9 km/h
111 29-01-2015 09:10:00 2.7 C 5.01 g/m*3 -0.02 C 9.7 km/h
112 29-01-2015 09:15:00 2.7 C 5.01 g/m*3 -0.71 C 12.9 km/h
113 29-01-2015 09:20:00 2.7 C 5.01 g/m*3 -1.51 C 17.7 km/h
114 29-01-2015 09:25:00 2.7 C 5.07 g/m*3 -1.51 C 17.7 km/h
115 29-01-2015 09:30:00 2.7 C 5.07 g/m*3 -1.27 C 16.1 km/h
116 29-01-2015 09:35:00 2.7 C 5.07 g/m*3 -1.27 C 16.1 km/h
117 29-01-2015 09:40:00 2.7 C 5.13 g/m*3 -0.02 C 9.7 km/h
118 29-01-2015 09:45:00 2.7 C 5.13 g/m*3 -0.71 C 12.9 km/h
119 29-01-2015 09:50:00 2.7 C 5.13 g/m*3 -0.38 C 11.3 km/h
120 29-01-2015 09:55:00 2.8 C 5.16 g/m*3 -0.59 C 12.9 km/h
121 29-01-2015 10:00:00 2.8 C 5.16 g/m*3 -0.88 C 14.5 km/h
122 29-01-2015 10:05:00 2.8 C 5.16 g/m*3 -0.59 C 12.9 km/h
123 29-01-2015 10:10:00 2.9 C 5.14 g/m*3 -1.02 C 16.1 km/h
124 29-01-2015 10:15:00 3.1 C 5.21 g/m*3 0.46 C 9.7 km/h
125 29-01-2015 10:20:00 3.2 C 5.18 g/m*3 -0.39 C 14.5 km/h
Sensor: Nr:Datum:Temp:Abs-Feuchte:Windchill:Wind:
Aussen-T/F 126 29-01-2015 10:25:00 3.2 C 5.18 g/m*3 0.58 C 9.7 km/h
127 29-01-2015 10:30:00 3.3 C 5.16 g/m*3 0.02 C 12.9 km/h
128 29-01-2015 10:35:00 3.3 C 5.16 g/m*3 -0.52 C 16.1 km/h
129 29-01-2015 10:40:00 3.4 C 5.19 g/m*3 -0.4 C 16.1 km/h
130 29-01-2015 10:45:00 3.4 C 5.19 g/m*3 1.23 C 8.1 km/h
131 29-01-2015 10:50:00 3.3 C 5.16 g/m*3 0.7 C 9.7 km/h
132 29-01-2015 10:55:00 3.3 C 5.16 g/m*3 1.11 C 8.1 km/h
133 29-01-2015 11:00:00 3.3 C 5.16 g/m*3 1.11 C 8.1 km/h
134 29-01-2015 11:05:00 3.3 C 5.16 g/m*3 0.02 C 12.9 km/h
135 29-01-2015 11:10:00 3.3 C 5.22 g/m*3 0.7 C 9.7 km/h
136 29-01-2015 11:15:00 3.3 C 5.22 g/m*3 0.34 C 11.3 km/h
137 29-01-2015 11:20:00 3.3 C 5.28 g/m*3 1.11 C 8.1 km/h
138 29-01-2015 11:25:00 3.3 C 5.34 g/m*3 1.11 C 8.1 km/h
139 29-01-2015 11:30:00 3.3 C 5.34 g/m*3 0.7 C 9.7 km/h
140 29-01-2015 11:35:00 3.4 C 5.37 g/m*3 0.46 C 11.3 km/h
141 29-01-2015 11:40:00 3.4 C 5.31 g/m*3 0.46 C 11.3 km/h
142 29-01-2015 11:45:00 3.5 C 5.35 g/m*3 0.58 C 11.3 km/h
143 29-01-2015 11:50:00 3.6 C 5.32 g/m*3 1.46 C 8.1 km/h
144 29-01-2015 11:55:00 3.6 C 5.32 g/m*3 0.39 C 12.9 km/h
145 29-01-2015 12:00:00 3.6 C 5.32 g/m*3 1.98 C 6.4 km/h
146 29-01-2015 12:05:00 3.7 C 5.36 g/m*3 0.82 C 11.3 km/h
147 29-01-2015 12:10:00 3.7 C 5.36 g/m*3 0.23 C 14.5 km/h
148 29-01-2015 12:15:00 3.8 C 5.4 g/m*3 1.29 C 9.7 km/h
149 29-01-2015 12:20:00 3.8 C 5.4 g/m*3 -0.36 C 19.3 km/h
150 29-01-2015 12:25:00 3.8 C 5.4 g/m*3 0.35 C 14.5 km/h
Sensor: Nr:Datum:Temp:Abs-Feuchte:Windchill:Wind:
Aussen-T/F 151 29-01-2015 12:30:00 3.8 C 5.33 g/m*3 1.7 C 8.1 km/h
152 29-01-2015 12:35:00 3.8 C 5.33 g/m*3 1.29 C 9.7 km/h
153 29-01-2015 12:40:00 3.8 C 5.33 g/m*3 0.63 C 12.9 km/h
154 29-01-2015 12:45:00 3.9 C 5.37 g/m*3 -0.23 C 19.3 km/h
155 29-01-2015 12:50:00 4 C 5.47 g/m*3 1.18 C 11.3 km/h
156 29-01-2015 12:55:00 4 C 5.47 g/m*3 0.11 C 17.7 km/h
157 29-01-2015 13:00:00 4 C 5.53 g/m*3 0.6 C 14.5 km/h
158 29-01-2015 13:05:00 3.9 C 5.49 g/m*3 0.47 C 14.5 km/h
159 29-01-2015 13:10:00 3.8 C 5.58 g/m*3 -0.36 C 19.3 km/h
160 29-01-2015 13:15:00 3.9 C 5.68 g/m*3 1.06 C 11.3 km/h
161 29-01-2015 13:20:00 4 C 5.66 g/m*3 0.11 C 17.7 km/h
162 29-01-2015 13:25:00 4.1 C 5.7 g/m*3 0.47 C 16.1 km/h
163 29-01-2015 13:30:00 4.1 C 5.7 g/m*3 1 C 12.9 km/h
164 29-01-2015 13:35:00 4.1 C 5.63 g/m*3 1 C 12.9 km/h
165 29-01-2015 13:40:00 4.2 C 5.61 g/m*3 0.59 C 16.1 km/h
166 29-01-2015 13:45:00 4.3 C 5.58 g/m*3 -0.11 C 22.5 km/h
167 29-01-2015 13:50:00 4.4 C 5.55 g/m*3 0.4 C 19.3 km/h
168 29-01-2015 13:55:00 4.6 C 5.56 g/m*3 1.34 C 14.5 km/h
169 29-01-2015 14:00:00 4.7 C 5.6 g/m*3 1.46 C 14.5 km/h
170 29-01-2015 14:05:00 4.8 C 5.57 g/m*3 1.11 C 17.7 km/h
171 29-01-2015 14:10:00 4.8 C 5.57 g/m*3 1.34 C 16.1 km/h
172 29-01-2015 14:15:00 4.8 C 5.57 g/m*3 2.15 C 11.3 km/h
173 29-01-2015 14:20:00 4.9 C 5.6 g/m*3 1.7 C 14.5 km/h
174 29-01-2015 14:25:00 4.9 C 5.54 g/m*3 1.97 C 12.9 km/h
175 29-01-2015 14:30:00 4.9 C 5.54 g/m*3 1.46 C 16.1 km/h
Sensor: Nr:Datum:Temp:Abs-Feuchte:Windchill:Wind:
Aussen-T/F 176 29-01-2015 14:35:00 4.9 C 5.54 g/m*3 1.7 C 14.5 km/h
177 29-01-2015 14:40:00 5.1 C 5.61 g/m*3 1.71 C 16.1 km/h
178 29-01-2015 14:45:00 5.2 C 5.65 g/m*3 2.07 C 14.5 km/h
179 29-01-2015 14:50:00 5.2 C 5.58 g/m*3 2.07 C 14.5 km/h
180 29-01-2015 14:55:00 5.2 C 5.65 g/m*3 1.83 C 16.1 km/h
181 29-01-2015 15:00:00 5.1 C 5.68 g/m*3 1.09 C 20.9 km/h
182 29-01-2015 15:05:00 5.1 C 5.75 g/m*3 2.51 C 11.3 km/h
183 29-01-2015 15:10:00 5.1 C 5.75 g/m*3 1.95 C 14.5 km/h
184 29-01-2015 15:15:00 5.2 C 5.71 g/m*3 2.63 C 11.3 km/h
185 29-01-2015 15:20:00 5.2 C 5.71 g/m*3 2.63 C 11.3 km/h
186 29-01-2015 15:25:00 5.1 C 5.68 g/m*3 2.22 C 12.9 km/h
187 29-01-2015 15:30:00 5.1 C 5.75 g/m*3 2.51 C 11.3 km/h
188 29-01-2015 15:35:00 5.1 C 5.68 g/m*3 2.22 C 12.9 km/h
189 29-01-2015 15:40:00 5.1 C 5.61 g/m*3 2.22 C 12.9 km/h
190 29-01-2015 15:45:00 5.1 C 5.54 g/m*3 3.23 C 8.1 km/h
191 29-01-2015 15:50:00 5.2 C 5.65 g/m*3 5.2 C 4.8 km/h
192 29-01-2015 15:55:00 5.2 C 5.65 g/m*3 5.2 C 4.8 km/h
193 29-01-2015 16:00:00 5.2 C 5.65 g/m*3 3.34 C 8.1 km/h
194 29-01-2015 16:05:00 5.2 C 5.65 g/m*3 3.34 C 8.1 km/h
195 29-01-2015 16:10:00 5.2 C 5.65 g/m*3 5.2 C 3.2 km/h
196 29-01-2015 16:15:00 5.2 C 5.71 g/m*3 5.2 C 4.8 km/h
197 29-01-2015 16:20:00 5.1 C 5.68 g/m*3 5.1 C 3.2 km/h
198 29-01-2015 16:25:00 5.1 C 5.68 g/m*3 5.1 C 4.8 km/h
199 29-01-2015 16:30:00 4.9 C 5.67 g/m*3 4.9 C 3.2 km/h
200 29-01-2015 16:35:00 4.8 C 5.7 g/m*3 4.8 C 3.2 km/h
Sensor: Nr:Datum:Temp:Abs-Feuchte:Windchill:Wind:
Aussen-T/F 201 29-01-2015 16:40:00 4.7 C 5.66 g/m*3 4.7 C 4.8 km/h
202 29-01-2015 16:45:00 4.7 C 5.73 g/m*3 4.7 C 1.6 km/h
203 29-01-2015 16:50:00 4.6 C 5.76 g/m*3 4.6 C 1.6 km/h
204 29-01-2015 16:55:00 4.4 C 5.68 g/m*3 2.4 C 8.1 km/h
205 29-01-2015 17:00:00 4.3 C 5.71 g/m*3 4.3 C 4.8 km/h
206 29-01-2015 17:05:00 4.2 C 5.67 g/m*3 2.67 C 6.4 km/h
207 29-01-2015 17:10:00 4.1 C 5.7 g/m*3 4.1 C 4.8 km/h
208 29-01-2015 17:15:00 3.9 C 5.62 g/m*3 3.9 C 3.2 km/h
209 29-01-2015 17:20:00 3.8 C 5.65 g/m*3 3.8 C 1.6 km/h
210 29-01-2015 17:25:00 3.6 C 5.57 g/m*3 3.6 C 0 km/h
211 29-01-2015 17:30:00 3.6 C 5.57 g/m*3 3.6 C 0 km/h
212 29-01-2015 17:35:00 3.4 C 5.56 g/m*3 3.4 C 3.2 km/h
213 29-01-2015 17:40:00 3.3 C 5.58 g/m*3 3.3 C 0 km/h
214 29-01-2015 17:45:00 3.3 C 5.58 g/m*3 3.3 C 0 km/h
215 29-01-2015 17:50:00 3.2 C 5.6 g/m*3 3.2 C 1.6 km/h
216 29-01-2015 17:55:00 3.1 C 5.57 g/m*3 3.1 C 3.2 km/h
217 29-01-2015 18:00:00 3.1 C 5.57 g/m*3 3.1 C 4.8 km/h
218 29-01-2015 18:05:00 3 C 5.53 g/m*3 3 C 1.6 km/h
219 29-01-2015 18:10:00 3 C 5.59 g/m*3 1.28 C 6.4 km/h
220 29-01-2015 18:15:00 2.9 C 5.55 g/m*3 1.17 C 6.4 km/h
221 29-01-2015 18:20:00 2.9 C 5.55 g/m*3 2.9 C 3.2 km/h
222 29-01-2015 18:25:00 2.9 C 5.55 g/m*3 2.9 C 0 km/h
223 29-01-2015 18:30:00 2.9 C 5.55 g/m*3 2.9 C 1.6 km/h
224 29-01-2015 18:35:00 2.9 C 5.55 g/m*3 2.9 C 0 km/h
225 29-01-2015 18:40:00 2.9 C 5.61 g/m*3 2.9 C 3.2 km/h
Sensor: Nr:Datum:Temp:Abs-Feuchte:Windchill:Wind:
Aussen-T/F 226 29-01-2015 18:45:00 2.9 C 5.61 g/m*3 2.9 C 1.6 km/h
227 29-01-2015 18:50:00 2.9 C 5.61 g/m*3 2.9 C 1.6 km/h
228 29-01-2015 18:55:00 3 C 5.65 g/m*3 3 C 3.2 km/h
229 29-01-2015 19:00:00 3 C 5.65 g/m*3 3 C 4.8 km/h
230 29-01-2015 19:05:00 3.1 C 5.69 g/m*3 3.1 C 1.6 km/h
231 29-01-2015 19:10:00 3.1 C 5.69 g/m*3 3.1 C 1.6 km/h
232 29-01-2015 19:15:00 3.1 C 5.69 g/m*3 3.1 C 4.8 km/h
233 29-01-2015 19:20:00 3.1 C 5.69 g/m*3 3.1 C 1.6 km/h
234 29-01-2015 19:25:00 3.1 C 5.69 g/m*3 3.1 C 0 km/h
235 29-01-2015 19:30:00 3.1 C 5.69 g/m*3 3.1 C 1.6 km/h
236 29-01-2015 19:35:00 3 C 5.65 g/m*3 3 C 0 km/h
237 29-01-2015 19:40:00 3 C 5.65 g/m*3 3 C 0 km/h
238 29-01-2015 19:45:00 2.9 C 5.67 g/m*3 2.9 C 0 km/h
239 29-01-2015 19:50:00 2.9 C 5.67 g/m*3 2.9 C 1.6 km/h
240 29-01-2015 19:55:00 2.9 C 5.67 g/m*3 2.9 C 0 km/h
241 29-01-2015 20:00:00 2.9 C 5.67 g/m*3 2.9 C 0 km/h
242 29-01-2015 20:05:00 2.9 C 5.67 g/m*3 2.9 C 0 km/h
243 29-01-2015 20:10:00 2.9 C 5.67 g/m*3 2.9 C 0 km/h
244 29-01-2015 20:15:00 2.9 C 5.67 g/m*3 2.9 C 0 km/h
245 29-01-2015 20:20:00 2.9 C 5.67 g/m*3 2.9 C 0 km/h
246 29-01-2015 20:25:00 2.9 C 5.67 g/m*3 2.9 C 0 km/h
247 29-01-2015 20:30:00 2.9 C 5.67 g/m*3 2.9 C 0 km/h
248 29-01-2015 20:35:00 2.9 C 5.67 g/m*3 2.9 C 0 km/h
249 29-01-2015 20:40:00 2.8 C 5.63 g/m*3 2.8 C 0 km/h
250 29-01-2015 20:45:00 2.8 C 5.63 g/m*3 2.8 C 0 km/h
Sensor: Nr:Datum:Temp:Abs-Feuchte:Windchill:Wind:
Aussen-T/F 251 29-01-2015 20:50:00 2.8 C 5.63 g/m*3 2.8 C 0 km/h
252 29-01-2015 20:55:00 2.8 C 5.63 g/m*3 2.8 C 0 km/h
253 29-01-2015 21:00:00 2.8 C 5.63 g/m*3 2.8 C 0 km/h
254 29-01-2015 21:05:00 2.8 C 5.63 g/m*3 2.8 C 0 km/h
255 29-01-2015 21:10:00 2.8 C 5.63 g/m*3 2.8 C 0 km/h
256 29-01-2015 21:15:00 2.7 C 5.59 g/m*3 2.7 C 0 km/h
257 29-01-2015 21:20:00 2.7 C 5.59 g/m*3 2.7 C 0 km/h
258 29-01-2015 21:25:00 2.6 C 5.56 g/m*3 2.6 C 0 km/h
259 29-01-2015 21:30:00 2.6 C 5.56 g/m*3 2.6 C 1.6 km/h
260 29-01-2015 21:35:00 2.6 C 5.56 g/m*3 2.6 C 0 km/h
261 29-01-2015 21:40:00 2.6 C 5.61 g/m*3 2.6 C 0 km/h
262 29-01-2015 21:45:00 2.6 C 5.61 g/m*3 2.6 C 0 km/h
263 29-01-2015 21:50:00 2.6 C 5.61 g/m*3 2.6 C 1.6 km/h
264 29-01-2015 21:55:00 2.6 C 5.61 g/m*3 2.6 C 1.6 km/h
265 29-01-2015 22:00:00 2.6 C 5.61 g/m*3 2.6 C 0 km/h
266 29-01-2015 22:05:00 2.6 C 5.61 g/m*3 2.6 C 4.8 km/h
267 29-01-2015 22:10:00 2.7 C 5.65 g/m*3 2.7 C 1.6 km/h
268 29-01-2015 22:15:00 2.6 C 5.61 g/m*3 2.6 C 3.2 km/h
269 29-01-2015 22:20:00 2.7 C 5.65 g/m*3 2.7 C 0 km/h
270 29-01-2015 22:25:00 2.7 C 5.65 g/m*3 2.7 C 1.6 km/h
271 29-01-2015 22:30:00 2.7 C 5.65 g/m*3 2.7 C 4.8 km/h
272 29-01-2015 22:35:00 2.7 C 5.59 g/m*3 2.7 C 1.6 km/h
273 29-01-2015 22:40:00 2.7 C 5.59 g/m*3 2.7 C 0 km/h
274 29-01-2015 22:45:00 2.7 C 5.59 g/m*3 2.7 C 4.8 km/h
275 29-01-2015 22:50:00 2.7 C 5.59 g/m*3 2.7 C 3.2 km/h
Sensor: Nr:Datum:Temp:Abs-Feuchte:Windchill:Wind:
Aussen-T/F 276 29-01-2015 22:55:00 2.7 C 5.59 g/m*3 2.7 C 1.6 km/h
277 29-01-2015 23:00:00 2.7 C 5.59 g/m*3 2.7 C 1.6 km/h
278 29-01-2015 23:05:00 2.7 C 5.59 g/m*3 2.7 C 1.6 km/h
279 29-01-2015 23:10:00 2.7 C 5.59 g/m*3 2.7 C 3.2 km/h
280 29-01-2015 23:15:00 2.7 C 5.59 g/m*3 2.7 C 1.6 km/h
281 29-01-2015 23:20:00 2.6 C 5.56 g/m*3 2.6 C 0 km/h
282 29-01-2015 23:25:00 2.6 C 5.56 g/m*3 2.6 C 0 km/h
283 29-01-2015 23:30:00 2.6 C 5.56 g/m*3 2.6 C 1.6 km/h
284 29-01-2015 23:35:00 2.6 C 5.56 g/m*3 2.6 C 0 km/h
285 29-01-2015 23:40:00 2.6 C 5.56 g/m*3 2.6 C 0 km/h
286 29-01-2015 23:45:00 2.6 C 5.56 g/m*3 2.6 C 0 km/h
287 29-01-2015 23:50:00 2.6 C 5.56 g/m*3 2.6 C 0 km/h
288 29-01-2015 23:55:00 2.6 C 5.56 g/m*3 2.6 C 0 km/h
289 30-01-2015 00:00:00 2.6 C 5.56 g/m*3 2.6 C 0 km/h
290 30-01-2015 00:05:00 2.6 C 5.56 g/m*3 2.6 C 1.6 km/h
291 30-01-2015 00:10:00 2.6 C 5.56 g/m*3 2.6 C 0 km/h
292 30-01-2015 00:15:00 2.5 C 5.52 g/m*3 2.5 C 0 km/h
293 30-01-2015 00:20:00 2.4 C 5.48 g/m*3 2.4 C 1.6 km/h
294 30-01-2015 00:25:00 2.4 C 5.48 g/m*3 2.4 C 1.6 km/h
295 30-01-2015 00:30:00 2.4 C 5.48 g/m*3 2.4 C 0 km/h
296 30-01-2015 00:35:00 2.4 C 5.54 g/m*3 2.4 C 0 km/h
297 30-01-2015 00:40:00 2.4 C 5.54 g/m*3 2.4 C 0 km/h
298 30-01-2015 00:45:00 2.4 C 5.48 g/m*3 2.4 C 0 km/h
299 30-01-2015 00:50:00 2.4 C 5.48 g/m*3 2.4 C 0 km/h
300 30-01-2015 00:55:00 2.3 C 5.44 g/m*3 2.3 C 0 km/h
Sensor: Nr:Datum:Temp:Abs-Feuchte:Windchill:Wind:
Aussen-T/F 301 30-01-2015 01:00:00 2.3 C 5.44 g/m*3 2.3 C 0 km/h
302 30-01-2015 01:05:00 2.3 C 5.44 g/m*3 2.3 C 1.6 km/h
303 30-01-2015 01:10:00 2.3 C 5.5 g/m*3 2.3 C 3.2 km/h
304 30-01-2015 01:15:00 2.3 C 5.5 g/m*3 2.3 C 3.2 km/h
305 30-01-2015 01:20:00 2.3 C 5.5 g/m*3 2.3 C 1.6 km/h
306 30-01-2015 01:25:00 2.3 C 5.5 g/m*3 2.3 C 1.6 km/h
307 30-01-2015 01:30:00 2.3 C 5.44 g/m*3 2.3 C 3.2 km/h
308 30-01-2015 01:35:00 2.3 C 5.44 g/m*3 2.3 C 4.8 km/h
309 30-01-2015 01:40:00 2.3 C 5.44 g/m*3 2.3 C 0 km/h
310 30-01-2015 01:45:00 2.2 C 5.41 g/m*3 2.2 C 0 km/h
311 30-01-2015 01:50:00 2 C 5.33 g/m*3 2 C 0 km/h
312 30-01-2015 01:55:00 2 C 5.33 g/m*3 2 C 0 km/h
313 30-01-2015 02:00:00 2 C 5.33 g/m*3 2 C 0 km/h
314 30-01-2015 02:05:00 2.1 C 5.37 g/m*3 2.1 C 0 km/h
315 30-01-2015 02:10:00 2.1 C 5.43 g/m*3 2.1 C 4.8 km/h
316 30-01-2015 02:15:00 2.2 C 5.46 g/m*3 2.2 C 1.6 km/h
317 30-01-2015 02:20:00 2.2 C 5.46 g/m*3 2.2 C 0 km/h
318 30-01-2015 02:25:00 2.2 C 5.46 g/m*3 2.2 C 0 km/h
319 30-01-2015 02:30:00 2.3 C 5.5 g/m*3 2.3 C 0 km/h
320 30-01-2015 02:35:00 2.3 C 5.5 g/m*3 -0.07 C 8.1 km/h
321 30-01-2015 02:40:00 2.2 C 5.46 g/m*3 -0.18 C 8.1 km/h
322 30-01-2015 02:45:00 2.1 C 5.37 g/m*3 -1.11 C 11.3 km/h
323 30-01-2015 02:50:00 1.9 C 5.3 g/m*3 1.9 C 4.8 km/h
324 30-01-2015 02:55:00 1.8 C 5.26 g/m*3 -1.09 C 9.7 km/h
325 30-01-2015 03:00:00 1.7 C 5.23 g/m*3 1.7 C 1.6 km/h
Sensor: Nr:Datum:Temp:Abs-Feuchte:Windchill:Wind:
Aussen-T/F 326 30-01-2015 03:05:00 1.6 C 5.19 g/m*3 -0.33 C 6.4 km/h
327 30-01-2015 03:10:00 1.5 C 5.16 g/m*3 1.5 C 1.6 km/h
328 30-01-2015 03:15:00 1.5 C 5.16 g/m*3 1.5 C 1.6 km/h
329 30-01-2015 03:20:00 1.5 C 5.16 g/m*3 1.5 C 1.6 km/h
330 30-01-2015 03:25:00 1.5 C 5.16 g/m*3 1.5 C 4.8 km/h
331 30-01-2015 03:30:00 1.6 C 5.19 g/m*3 1.6 C 3.2 km/h
332 30-01-2015 03:35:00 1.6 C 5.19 g/m*3 1.6 C 4.8 km/h
333 30-01-2015 03:40:00 1.6 C 5.19 g/m*3 1.6 C 3.2 km/h
334 30-01-2015 03:45:00 1.6 C 5.19 g/m*3 -2.05 C 12.9 km/h
335 30-01-2015 03:50:00 1.7 C 5.17 g/m*3 -1.93 C 12.9 km/h
336 30-01-2015 03:55:00 1.7 C 5.12 g/m*3 1.7 C 4.8 km/h
337 30-01-2015 04:00:00 1.8 C 5.15 g/m*3 1.8 C 4.8 km/h
338 30-01-2015 04:05:00 1.8 C 5.1 g/m*3 -1.8 C 12.9 km/h
339 30-01-2015 04:10:00 1.8 C 5.04 g/m*3 1.8 C 3.2 km/h
340 30-01-2015 04:15:00 1.8 C 4.99 g/m*3 1.8 C 1.6 km/h
341 30-01-2015 04:20:00 1.8 C 5.04 g/m*3 1.8 C 1.6 km/h
342 30-01-2015 04:25:00 1.8 C 5.1 g/m*3 1.8 C 4.8 km/h
343 30-01-2015 04:30:00 1.7 C 4.95 g/m*3 -2.23 C 14.5 km/h
344 30-01-2015 04:35:00 1.7 C 4.95 g/m*3 1.7 C 3.2 km/h
345 30-01-2015 04:40:00 1.6 C 4.92 g/m*3 -0.89 C 8.1 km/h
346 30-01-2015 04:45:00 1.6 C 4.87 g/m*3 -1.33 C 9.7 km/h
347 30-01-2015 04:50:00 1.6 C 4.87 g/m*3 -0.89 C 8.1 km/h
348 30-01-2015 04:55:00 1.6 C 4.87 g/m*3 -0.33 C 6.4 km/h
349 30-01-2015 05:00:00 1.6 C 4.81 g/m*3 -0.33 C 6.4 km/h
350 30-01-2015 05:05:00 1.6 C 4.81 g/m*3 -0.33 C 6.4 km/h
Sensor: Nr:Datum:Temp:Abs-Feuchte:Windchill:Wind:
Aussen-T/F 351 30-01-2015 05:10:00 1.6 C 4.87 g/m*3 1.6 C 4.8 km/h
352 30-01-2015 05:15:00 1.6 C 4.87 g/m*3 1.6 C 4.8 km/h
353 30-01-2015 05:20:00 1.6 C 4.81 g/m*3 -1.71 C 11.3 km/h
354 30-01-2015 05:25:00 1.6 C 4.81 g/m*3 -0.33 C 6.4 km/h
355 30-01-2015 05:30:00 1.6 C 4.76 g/m*3 -0.33 C 6.4 km/h
356 30-01-2015 05:35:00 1.6 C 4.76 g/m*3 -0.89 C 8.1 km/h
357 30-01-2015 05:40:00 1.6 C 4.76 g/m*3 1.6 C 4.8 km/h
358 30-01-2015 05:45:00 1.6 C 4.7 g/m*3 -0.89 C 8.1 km/h
359 30-01-2015 05:50:00 1.6 C 4.7 g/m*3 -2.05 C 12.9 km/h
360 30-01-2015 05:55:00 1.6 C 4.65 g/m*3 -2.35 C 14.5 km/h
361 30-01-2015 06:00:00 1.6 C 4.7 g/m*3 -1.71 C 11.3 km/h
362 30-01-2015 06:05:00 1.6 C 4.7 g/m*3 -0.33 C 6.4 km/h
363 30-01-2015 06:10:00 1.6 C 4.65 g/m*3 -1.33 C 9.7 km/h
364 30-01-2015 06:15:00 1.7 C 4.63 g/m*3 -1.59 C 11.3 km/h
365 30-01-2015 06:20:00 1.7 C 4.68 g/m*3 -0.22 C 6.4 km/h
366 30-01-2015 06:25:00 1.7 C 4.68 g/m*3 -1.21 C 9.7 km/h
367 30-01-2015 06:30:00 1.7 C 4.63 g/m*3 -0.77 C 8.1 km/h
368 30-01-2015 06:35:00 1.7 C 4.63 g/m*3 -2.51 C 16.1 km/h
369 30-01-2015 06:40:00 1.7 C 4.63 g/m*3 -1.21 C 9.7 km/h
370 30-01-2015 06:45:00 1.7 C 4.63 g/m*3 -0.77 C 8.1 km/h
371 30-01-2015 06:50:00 1.6 C 4.6 g/m*3 -2.35 C 14.5 km/h
372 30-01-2015 06:55:00 1.7 C 4.63 g/m*3 -1.93 C 12.9 km/h
373 30-01-2015 07:00:00 1.7 C 4.63 g/m*3 -0.77 C 8.1 km/h
374 30-01-2015 07:05:00 1.7 C 4.57 g/m*3 -2.23 C 14.5 km/h
375 30-01-2015 07:10:00 1.8 C 4.6 g/m*3 -1.47 C 11.3 km/h
Sensor: Nr:Datum:Temp:Abs-Feuchte:Windchill:Wind:
Aussen-T/F 376 30-01-2015 07:15:00 1.8 C 4.55 g/m*3 -1.47 C 11.3 km/h
377 30-01-2015 07:20:00 1.8 C 4.6 g/m*3 -1.8 C 12.9 km/h
378 30-01-2015 07:25:00 1.8 C 4.66 g/m*3 -1.09 C 9.7 km/h
379 30-01-2015 07:30:00 1.7 C 4.68 g/m*3 -1.21 C 9.7 km/h
380 30-01-2015 07:35:00 1.6 C 4.7 g/m*3 -0.89 C 8.1 km/h
381 30-01-2015 07:40:00 1.5 C 4.73 g/m*3 -1.45 C 9.7 km/h
382 30-01-2015 07:45:00 1.4 C 4.75 g/m*3 -1.57 C 9.7 km/h
383 30-01-2015 07:50:00 1.4 C 4.75 g/m*3 -1.12 C 8.1 km/h
384 30-01-2015 07:55:00 1.3 C 4.72 g/m*3 -2.41 C 12.9 km/h
385 30-01-2015 08:00:00 1.3 C 4.77 g/m*3 -1.69 C 9.7 km/h
386 30-01-2015 08:05:00 1.3 C 4.77 g/m*3 -1.24 C 8.1 km/h
387 30-01-2015 08:10:00 1.2 C 4.79 g/m*3 -2.19 C 11.3 km/h
388 30-01-2015 08:15:00 1.2 C 4.79 g/m*3 -2.19 C 11.3 km/h
389 30-01-2015 08:20:00 1.2 C 4.79 g/m*3 -1.36 C 8.1 km/h
390 30-01-2015 08:25:00 1.2 C 4.79 g/m*3 -2.19 C 11.3 km/h
391 30-01-2015 08:30:00 1.2 C 4.79 g/m*3 -0.8 C 6.4 km/h
392 30-01-2015 08:35:00 1.2 C 4.79 g/m*3 1.2 C 4.8 km/h
393 30-01-2015 08:40:00 1.3 C 4.77 g/m*3 -1.69 C 9.7 km/h
394 30-01-2015 08:45:00 1.4 C 4.75 g/m*3 -1.57 C 9.7 km/h
395 30-01-2015 08:50:00 1.6 C 4.76 g/m*3 -2.05 C 12.9 km/h
396 30-01-2015 08:55:00 1.6 C 4.76 g/m*3 -0.89 C 8.1 km/h
397 30-01-2015 09:00:00 1.7 C 4.74 g/m*3 -2.23 C 14.5 km/h
398 30-01-2015 09:05:00 1.8 C 4.77 g/m*3 -0.65 C 8.1 km/h
399 30-01-2015 09:10:00 1.8 C 4.77 g/m*3 -0.65 C 8.1 km/h
400 30-01-2015 09:15:00 1.8 C 4.77 g/m*3 -1.47 C 11.3 km/h
Sensor: Nr:Datum:Temp:Abs-Feuchte:Windchill:Wind:
Aussen-T/F 401 30-01-2015 09:20:00 1.9 C 4.75 g/m*3 -2.97 C 20.9 km/h
402 30-01-2015 09:25:00 2 C 4.72 g/m*3 -1.56 C 12.9 km/h
403 30-01-2015 09:30:00 2.2 C 4.79 g/m*3 -1.89 C 16.1 km/h
404 30-01-2015 09:35:00 2.2 C 4.73 g/m*3 -2.14 C 17.7 km/h
405 30-01-2015 09:40:00 2.2 C 4.73 g/m*3 -1.32 C 12.9 km/h
406 30-01-2015 09:45:00 2.2 C 4.73 g/m*3 -0.99 C 11.3 km/h
407 30-01-2015 09:50:00 2.1 C 4.76 g/m*3 -2.01 C 16.1 km/h
408 30-01-2015 09:55:00 2.1 C 4.76 g/m*3 -2.01 C 16.1 km/h
409 30-01-2015 10:00:00 2.1 C 4.76 g/m*3 -0.3 C 8.1 km/h
410 30-01-2015 10:05:00 2.1 C 4.76 g/m*3 -0.3 C 8.1 km/h
411 30-01-2015 10:10:00 2.1 C 4.76 g/m*3 -0.3 C 8.1 km/h
412 30-01-2015 10:15:00 2.1 C 4.81 g/m*3 -0.73 C 9.7 km/h
413 30-01-2015 10:20:00 2.1 C 4.81 g/m*3 -1.74 C 14.5 km/h
414 30-01-2015 10:25:00 2.1 C 4.81 g/m*3 -1.11 C 11.3 km/h
415 30-01-2015 10:30:00 2.2 C 4.84 g/m*3 -1.32 C 12.9 km/h
416 30-01-2015 10:35:00 2.3 C 4.88 g/m*3 -0.87 C 11.3 km/h
417 30-01-2015 10:40:00 2.4 C 4.91 g/m*3 -0.37 C 9.7 km/h
418 30-01-2015 10:45:00 2.4 C 4.91 g/m*3 -1.64 C 16.1 km/h
419 30-01-2015 10:50:00 2.5 C 4.94 g/m*3 -1.25 C 14.5 km/h
420 30-01-2015 10:55:00 2.6 C 4.98 g/m*3 -0.5 C 11.3 km/h
421 30-01-2015 11:00:00 2.6 C 4.98 g/m*3 -0.14 C 9.7 km/h
422 30-01-2015 11:05:00 2.7 C 5.01 g/m*3 -0.38 C 11.3 km/h
423 30-01-2015 11:10:00 2.8 C 4.99 g/m*3 -1.39 C 17.7 km/h
424 30-01-2015 11:15:00 2.8 C 4.99 g/m*3 -0.88 C 14.5 km/h
425 30-01-2015 11:20:00 2.9 C 5.02 g/m*3 -0.46 C 12.9 km/h
Sensor: Nr:Datum:Temp:Abs-Feuchte:Windchill:Wind:
Aussen-T/F 426 30-01-2015 11:25:00 2.9 C 5.08 g/m*3 -0.46 C 12.9 km/h
427 30-01-2015 11:30:00 2.8 C 4.99 g/m*3 -0.26 C 11.3 km/h
428 30-01-2015 11:35:00 2.8 C 4.99 g/m*3 0.1 C 9.7 km/h
429 30-01-2015 11:40:00 2.8 C 4.99 g/m*3 0.1 C 9.7 km/h
430 30-01-2015 11:45:00 2.8 C 4.93 g/m*3 -1.83 C 20.9 km/h
431 30-01-2015 11:50:00 2.9 C 4.96 g/m*3 -1.02 C 16.1 km/h
432 30-01-2015 11:55:00 2.9 C 4.96 g/m*3 -0.46 C 12.9 km/h
433 30-01-2015 12:00:00 2.9 C 4.96 g/m*3 -0.14 C 11.3 km/h
434 30-01-2015 12:05:00 2.9 C 4.96 g/m*3 -0.46 C 12.9 km/h
435 30-01-2015 12:10:00 2.9 C 4.96 g/m*3 0.64 C 8.1 km/h
436 30-01-2015 12:15:00 2.9 C 4.96 g/m*3 -0.14 C 11.3 km/h
437 30-01-2015 12:20:00 2.9 C 5.02 g/m*3 0.64 C 8.1 km/h
438 30-01-2015 12:25:00 2.9 C 5.02 g/m*3 0.22 C 9.7 km/h
439 30-01-2015 12:30:00 3 C 5.05 g/m*3 0.76 C 8.1 km/h
440 30-01-2015 12:35:00 3.1 C 5.03 g/m*3 -0.22 C 12.9 km/h
441 30-01-2015 12:40:00 3.2 C 5.12 g/m*3 -0.1 C 12.9 km/h
442 30-01-2015 12:45:00 3.3 C 5.16 g/m*3 1.63 C 6.4 km/h
443 30-01-2015 12:50:00 3.3 C 5.1 g/m*3 0.02 C 12.9 km/h
444 30-01-2015 12:55:00 3.4 C 5.13 g/m*3 0.82 C 9.7 km/h
445 30-01-2015 13:00:00 3.4 C 5.13 g/m*3 -0.64 C 17.7 km/h
446 30-01-2015 13:05:00 3.4 C 5.07 g/m*3 0.82 C 9.7 km/h
447 30-01-2015 13:10:00 3.4 C 5.01 g/m*3 -1.07 C 20.9 km/h
448 30-01-2015 13:15:00 3.4 C 5.01 g/m*3 -0.4 C 16.1 km/h
449 30-01-2015 13:20:00 3.3 C 4.97 g/m*3 0.34 C 11.3 km/h
450 30-01-2015 13:25:00 3.2 C 4.94 g/m*3 0.22 C 11.3 km/h
Sensor: Nr:Datum:Temp:Abs-Feuchte:Windchill:Wind:
Aussen-T/F 451 30-01-2015 13:30:00 3.2 C 4.94 g/m*3 0.58 C 9.7 km/h
452 30-01-2015 13:35:00 3.1 C 4.91 g/m*3 1.4 C 6.4 km/h
453 30-01-2015 13:40:00 3.1 C 4.97 g/m*3 -0.22 C 12.9 km/h
454 30-01-2015 13:45:00 3.1 C 4.97 g/m*3 1.4 C 6.4 km/h
455 30-01-2015 13:50:00 3 C 4.93 g/m*3 0.76 C 8.1 km/h
456 30-01-2015 13:55:00 3 C 4.99 g/m*3 1.28 C 6.4 km/h
457 30-01-2015 14:00:00 3 C 4.99 g/m*3 3 C 4.8 km/h
458 30-01-2015 14:05:00 2.9 C 4.9 g/m*3 0.22 C 9.7 km/h
459 30-01-2015 14:10:00 2.9 C 4.9 g/m*3 1.17 C 6.4 km/h
460 30-01-2015 14:15:00 3 C 4.88 g/m*3 0.34 C 9.7 km/h
461 30-01-2015 14:20:00 2.9 C 4.9 g/m*3 0.22 C 9.7 km/h
462 30-01-2015 14:25:00 2.9 C 4.9 g/m*3 2.9 C 4.8 km/h
463 30-01-2015 14:30:00 2.9 C 4.96 g/m*3 2.9 C 4.8 km/h
464 30-01-2015 14:35:00 2.8 C 4.93 g/m*3 1.05 C 6.4 km/h
465 30-01-2015 14:40:00 2.8 C 4.99 g/m*3 0.1 C 9.7 km/h
466 30-01-2015 14:45:00 2.8 C 4.99 g/m*3 0.52 C 8.1 km/h
467 30-01-2015 14:50:00 2.7 C 5.01 g/m*3 2.7 C 3.2 km/h
468 30-01-2015 14:55:00 2.6 C 4.98 g/m*3 2.6 C 3.2 km/h
469 30-01-2015 15:00:00 2.6 C 5.03 g/m*3 2.6 C 3.2 km/h
470 30-01-2015 15:05:00 2.4 C 4.97 g/m*3 2.4 C 4.8 km/h
471 30-01-2015 15:10:00 2.3 C 4.99 g/m*3 2.3 C 4.8 km/h
472 30-01-2015 15:15:00 2.2 C 5.01 g/m*3 2.2 C 3.2 km/h
473 30-01-2015 15:20:00 2.2 C 5.01 g/m*3 2.2 C 1.6 km/h
474 30-01-2015 15:25:00 2 C 5 g/m*3 2 C 3.2 km/h
475 30-01-2015 15:30:00 1.9 C 4.97 g/m*3 1.9 C 4.8 km/h
Sensor: Nr:Datum:Temp:Abs-Feuchte:Windchill:Wind:
Aussen-T/F 476 30-01-2015 15:35:00 1.9 C 5.02 g/m*3 1.9 C 3.2 km/h
477 30-01-2015 15:40:00 1.9 C 5.02 g/m*3 1.9 C 3.2 km/h
478 30-01-2015 15:45:00 1.8 C 4.99 g/m*3 1.8 C 3.2 km/h
479 30-01-2015 15:50:00 1.8 C 4.99 g/m*3 1.8 C 1.6 km/h
480 30-01-2015 15:55:00 1.8 C 4.99 g/m*3 -0.1 C 6.4 km/h
481 30-01-2015 16:00:00 1.8 C 4.99 g/m*3 1.8 C 1.6 km/h
482 30-01-2015 16:05:00 1.8 C 4.99 g/m*3 1.8 C 3.2 km/h
483 30-01-2015 16:10:00 1.7 C 4.95 g/m*3 1.7 C 3.2 km/h
484 30-01-2015 16:15:00 1.6 C 4.97 g/m*3 1.6 C 3.2 km/h
485 30-01-2015 16:20:00 1.5 C 4.94 g/m*3 1.5 C 3.2 km/h
486 30-01-2015 16:25:00 1.4 C 4.91 g/m*3 1.4 C 3.2 km/h
487 30-01-2015 16:30:00 1.3 C 4.93 g/m*3 1.3 C 3.2 km/h
488 30-01-2015 16:35:00 1.2 C 4.89 g/m*3 1.2 C 3.2 km/h
489 30-01-2015 16:40:00 1.2 C 4.89 g/m*3 1.2 C 3.2 km/h
490 30-01-2015 16:45:00 1.2 C 4.89 g/m*3 1.2 C 3.2 km/h
491 30-01-2015 16:50:00 1.1 C 4.91 g/m*3 1.1 C 3.2 km/h
492 30-01-2015 16:55:00 1.1 C 4.91 g/m*3 1.1 C 3.2 km/h
493 30-01-2015 17:00:00 1 C 4.88 g/m*3 1 C 3.2 km/h
494 30-01-2015 17:05:00 1 C 4.88 g/m*3 1 C 3.2 km/h
495 30-01-2015 17:10:00 0.9 C 4.85 g/m*3 0.9 C 3.2 km/h
496 30-01-2015 17:15:00 1 C 4.93 g/m*3 1 C 3.2 km/h
497 30-01-2015 17:20:00 1.1 C 4.96 g/m*3 1.1 C 4.8 km/h
498 30-01-2015 17:25:00 1.1 C 4.91 g/m*3 1.1 C 3.2 km/h
499 30-01-2015 17:30:00 1.2 C 4.95 g/m*3 -0.8 C 6.4 km/h
500 30-01-2015 17:35:00 1.2 C 5 g/m*3 1.2 C 3.2 km/h
Sensor: Nr:Datum:Temp:Abs-Feuchte:Windchill:Wind:
Aussen-T/F 501 30-01-2015 17:40:00 1.2 C 5 g/m*3 1.2 C 3.2 km/h
502 30-01-2015 17:45:00 1.2 C 5 g/m*3 1.2 C 3.2 km/h
503 30-01-2015 17:50:00 1.2 C 5 g/m*3 1.2 C 4.8 km/h
504 30-01-2015 17:55:00 1.2 C 5 g/m*3 -0.8 C 6.4 km/h
505 30-01-2015 18:00:00 1.3 C 5.03 g/m*3 1.3 C 4.8 km/h
506 30-01-2015 18:05:00 1.3 C 5.03 g/m*3 1.3 C 1.6 km/h
507 30-01-2015 18:10:00 1.3 C 5.03 g/m*3 1.3 C 1.6 km/h
508 30-01-2015 18:15:00 1.3 C 5.03 g/m*3 1.3 C 1.6 km/h
509 30-01-2015 18:20:00 1.3 C 5.03 g/m*3 1.3 C 3.2 km/h
510 30-01-2015 18:25:00 1.2 C 5 g/m*3 1.2 C 1.6 km/h
511 30-01-2015 18:30:00 1.2 C 5 g/m*3 1.2 C 1.6 km/h
512 30-01-2015 18:35:00 1.2 C 5 g/m*3 1.2 C 0 km/h
513 30-01-2015 18:40:00 1.2 C 5 g/m*3 1.2 C 1.6 km/h
514 30-01-2015 18:45:00 1.2 C 5 g/m*3 1.2 C 3.2 km/h
515 30-01-2015 18:50:00 1.3 C 5.03 g/m*3 1.3 C 4.8 km/h
516 30-01-2015 18:55:00 1.4 C 5.07 g/m*3 1.4 C 3.2 km/h
517 30-01-2015 19:00:00 1.5 C 5.05 g/m*3 1.5 C 4.8 km/h
518 30-01-2015 19:05:00 1.6 C 5.08 g/m*3 1.6 C 1.6 km/h
519 30-01-2015 19:10:00 1.7 C 5.12 g/m*3 1.7 C 1.6 km/h
520 30-01-2015 19:15:00 1.6 C 5.08 g/m*3 1.6 C 0 km/h
521 30-01-2015 19:20:00 1.6 C 5.08 g/m*3 1.6 C 1.6 km/h
522 30-01-2015 19:25:00 1.6 C 5.08 g/m*3 1.6 C 0 km/h
523 30-01-2015 19:30:00 1.6 C 5.08 g/m*3 1.6 C 1.6 km/h
524 30-01-2015 19:35:00 1.6 C 5.08 g/m*3 1.6 C 0 km/h
525 30-01-2015 19:40:00 1.6 C 5.08 g/m*3 1.6 C 0 km/h
Sensor: Nr:Datum:Temp:Abs-Feuchte:Windchill:Wind:
Aussen-T/F 526 30-01-2015 19:45:00 1.6 C 5.08 g/m*3 1.6 C 1.6 km/h
527 30-01-2015 19:50:00 1.6 C 5.08 g/m*3 1.6 C 3.2 km/h
528 30-01-2015 19:55:00 1.6 C 5.14 g/m*3 1.6 C 1.6 km/h
529 30-01-2015 20:00:00 1.6 C 5.14 g/m*3 1.6 C 0 km/h
530 30-01-2015 20:05:00 1.6 C 5.14 g/m*3 1.6 C 1.6 km/h
531 30-01-2015 20:10:00 1.6 C 5.14 g/m*3 1.6 C 1.6 km/h
532 30-01-2015 20:15:00 1.5 C 5.1 g/m*3 1.5 C 0 km/h
533 30-01-2015 20:20:00 1.5 C 5.05 g/m*3 1.5 C 0 km/h
534 30-01-2015 20:25:00 1.4 C 5.01 g/m*3 1.4 C 0 km/h
535 30-01-2015 20:30:00 1.4 C 5.01 g/m*3 1.4 C 0 km/h
536 30-01-2015 20:35:00 1.4 C 5.01 g/m*3 1.4 C 0 km/h
537 30-01-2015 20:40:00 1.4 C 5.01 g/m*3 1.4 C 0 km/h
538 30-01-2015 20:45:00 1.4 C 5.01 g/m*3 1.4 C 0 km/h
539 30-01-2015 20:50:00 1.4 C 5.01 g/m*3 1.4 C 0 km/h
540 30-01-2015 20:55:00 1.4 C 5.01 g/m*3 1.4 C 0 km/h
541 30-01-2015 21:00:00 1.4 C 5.01 g/m*3 1.4 C 3.2 km/h
542 30-01-2015 21:05:00 1.5 C 5.05 g/m*3 1.5 C 3.2 km/h
543 30-01-2015 21:10:00 1.5 C 5.05 g/m*3 1.5 C 0 km/h
544 30-01-2015 21:15:00 1.5 C 5.05 g/m*3 1.5 C 0 km/h
545 30-01-2015 21:20:00 1.5 C 5.05 g/m*3 1.5 C 0 km/h
546 30-01-2015 21:25:00 1.5 C 5.05 g/m*3 1.5 C 1.6 km/h
547 30-01-2015 21:30:00 1.5 C 5.05 g/m*3 1.5 C 0 km/h
548 30-01-2015 21:35:00 1.5 C 5.05 g/m*3 1.5 C 0 km/h
549 30-01-2015 21:40:00 1.5 C 5.05 g/m*3 1.5 C 0 km/h
550 30-01-2015 21:45:00 1.4 C 5.01 g/m*3 1.4 C 1.6 km/h
Sensor: Nr:Datum:Temp:Abs-Feuchte:Windchill:Wind:
Aussen-T/F 551 30-01-2015 21:50:00 1.4 C 5.01 g/m*3 1.4 C 0 km/h
552 30-01-2015 21:55:00 1.4 C 5.01 g/m*3 1.4 C 0 km/h
553 30-01-2015 22:00:00 1.4 C 5.01 g/m*3 1.4 C 0 km/h
554 30-01-2015 22:05:00 1.4 C 5.01 g/m*3 1.4 C 0 km/h
555 30-01-2015 22:10:00 1.4 C 4.96 g/m*3 1.4 C 1.6 km/h
556 30-01-2015 22:15:00 1.5 C 4.99 g/m*3 1.5 C 1.6 km/h
557 30-01-2015 22:20:00 1.6 C 4.97 g/m*3 1.6 C 1.6 km/h
558 30-01-2015 22:25:00 1.6 C 4.97 g/m*3 1.6 C 1.6 km/h
559 30-01-2015 22:30:00 1.6 C 4.92 g/m*3 1.6 C 4.8 km/h
560 30-01-2015 22:35:00 1.7 C 4.95 g/m*3 -0.77 C 8.1 km/h
561 30-01-2015 22:40:00 1.8 C 4.88 g/m*3 1.8 C 4.8 km/h
562 30-01-2015 22:45:00 1.9 C 4.86 g/m*3 1.9 C 4.8 km/h
563 30-01-2015 22:50:00 2 C 4.95 g/m*3 2 C 1.6 km/h
564 30-01-2015 22:55:00 1.9 C 4.91 g/m*3 1.9 C 1.6 km/h
565 30-01-2015 23:00:00 1.9 C 4.91 g/m*3 1.9 C 1.6 km/h
566 30-01-2015 23:05:00 1.9 C 4.97 g/m*3 1.9 C 0 km/h
567 30-01-2015 23:10:00 1.8 C 4.93 g/m*3 1.8 C 0 km/h
568 30-01-2015 23:15:00 1.7 C 4.9 g/m*3 1.7 C 3.2 km/h
569 30-01-2015 23:20:00 1.7 C 4.95 g/m*3 1.7 C 1.6 km/h
570 30-01-2015 23:25:00 1.7 C 4.95 g/m*3 1.7 C 0 km/h
571 30-01-2015 23:30:00 1.6 C 4.92 g/m*3 1.6 C 3.2 km/h
572 30-01-2015 23:35:00 1.5 C 4.83 g/m*3 1.5 C 4.8 km/h
573 30-01-2015 23:40:00 1.6 C 4.87 g/m*3 -0.33 C 6.4 km/h
574 30-01-2015 23:45:00 1.6 C 4.81 g/m*3 1.6 C 4.8 km/h
575 30-01-2015 23:50:00 1.6 C 4.81 g/m*3 1.6 C 3.2 km/h
Sensor: Nr:Datum:Temp:Abs-Feuchte:Windchill:Wind:
Aussen-T/F 576 30-01-2015 23:55:00 1.6 C 4.81 g/m*3 1.6 C 1.6 km/h
577 31-01-2015 00:00:00 1.6 C 4.87 g/m*3 1.6 C 3.2 km/h
578 31-01-2015 00:05:00 1.6 C 4.81 g/m*3 1.6 C 3.2 km/h
579 31-01-2015 00:10:00 1.6 C 4.81 g/m*3 1.6 C 4.8 km/h
580 31-01-2015 00:15:00 1.6 C 4.76 g/m*3 1.6 C 4.8 km/h
581 31-01-2015 00:20:00 1.7 C 4.79 g/m*3 1.7 C 4.8 km/h
582 31-01-2015 00:25:00 1.7 C 4.74 g/m*3 -0.22 C 6.4 km/h
583 31-01-2015 00:30:00 1.7 C 4.74 g/m*3 1.7 C 4.8 km/h
584 31-01-2015 00:35:00 1.6 C 4.76 g/m*3 -0.89 C 8.1 km/h
585 31-01-2015 00:40:00 1.4 C 4.69 g/m*3 1.4 C 4.8 km/h
586 31-01-2015 00:45:00 1.5 C 4.73 g/m*3 -1.01 C 8.1 km/h
587 31-01-2015 00:50:00 1.6 C 4.76 g/m*3 -1.33 C 9.7 km/h
588 31-01-2015 00:55:00 1.7 C 4.79 g/m*3 -0.22 C 6.4 km/h
589 31-01-2015 01:00:00 1.8 C 4.77 g/m*3 -0.1 C 6.4 km/h
590 31-01-2015 01:05:00 1.8 C 4.77 g/m*3 -0.65 C 8.1 km/h
591 31-01-2015 01:10:00 1.9 C 4.75 g/m*3 -1.68 C 12.9 km/h
592 31-01-2015 01:15:00 1.9 C 4.75 g/m*3 -1.68 C 12.9 km/h
593 31-01-2015 01:20:00 1.9 C 4.75 g/m*3 -1.35 C 11.3 km/h
594 31-01-2015 01:25:00 2.1 C 4.81 g/m*3 -1.74 C 14.5 km/h
595 31-01-2015 01:30:00 2.1 C 4.81 g/m*3 -1.74 C 14.5 km/h
596 31-01-2015 01:35:00 2.1 C 4.81 g/m*3 -1.44 C 12.9 km/h
597 31-01-2015 01:40:00 2 C 4.72 g/m*3 -1.23 C 11.3 km/h
598 31-01-2015 01:45:00 2.1 C 4.7 g/m*3 -0.73 C 9.7 km/h
599 31-01-2015 01:50:00 2.1 C 4.7 g/m*3 -1.44 C 12.9 km/h
600 31-01-2015 01:55:00 2 C 4.67 g/m*3 0.13 C 6.4 km/h
Sensor: Nr:Datum:Temp:Abs-Feuchte:Windchill:Wind:
Aussen-T/F 601 31-01-2015 02:00:00 2 C 4.67 g/m*3 -1.23 C 11.3 km/h
602 31-01-2015 02:05:00 2 C 4.67 g/m*3 -1.23 C 11.3 km/h
603 31-01-2015 02:10:00 2.1 C 4.7 g/m*3 -1.44 C 12.9 km/h
604 31-01-2015 02:15:00 2.1 C 4.64 g/m*3 -1.44 C 12.9 km/h
605 31-01-2015 02:20:00 2.1 C 4.64 g/m*3 -1.11 C 11.3 km/h
606 31-01-2015 02:25:00 2.1 C 4.64 g/m*3 -1.44 C 12.9 km/h
607 31-01-2015 02:30:00 2.1 C 4.64 g/m*3 -1.44 C 12.9 km/h
608 31-01-2015 02:35:00 2.1 C 4.7 g/m*3 -1.44 C 12.9 km/h
609 31-01-2015 02:40:00 2.1 C 4.7 g/m*3 -1.74 C 14.5 km/h
610 31-01-2015 02:45:00 2 C 4.67 g/m*3 -0.85 C 9.7 km/h
611 31-01-2015 02:50:00 2 C 4.72 g/m*3 -1.56 C 12.9 km/h
612 31-01-2015 02:55:00 2 C 4.72 g/m*3 -1.56 C 12.9 km/h
613 31-01-2015 03:00:00 1.9 C 4.69 g/m*3 -1.68 C 12.9 km/h
614 31-01-2015 03:05:00 1.9 C 4.75 g/m*3 -1.35 C 11.3 km/h
615 31-01-2015 03:10:00 1.9 C 4.75 g/m*3 -2.51 C 17.7 km/h
616 31-01-2015 03:15:00 1.9 C 4.75 g/m*3 -2.51 C 17.7 km/h
617 31-01-2015 03:20:00 1.9 C 4.75 g/m*3 -1.35 C 11.3 km/h
618 31-01-2015 03:25:00 1.9 C 4.75 g/m*3 -2.75 C 19.3 km/h
619 31-01-2015 03:30:00 2 C 4.78 g/m*3 -2.62 C 19.3 km/h
620 31-01-2015 03:35:00 2 C 4.78 g/m*3 -0.85 C 9.7 km/h
621 31-01-2015 03:40:00 1.9 C 4.75 g/m*3 -2.51 C 17.7 km/h
622 31-01-2015 03:45:00 1.9 C 4.8 g/m*3 -2.75 C 19.3 km/h
623 31-01-2015 03:50:00 1.9 C 4.8 g/m*3 -1.98 C 14.5 km/h
624 31-01-2015 03:55:00 1.9 C 4.8 g/m*3 -0.97 C 9.7 km/h
625 31-01-2015 04:00:00 1.9 C 4.86 g/m*3 -1.35 C 11.3 km/h
Sensor: Nr:Datum:Temp:Abs-Feuchte:Windchill:Wind:
Aussen-T/F 626 31-01-2015 04:05:00 1.9 C 4.86 g/m*3 -1.35 C 11.3 km/h
627 31-01-2015 04:10:00 1.9 C 4.86 g/m*3 -0.97 C 9.7 km/h
628 31-01-2015 04:15:00 1.9 C 4.86 g/m*3 -1.98 C 14.5 km/h
629 31-01-2015 04:20:00 1.9 C 4.86 g/m*3 -2.26 C 16.1 km/h
630 31-01-2015 04:25:00 1.9 C 4.86 g/m*3 -1.35 C 11.3 km/h
631 31-01-2015 04:30:00 1.9 C 4.86 g/m*3 -2.26 C 16.1 km/h
632 31-01-2015 04:35:00 2 C 4.89 g/m*3 -2.14 C 16.1 km/h
633 31-01-2015 04:40:00 1.9 C 4.86 g/m*3 -1.68 C 12.9 km/h
634 31-01-2015 04:45:00 1.9 C 4.86 g/m*3 -1.98 C 14.5 km/h
635 31-01-2015 04:50:00 1.9 C 4.86 g/m*3 -2.51 C 17.7 km/h
636 31-01-2015 04:55:00 1.9 C 4.86 g/m*3 -1.98 C 14.5 km/h
637 31-01-2015 05:00:00 1.9 C 4.86 g/m*3 -1.35 C 11.3 km/h
638 31-01-2015 05:05:00 1.9 C 4.91 g/m*3 -3.17 C 22.5 km/h
639 31-01-2015 05:10:00 1.9 C 4.91 g/m*3 -1.68 C 12.9 km/h
640 31-01-2015 05:15:00 1.8 C 4.88 g/m*3 -0.65 C 8.1 km/h
641 31-01-2015 05:20:00 1.8 C 4.88 g/m*3 -1.47 C 11.3 km/h
642 31-01-2015 05:25:00 1.8 C 4.88 g/m*3 -0.1 C 6.4 km/h
643 31-01-2015 05:30:00 1.7 C 4.9 g/m*3 -1.59 C 11.3 km/h
644 31-01-2015 05:35:00 1.7 C 4.9 g/m*3 -0.77 C 8.1 km/h
645 31-01-2015 05:40:00 1.7 C 4.9 g/m*3 -0.77 C 8.1 km/h
646 31-01-2015 05:45:00 1.7 C 4.9 g/m*3 -1.21 C 9.7 km/h
647 31-01-2015 05:50:00 1.7 C 4.9 g/m*3 -0.77 C 8.1 km/h
648 31-01-2015 05:55:00 1.7 C 4.9 g/m*3 -0.22 C 6.4 km/h
649 31-01-2015 06:00:00 1.8 C 4.93 g/m*3 -1.47 C 11.3 km/h
650 31-01-2015 06:05:00 1.8 C 4.93 g/m*3 -0.65 C 8.1 km/h
Sensor: Nr:Datum:Temp:Abs-Feuchte:Windchill:Wind:
Aussen-T/F 651 31-01-2015 06:10:00 1.8 C 4.93 g/m*3 -0.1 C 6.4 km/h
652 31-01-2015 06:15:00 1.8 C 4.93 g/m*3 -0.65 C 8.1 km/h
653 31-01-2015 06:20:00 1.8 C 4.93 g/m*3 -0.1 C 6.4 km/h
654 31-01-2015 06:25:00 1.8 C 4.93 g/m*3 -1.47 C 11.3 km/h
655 31-01-2015 06:30:00 1.8 C 4.93 g/m*3 -1.47 C 11.3 km/h
656 31-01-2015 06:35:00 1.9 C 4.97 g/m*3 -0.54 C 8.1 km/h
657 31-01-2015 06:40:00 1.9 C 4.91 g/m*3 0.01 C 6.4 km/h
658 31-01-2015 06:45:00 1.9 C 4.91 g/m*3 -1.68 C 12.9 km/h
659 31-01-2015 06:50:00 1.9 C 4.91 g/m*3 -0.97 C 9.7 km/h
660 31-01-2015 06:55:00 1.9 C 4.91 g/m*3 -1.35 C 11.3 km/h
661 31-01-2015 07:00:00 1.8 C 4.88 g/m*3 -1.47 C 11.3 km/h
662 31-01-2015 07:05:00 1.8 C 4.88 g/m*3 1.8 C 3.2 km/h
663 31-01-2015 07:10:00 1.6 C 4.81 g/m*3 1.6 C 4.8 km/h
664 31-01-2015 07:15:00 1.4 C 4.8 g/m*3 -0.56 C 6.4 km/h
665 31-01-2015 07:20:00 1.3 C 4.77 g/m*3 -2.07 C 11.3 km/h
666 31-01-2015 07:25:00 1.3 C 4.77 g/m*3 -0.68 C 6.4 km/h
667 31-01-2015 07:30:00 1.2 C 4.79 g/m*3 1.2 C 4.8 km/h
668 31-01-2015 07:35:00 1.2 C 4.79 g/m*3 -0.8 C 6.4 km/h
669 31-01-2015 07:40:00 1.1 C 4.76 g/m*3 1.1 C 4.8 km/h
670 31-01-2015 07:45:00 1.1 C 4.81 g/m*3 -1.92 C 9.7 km/h
671 31-01-2015 07:50:00 1.3 C 4.82 g/m*3 -1.24 C 8.1 km/h
672 31-01-2015 07:55:00 1.2 C 4.74 g/m*3 -0.8 C 6.4 km/h
673 31-01-2015 08:00:00 1.3 C 4.82 g/m*3 1.3 C 4.8 km/h
674 31-01-2015 08:05:00 1.3 C 4.77 g/m*3 1.3 C 3.2 km/h
675 31-01-2015 08:10:00 1.2 C 4.79 g/m*3 1.2 C 4.8 km/h
Sensor: Nr:Datum:Temp:Abs-Feuchte:Windchill:Wind:
Aussen-T/F 676 31-01-2015 08:15:00 1.2 C 4.79 g/m*3 1.2 C 4.8 km/h
677 31-01-2015 08:20:00 1.2 C 4.79 g/m*3 1.2 C 4.8 km/h
678 31-01-2015 08:25:00 1.2 C 4.79 g/m*3 1.2 C 4.8 km/h
679 31-01-2015 08:30:00 1.3 C 4.82 g/m*3 -1.24 C 8.1 km/h
680 31-01-2015 08:35:00 1.3 C 4.82 g/m*3 -0.68 C 6.4 km/h
681 31-01-2015 08:40:00 1.4 C 4.85 g/m*3 -1.12 C 8.1 km/h
682 31-01-2015 08:45:00 1.5 C 4.83 g/m*3 -1.83 C 11.3 km/h
683 31-01-2015 08:50:00 1.6 C 4.87 g/m*3 1.6 C 4.8 km/h
684 31-01-2015 08:55:00 1.6 C 4.87 g/m*3 -0.89 C 8.1 km/h
685 31-01-2015 09:00:00 1.7 C 4.9 g/m*3 1.7 C 4.8 km/h
686 31-01-2015 09:05:00 1.7 C 4.9 g/m*3 1.7 C 3.2 km/h
687 31-01-2015 09:10:00 1.7 C 4.9 g/m*3 1.7 C 3.2 km/h
688 31-01-2015 09:15:00 1.6 C 4.87 g/m*3 1.6 C 4.8 km/h
689 31-01-2015 09:20:00 1.6 C 4.87 g/m*3 1.6 C 4.8 km/h
690 31-01-2015 09:25:00 1.7 C 4.9 g/m*3 1.7 C 3.2 km/h
691 31-01-2015 09:30:00 1.7 C 4.9 g/m*3 1.7 C 3.2 km/h
692 31-01-2015 09:35:00 1.7 C 4.9 g/m*3 1.7 C 3.2 km/h
693 31-01-2015 09:40:00 1.6 C 4.87 g/m*3 -0.89 C 8.1 km/h
694 31-01-2015 09:45:00 1.7 C 4.9 g/m*3 -0.77 C 8.1 km/h
695 31-01-2015 09:50:00 1.7 C 4.85 g/m*3 1.7 C 4.8 km/h
696 31-01-2015 09:55:00 1.8 C 4.82 g/m*3 -1.8 C 12.9 km/h
697 31-01-2015 10:00:00 1.9 C 4.86 g/m*3 -1.35 C 11.3 km/h
698 31-01-2015 10:05:00 2.1 C 4.87 g/m*3 -1.44 C 12.9 km/h
699 31-01-2015 10:10:00 2.1 C 4.87 g/m*3 -0.3 C 8.1 km/h
700 31-01-2015 10:15:00 2.2 C 4.84 g/m*3 -1.32 C 12.9 km/h
Sensor: Nr:Datum:Temp:Abs-Feuchte:Windchill:Wind:
Aussen-T/F 701 31-01-2015 10:20:00 2.2 C 4.84 g/m*3 -0.61 C 9.7 km/h
702 31-01-2015 10:25:00 2.3 C 4.88 g/m*3 -0.49 C 9.7 km/h
703 31-01-2015 10:30:00 2.3 C 4.88 g/m*3 -1.2 C 12.9 km/h
704 31-01-2015 10:35:00 2.4 C 4.91 g/m*3 -0.37 C 9.7 km/h
705 31-01-2015 10:40:00 2.4 C 4.91 g/m*3 -0.74 C 11.3 km/h
706 31-01-2015 10:45:00 2.4 C 4.85 g/m*3 -1.37 C 14.5 km/h
707 31-01-2015 10:50:00 2.5 C 4.89 g/m*3 0.17 C 8.1 km/h
708 31-01-2015 10:55:00 2.6 C 4.92 g/m*3 -1.87 C 19.3 km/h
709 31-01-2015 11:00:00 2.6 C 4.86 g/m*3 -0.5 C 11.3 km/h
710 31-01-2015 11:05:00 2.6 C 4.86 g/m*3 -0.83 C 12.9 km/h
711 31-01-2015 11:10:00 2.7 C 4.89 g/m*3 -1 C 14.5 km/h
712 31-01-2015 11:15:00 2.7 C 4.89 g/m*3 -1.27 C 16.1 km/h
713 31-01-2015 11:20:00 2.8 C 4.93 g/m*3 -1.14 C 16.1 km/h
714 31-01-2015 11:25:00 2.8 C 4.87 g/m*3 -0.26 C 11.3 km/h
715 31-01-2015 11:30:00 2.9 C 4.9 g/m*3 -0.46 C 12.9 km/h
716 31-01-2015 11:35:00 2.9 C 4.9 g/m*3 -1.26 C 17.7 km/h
717 31-01-2015 11:40:00 3.1 C 4.91 g/m*3 -0.22 C 12.9 km/h
718 31-01-2015 11:45:00 3.1 C 4.91 g/m*3 0.1 C 11.3 km/h
719 31-01-2015 11:50:00 3.2 C 4.88 g/m*3 -0.89 C 17.7 km/h
720 31-01-2015 11:55:00 3.2 C 4.88 g/m*3 0.58 C 9.7 km/h
721 31-01-2015 12:00:00 3.3 C 4.85 g/m*3 -0.26 C 14.5 km/h
722 31-01-2015 12:05:00 3.3 C 4.85 g/m*3 -0.76 C 17.7 km/h
723 31-01-2015 12:10:00 3.3 C 4.79 g/m*3 -0.52 C 16.1 km/h
724 31-01-2015 12:15:00 3.4 C 4.83 g/m*3 0.14 C 12.9 km/h
725 31-01-2015 12:20:00 3.6 C 4.89 g/m*3 0.7 C 11.3 km/h
Sensor: Nr:Datum:Temp:Abs-Feuchte:Windchill:Wind:
Aussen-T/F 726 31-01-2015 12:25:00 3.6 C 4.89 g/m*3 1.06 C 9.7 km/h
727 31-01-2015 12:30:00 3.7 C 4.92 g/m*3 0.82 C 11.3 km/h
728 31-01-2015 12:35:00 3.7 C 4.92 g/m*3 1.18 C 9.7 km/h
729 31-01-2015 12:40:00 3.7 C 4.86 g/m*3 0.82 C 11.3 km/h
730 31-01-2015 12:45:00 3.8 C 4.96 g/m*3 1.29 C 9.7 km/h
731 31-01-2015 12:50:00 3.8 C 4.96 g/m*3 1.29 C 9.7 km/h
732 31-01-2015 12:55:00 3.9 C 4.93 g/m*3 0.22 C 16.1 km/h
733 31-01-2015 13:00:00 3.8 C 4.89 g/m*3 0.94 C 11.3 km/h
734 31-01-2015 13:05:00 3.7 C 4.86 g/m*3 1.18 C 9.7 km/h
735 31-01-2015 13:10:00 3.7 C 4.92 g/m*3 1.18 C 9.7 km/h
736 31-01-2015 13:15:00 3.7 C 4.92 g/m*3 2.09 C 6.4 km/h
737 31-01-2015 13:20:00 3.7 C 4.92 g/m*3 1.58 C 8.1 km/h
738 31-01-2015 13:25:00 3.7 C 4.92 g/m*3 1.18 C 9.7 km/h
739 31-01-2015 13:30:00 3.7 C 4.92 g/m*3 1.18 C 9.7 km/h
740 31-01-2015 13:55:00 4 C 6.36 g/m*3 1.18 C 11.3 km/h
741 31-01-2015 14:00:00 4 C 6.36 g/m*3 0.88 C 12.9 km/h
742 31-01-2015 14:05:00 4 C 6.36 g/m*3 1.18 C 11.3 km/h
743 31-01-2015 14:10:00 4 C 6.36 g/m*3 1.93 C 8.1 km/h
744 31-01-2015 14:15:00 4 C 6.36 g/m*3 1.93 C 8.1 km/h
745 31-01-2015 15:10:00 3.9 C 5.05 g/m*3 1.82 C 8.1 km/h
746 31-01-2015 15:15:00 4 C 5.09 g/m*3 1.93 C 8.1 km/h
747 31-01-2015 15:20:00 4.1 C 5.12 g/m*3 1.31 C 11.3 km/h
748 31-01-2015 15:25:00 4.2 C 5.22 g/m*3 1.43 C 11.3 km/h
749 31-01-2015 15:30:00 4.2 C 5.03 g/m*3 0.84 C 14.5 km/h
750 31-01-2015 15:35:00 4.1 C 4.99 g/m*3 0.72 C 14.5 km/h
Sensor: Nr:Datum:Temp:Abs-Feuchte:Windchill:Wind:
Aussen-T/F 751 31-01-2015 15:40:00 4 C 5.09 g/m*3 0.88 C 12.9 km/h
752 31-01-2015 15:45:00 3.9 C 4.99 g/m*3 1.82 C 8.1 km/h
753 31-01-2015 15:50:00 3.8 C 5.02 g/m*3 1.7 C 8.1 km/h
754 31-01-2015 15:55:00 3.8 C 5.08 g/m*3 3.8 C 4.8 km/h
755 31-01-2015 16:00:00 3.8 C 5.08 g/m*3 3.8 C 3.2 km/h
756 31-01-2015 16:05:00 3.7 C 4.99 g/m*3 0.82 C 11.3 km/h
757 31-01-2015 16:10:00 3.7 C 4.99 g/m*3 1.18 C 9.7 km/h
758 31-01-2015 16:15:00 3.7 C 4.99 g/m*3 2.09 C 6.4 km/h
759 31-01-2015 16:20:00 3.6 C 4.95 g/m*3 1.46 C 8.1 km/h
760 31-01-2015 16:25:00 3.5 C 4.92 g/m*3 1.34 C 8.1 km/h
761 31-01-2015 16:30:00 3.4 C 4.95 g/m*3 0.82 C 9.7 km/h
762 31-01-2015 16:35:00 3.3 C 4.91 g/m*3 1.63 C 6.4 km/h
763 31-01-2015 16:40:00 3.2 C 5 g/m*3 3.2 C 3.2 km/h
764 31-01-2015 16:45:00 3 C 4.93 g/m*3 3 C 3.2 km/h
765 31-01-2015 16:50:00 2.8 C 4.99 g/m*3 2.8 C 4.8 km/h
766 31-01-2015 16:55:00 2.7 C 4.89 g/m*3 2.7 C 3.2 km/h
767 31-01-2015 17:00:00 2.5 C 4.83 g/m*3 2.5 C 3.2 km/h
768 31-01-2015 17:05:00 2.3 C 4.82 g/m*3 2.3 C 3.2 km/h
769 31-01-2015 17:10:00 2.1 C 4.87 g/m*3 2.1 C 4.8 km/h
770 31-01-2015 17:15:00 1.9 C 4.8 g/m*3 1.9 C 4.8 km/h
771 31-01-2015 17:20:00 1.7 C 4.79 g/m*3 1.7 C 4.8 km/h
772 31-01-2015 17:25:00 1.5 C 4.78 g/m*3 1.5 C 3.2 km/h
773 31-01-2015 17:30:00 1.3 C 4.72 g/m*3 1.3 C 3.2 km/h
774 31-01-2015 17:35:00 1.3 C 4.77 g/m*3 1.3 C 3.2 km/h
775 31-01-2015 17:40:00 1.2 C 4.74 g/m*3 1.2 C 3.2 km/h
Sensor: Nr:Datum:Temp:Abs-Feuchte:Windchill:Wind:
Aussen-T/F 776 31-01-2015 17:45:00 1.1 C 4.7 g/m*3 1.1 C 3.2 km/h
777 31-01-2015 17:50:00 1 C 4.72 g/m*3 1 C 4.8 km/h
778 31-01-2015 17:55:00 1 C 4.72 g/m*3 1 C 3.2 km/h
779 31-01-2015 18:35:00 0.8 C 4.76 g/m*3 0.8 C 1.6 km/h
780 31-01-2015 18:40:00 0.9 C 4.79 g/m*3 0.9 C 3.2 km/h
781 31-01-2015 18:45:00 1 C 4.83 g/m*3 1 C 1.6 km/h
782 31-01-2015 18:50:00 1.1 C 4.81 g/m*3 1.1 C 1.6 km/h
783 31-01-2015 18:55:00 1.2 C 4.84 g/m*3 1.2 C 1.6 km/h
784 31-01-2015 19:00:00 1.2 C 4.84 g/m*3 1.2 C 1.6 km/h
785 31-01-2015 19:05:00 1.3 C 4.87 g/m*3 1.3 C 1.6 km/h
786 31-01-2015 19:10:00 1.3 C 4.87 g/m*3 1.3 C 1.6 km/h
787 31-01-2015 19:15:00 1.3 C 4.87 g/m*3 1.3 C 1.6 km/h
788 31-01-2015 19:20:00 1.3 C 4.87 g/m*3 1.3 C 1.6 km/h
789 31-01-2015 19:25:00 1.3 C 4.87 g/m*3 1.3 C 1.6 km/h
790 31-01-2015 19:30:00 1.3 C 4.87 g/m*3 1.3 C 3.2 km/h
791 31-01-2015 19:35:00 1.3 C 4.87 g/m*3 1.3 C 1.6 km/h
792 31-01-2015 19:40:00 1.4 C 4.91 g/m*3 1.4 C 3.2 km/h
793 31-01-2015 19:45:00 1.6 C 4.92 g/m*3 1.6 C 4.8 km/h
794 31-01-2015 19:50:00 1.8 C 4.99 g/m*3 1.8 C 3.2 km/h
795 31-01-2015 19:55:00 1.8 C 4.99 g/m*3 1.8 C 1.6 km/h
796 31-01-2015 20:00:00 1.8 C 4.99 g/m*3 1.8 C 1.6 km/h
797 31-01-2015 20:05:00 1.8 C 4.99 g/m*3 1.8 C 1.6 km/h
798 31-01-2015 20:10:00 1.9 C 5.02 g/m*3 1.9 C 1.6 km/h
799 31-01-2015 20:15:00 1.9 C 5.02 g/m*3 1.9 C 0 km/h
800 31-01-2015 20:20:00 1.9 C 5.02 g/m*3 1.9 C 0 km/h
Sensor: Nr:Datum:Temp:Abs-Feuchte:Windchill:Wind:
Aussen-T/F 801 31-01-2015 20:25:00 1.8 C 4.99 g/m*3 1.8 C 0 km/h
802 31-01-2015 20:30:00 1.8 C 4.99 g/m*3 1.8 C 1.6 km/h
803 31-01-2015 20:35:00 1.8 C 4.99 g/m*3 1.8 C 3.2 km/h
804 31-01-2015 20:40:00 1.8 C 4.99 g/m*3 1.8 C 1.6 km/h
805 31-01-2015 20:45:00 1.7 C 5.01 g/m*3 1.7 C 1.6 km/h
806 31-01-2015 20:50:00 1.6 C 4.97 g/m*3 1.6 C 1.6 km/h
807 31-01-2015 20:55:00 1.5 C 4.94 g/m*3 1.5 C 0 km/h
808 31-01-2015 21:00:00 1.4 C 4.91 g/m*3 1.4 C 1.6 km/h
809 31-01-2015 21:05:00 1.3 C 4.87 g/m*3 1.3 C 1.6 km/h
810 31-01-2015 21:10:00 1.2 C 4.84 g/m*3 1.2 C 1.6 km/h
811 31-01-2015 21:15:00 1.1 C 4.86 g/m*3 1.1 C 1.6 km/h
812 31-01-2015 21:20:00 1 C 4.83 g/m*3 1 C 1.6 km/h
813 31-01-2015 21:25:00 1 C 4.83 g/m*3 1 C 0 km/h
814 31-01-2015 21:30:00 0.9 C 4.79 g/m*3 0.9 C 3.2 km/h
815 31-01-2015 21:35:00 0.9 C 4.79 g/m*3 0.9 C 1.6 km/h
816 31-01-2015 21:40:00 0.8 C 4.76 g/m*3 0.8 C 1.6 km/h
817 31-01-2015 21:45:00 0.7 C 4.73 g/m*3 0.7 C 3.2 km/h
818 31-01-2015 21:50:00 0.7 C 4.78 g/m*3 0.7 C 3.2 km/h
819 31-01-2015 21:55:00 0.7 C 4.78 g/m*3 0.7 C 4.8 km/h
820 31-01-2015 22:00:00 0.7 C 4.78 g/m*3 0.7 C 3.2 km/h
821 31-01-2015 22:05:00 0.7 C 4.78 g/m*3 0.7 C 4.8 km/h
822 31-01-2015 22:10:00 0.8 C 4.81 g/m*3 0.8 C 4.8 km/h
823 31-01-2015 22:15:00 0.8 C 4.81 g/m*3 0.8 C 1.6 km/h
824 31-01-2015 22:20:00 0.8 C 4.81 g/m*3 0.8 C 0 km/h
825 31-01-2015 22:25:00 0.8 C 4.81 g/m*3 0.8 C 0 km/h
Sensor: Nr:Datum:Temp:Abs-Feuchte:Windchill:Wind:
Aussen-T/F 826 31-01-2015 22:30:00 0.8 C 4.81 g/m*3 0.8 C 1.6 km/h
827 31-01-2015 22:35:00 0.8 C 4.81 g/m*3 0.8 C 0 km/h
828 31-01-2015 22:40:00 0.8 C 4.81 g/m*3 0.8 C 0 km/h
829 01-02-2015 08:50:00 0.7 C 4.53 g/m*3 0.7 C 1.6 km/h
830 01-02-2015 08:55:00 0.6 C 4.54 g/m*3 0.6 C 3.2 km/h
831 01-02-2015 09:00:00 0.6 C 4.54 g/m*3 0.6 C 1.6 km/h
832 01-02-2015 09:05:00 0.6 C 4.54 g/m*3 0.6 C 1.6 km/h
833 01-02-2015 09:10:00 0.6 C 4.54 g/m*3 0.6 C 1.6 km/h
834 01-02-2015 09:40:00 0.3 C 4.55 g/m*3 0.3 C 1.6 km/h
835 01-02-2015 09:45:00 0.3 C 4.55 g/m*3 0.3 C 4.8 km/h
836 01-02-2015 09:50:00 0.3 C 4.55 g/m*3 0.3 C 3.2 km/h
837 01-02-2015 09:55:00 0.6 C 4.6 g/m*3 0.6 C 1.6 km/h
838 01-02-2015 10:00:00 0.7 C 4.63 g/m*3 0.7 C 3.2 km/h
839 01-02-2015 10:05:00 0.7 C 4.63 g/m*3 0.7 C 4.8 km/h
840 01-02-2015 10:10:00 1.1 C 4.65 g/m*3 -1.48 C 8.1 km/h
841 01-02-2015 10:15:00 1.4 C 4.75 g/m*3 -1.95 C 11.3 km/h
842 01-02-2015 10:20:00 1.6 C 4.76 g/m*3 -0.89 C 8.1 km/h
843 01-02-2015 10:25:00 1.7 C 4.79 g/m*3 -1.59 C 11.3 km/h
844 01-02-2015 10:30:00 1.8 C 4.77 g/m*3 -1.47 C 11.3 km/h
845 01-02-2015 10:35:00 1.9 C 4.8 g/m*3 -1.35 C 11.3 km/h
846 01-02-2015 10:40:00 1.9 C 4.8 g/m*3 -0.97 C 9.7 km/h
847 01-02-2015 10:45:00 1.9 C 4.8 g/m*3 -0.97 C 9.7 km/h
848 01-02-2015 10:50:00 1.9 C 4.8 g/m*3 0.01 C 6.4 km/h
849 01-02-2015 10:55:00 2 C 4.83 g/m*3 -0.42 C 8.1 km/h
850 01-02-2015 11:00:00 2 C 4.89 g/m*3 -0.42 C 8.1 km/h
Sensor: Nr:Datum:Temp:Abs-Feuchte:Windchill:Wind:
Aussen-T/F 851 01-02-2015 11:05:00 2 C 4.89 g/m*3 -0.85 C 9.7 km/h
852 01-02-2015 11:10:00 2 C 4.95 g/m*3 -0.42 C 8.1 km/h
853 01-02-2015 11:15:00 2 C 4.95 g/m*3 -0.42 C 8.1 km/h
854 01-02-2015 11:20:00 2 C 4.95 g/m*3 2 C 4.8 km/h
855 01-02-2015 11:25:00 1.9 C 4.91 g/m*3 1.9 C 4.8 km/h
856 01-02-2015 11:30:00 1.9 C 4.91 g/m*3 -0.97 C 9.7 km/h
857 01-02-2015 11:35:00 1.8 C 4.88 g/m*3 -0.1 C 6.4 km/h
858 01-02-2015 11:40:00 1.8 C 4.88 g/m*3 -1.47 C 11.3 km/h
859 01-02-2015 11:45:00 1.8 C 4.88 g/m*3 -0.1 C 6.4 km/h
860 01-02-2015 11:50:00 1.5 C 4.99 g/m*3 1.5 C 4.8 km/h
861 01-02-2015 11:55:00 1.4 C 5.01 g/m*3 -0.56 C 6.4 km/h
862 01-02-2015 12:00:00 1.4 C 5.01 g/m*3 1.4 C 3.2 km/h
863 01-02-2015 12:05:00 1.3 C 4.98 g/m*3 1.3 C 4.8 km/h
864 01-02-2015 12:10:00 1.3 C 5.03 g/m*3 1.3 C 1.6 km/h
865 01-02-2015 12:15:00 1.3 C 5.03 g/m*3 1.3 C 3.2 km/h
866 01-02-2015 12:20:00 1.3 C 5.03 g/m*3 1.3 C 1.6 km/h
867 01-02-2015 12:25:00 1.3 C 5.03 g/m*3 1.3 C 1.6 km/h
868 01-02-2015 12:30:00 1.3 C 5.03 g/m*3 1.3 C 0 km/h
869 01-02-2015 12:35:00 1.3 C 5.03 g/m*3 1.3 C 4.8 km/h
870 01-02-2015 12:40:00 1.3 C 5.03 g/m*3 1.3 C 3.2 km/h
871 01-02-2015 12:45:00 1.4 C 5.07 g/m*3 1.4 C 3.2 km/h
872 01-02-2015 12:50:00 1.5 C 5.16 g/m*3 1.5 C 4.8 km/h
873 01-02-2015 12:55:00 1.6 C 5.19 g/m*3 1.6 C 4.8 km/h
874 01-02-2015 13:00:00 1.7 C 5.23 g/m*3 -0.22 C 6.4 km/h
875 01-02-2015 13:05:00 1.8 C 5.26 g/m*3 1.8 C 4.8 km/h
Sensor: Nr:Datum:Temp:Abs-Feuchte:Windchill:Wind:
Aussen-T/F 876 01-02-2015 13:10:00 1.9 C 5.3 g/m*3 -0.54 C 8.1 km/h
877 01-02-2015 13:15:00 2.1 C 5.37 g/m*3 0.24 C 6.4 km/h
878 01-02-2015 13:20:00 2.2 C 5.35 g/m*3 2.2 C 4.8 km/h
879 01-02-2015 13:25:00 2.2 C 5.35 g/m*3 2.2 C 3.2 km/h
880 01-02-2015 13:30:00 2.3 C 5.39 g/m*3 2.3 C 4.8 km/h
881 01-02-2015 13:35:00 2.4 C 5.42 g/m*3 2.4 C 4.8 km/h
882 01-02-2015 13:40:00 2.5 C 5.46 g/m*3 0.71 C 6.4 km/h
883 01-02-2015 13:45:00 2.7 C 5.54 g/m*3 2.7 C 4.8 km/h
884 01-02-2015 13:50:00 2.8 C 5.51 g/m*3 1.05 C 6.4 km/h
885 01-02-2015 13:55:00 3 C 5.59 g/m*3 3 C 3.2 km/h
886 01-02-2015 14:00:00 3.2 C 5.66 g/m*3 3.2 C 4.8 km/h
887 01-02-2015 14:05:00 3.3 C 5.64 g/m*3 1.63 C 6.4 km/h
888 01-02-2015 14:10:00 3.3 C 5.64 g/m*3 3.3 C 4.8 km/h
889 01-02-2015 15:05:00 3.8 C 6.27 g/m*3 3.8 C 3.2 km/h
890 01-02-2015 15:10:00 3.8 C 6.27 g/m*3 3.8 C 3.2 km/h
891 01-02-2015 15:35:00 3.9 C 5.68 g/m*3 3.9 C 0 km/h
892 01-02-2015 15:40:00 3.9 C 5.62 g/m*3 3.9 C 0 km/h
893 01-02-2015 15:45:00 3.9 C 5.62 g/m*3 3.9 C 4.8 km/h
894 01-02-2015 15:50:00 3.9 C 5.56 g/m*3 2.32 C 6.4 km/h
895 01-02-2015 15:55:00 3.9 C 5.56 g/m*3 3.9 C 4.8 km/h
896 01-02-2015 16:00:00 3.9 C 5.56 g/m*3 3.9 C 3.2 km/h
897 01-02-2015 16:05:00 3.9 C 5.56 g/m*3 3.9 C 4.8 km/h
898 01-02-2015 16:10:00 3.8 C 5.46 g/m*3 3.8 C 1.6 km/h
899 01-02-2015 16:15:00 3.8 C 5.52 g/m*3 3.8 C 4.8 km/h
900 01-02-2015 16:20:00 3.8 C 5.52 g/m*3 1.29 C 9.7 km/h
Sensor: Nr:Datum:Temp:Abs-Feuchte:Windchill:Wind:
Aussen-T/F 901 01-02-2015 16:25:00 3.8 C 5.52 g/m*3 3.8 C 3.2 km/h
902 01-02-2015 16:30:00 3.8 C 5.52 g/m*3 3.8 C 0 km/h
903 01-02-2015 16:35:00 3.7 C 5.48 g/m*3 3.7 C 3.2 km/h
904 01-02-2015 16:40:00 3.6 C 5.45 g/m*3 3.6 C 3.2 km/h
905 01-02-2015 16:45:00 3.5 C 5.47 g/m*3 3.5 C 3.2 km/h
906 01-02-2015 16:50:00 3.5 C 5.47 g/m*3 3.5 C 3.2 km/h
907 01-02-2015 16:55:00 3.5 C 5.47 g/m*3 3.5 C 3.2 km/h
908 01-02-2015 17:00:00 3.4 C 5.5 g/m*3 3.4 C 3.2 km/h
909 01-02-2015 17:05:00 3.2 C 5.42 g/m*3 3.2 C 3.2 km/h
910 01-02-2015 17:10:00 3.2 C 5.42 g/m*3 0.99 C 8.1 km/h
911 01-02-2015 17:15:00 3.2 C 5.42 g/m*3 1.51 C 6.4 km/h
912 01-02-2015 17:20:00 3.2 C 5.42 g/m*3 3.2 C 0 km/h
913 01-02-2015 20:05:00 1.8 C 5.32 g/m*3 1.8 C 0 km/h
914 01-02-2015 20:10:00 1.8 C 5.32 g/m*3 1.8 C 0 km/h
915 01-02-2015 20:15:00 1.8 C 5.32 g/m*3 1.8 C 0 km/h
916 01-02-2015 20:20:00 1.8 C 5.32 g/m*3 1.8 C 0 km/h
917 01-02-2015 20:25:00 1.8 C 5.32 g/m*3 1.8 C 0 km/h
918 01-02-2015 20:30:00 1.7 C 5.28 g/m*3 1.7 C 0 km/h
919 01-02-2015 20:35:00 1.7 C 5.28 g/m*3 1.7 C 0 km/h
920 01-02-2015 20:40:00 1.6 C 5.25 g/m*3 1.6 C 0 km/h
921 01-02-2015 20:45:00 1.4 C 5.12 g/m*3 1.4 C 0 km/h
922 01-02-2015 20:50:00 1.3 C 5.09 g/m*3 1.3 C 0 km/h
923 01-02-2015 20:55:00 1.3 C 5.09 g/m*3 1.3 C 0 km/h
924 01-02-2015 21:00:00 1.3 C 5.09 g/m*3 1.3 C 0 km/h
925 01-02-2015 21:40:00 1.3 C 5.14 g/m*3 1.3 C 1.6 km/h
Sensor: Nr:Datum:Temp:Abs-Feuchte:Windchill:Wind:
Aussen-T/F 926 01-02-2015 21:45:00 1.4 C 5.17 g/m*3 1.4 C 1.6 km/h
927 01-02-2015 21:50:00 1.4 C 5.17 g/m*3 1.4 C 4.8 km/h
928 01-02-2015 21:55:00 1.5 C 5.21 g/m*3 1.5 C 4.8 km/h
929 01-02-2015 22:00:00 1.6 C 5.25 g/m*3 -0.89 C 8.1 km/h
930 01-02-2015 22:05:00 1.6 C 5.25 g/m*3 -0.33 C 6.4 km/h
931 01-02-2015 22:10:00 1.6 C 5.25 g/m*3 -0.33 C 6.4 km/h
932 01-02-2015 22:15:00 1.6 C 5.25 g/m*3 -0.33 C 6.4 km/h
933 01-02-2015 22:20:00 1.7 C 5.28 g/m*3 1.7 C 4.8 km/h
934 01-02-2015 22:25:00 1.7 C 5.28 g/m*3 -0.22 C 6.4 km/h
935 01-02-2015 22:30:00 1.7 C 5.28 g/m*3 -0.22 C 6.4 km/h
936 01-02-2015 22:35:00 1.7 C 5.28 g/m*3 1.7 C 4.8 km/h
937 01-02-2015 22:40:00 1.7 C 5.28 g/m*3 -0.22 C 6.4 km/h
938 01-02-2015 22:45:00 1.7 C 5.28 g/m*3 1.7 C 1.6 km/h
939 01-02-2015 22:50:00 1.7 C 5.28 g/m*3 1.7 C 3.2 km/h
940 01-02-2015 22:55:00 1.7 C 5.28 g/m*3 1.7 C 0 km/h
941 01-02-2015 23:00:00 1.8 C 5.32 g/m*3 1.8 C 3.2 km/h
942 01-02-2015 23:05:00 1.8 C 5.32 g/m*3 1.8 C 3.2 km/h
943 01-02-2015 23:10:00 1.8 C 5.32 g/m*3 1.8 C 1.6 km/h
944 01-02-2015 23:15:00 1.7 C 5.28 g/m*3 1.7 C 0 km/h
945 01-02-2015 23:20:00 1.7 C 5.28 g/m*3 1.7 C 0 km/h
946 01-02-2015 23:25:00 1.7 C 5.28 g/m*3 1.7 C 3.2 km/h
947 01-02-2015 23:30:00 1.8 C 5.32 g/m*3 1.8 C 0 km/h
948 01-02-2015 23:35:00 1.8 C 5.32 g/m*3 1.8 C 3.2 km/h
949 01-02-2015 23:40:00 1.8 C 5.32 g/m*3 1.8 C 1.6 km/h
950 01-02-2015 23:45:00 1.8 C 5.32 g/m*3 -0.1 C 6.4 km/h
Sensor: Nr:Datum:Temp:Abs-Feuchte:Windchill:Wind:
Aussen-T/F 951 01-02-2015 23:50:00 1.9 C 5.35 g/m*3 1.9 C 3.2 km/h
952 01-02-2015 23:55:00 1.9 C 5.35 g/m*3 1.9 C 0 km/h
953 02-02-2015 00:00:00 1.9 C 5.35 g/m*3 1.9 C 1.6 km/h
954 02-02-2015 00:05:00 1.9 C 5.35 g/m*3 1.9 C 0 km/h
955 02-02-2015 00:10:00 1.9 C 5.35 g/m*3 1.9 C 0 km/h
956 02-02-2015 00:15:00 1.9 C 5.35 g/m*3 0.01 C 6.4 km/h
957 02-02-2015 00:20:00 1.9 C 5.35 g/m*3 -0.54 C 8.1 km/h
958 02-02-2015 00:25:00 1.9 C 5.35 g/m*3 1.9 C 1.6 km/h
959 02-02-2015 00:30:00 1.9 C 5.35 g/m*3 1.9 C 0 km/h
960 02-02-2015 00:35:00 1.9 C 5.35 g/m*3 1.9 C 3.2 km/h
961 02-02-2015 00:40:00 1.9 C 5.35 g/m*3 1.9 C 3.2 km/h
962 02-02-2015 00:45:00 1.9 C 5.35 g/m*3 1.9 C 1.6 km/h
963 02-02-2015 00:50:00 1.9 C 5.35 g/m*3 1.9 C 3.2 km/h
964 02-02-2015 00:55:00 1.9 C 5.35 g/m*3 1.9 C 3.2 km/h
965 02-02-2015 01:00:00 2 C 5.39 g/m*3 2 C 3.2 km/h
966 02-02-2015 01:05:00 1.9 C 5.35 g/m*3 1.9 C 1.6 km/h
967 02-02-2015 01:10:00 2 C 5.39 g/m*3 2 C 1.6 km/h
968 02-02-2015 01:15:00 2 C 5.39 g/m*3 2 C 3.2 km/h
969 02-02-2015 01:20:00 2 C 5.39 g/m*3 2 C 1.6 km/h
970 02-02-2015 01:25:00 2 C 5.39 g/m*3 2 C 1.6 km/h
971 02-02-2015 01:30:00 2 C 5.39 g/m*3 2 C 1.6 km/h
972 02-02-2015 01:35:00 2.1 C 5.43 g/m*3 2.1 C 1.6 km/h
973 02-02-2015 01:40:00 2.1 C 5.43 g/m*3 2.1 C 1.6 km/h
974 02-02-2015 01:45:00 2.1 C 5.43 g/m*3 2.1 C 1.6 km/h
975 02-02-2015 01:50:00 2.1 C 5.43 g/m*3 2.1 C 3.2 km/h
Sensor: Nr:Datum:Temp:Abs-Feuchte:Windchill:Wind:
Aussen-T/F 976 02-02-2015 01:55:00 2.1 C 5.43 g/m*3 2.1 C 3.2 km/h
977 02-02-2015 02:00:00 2.1 C 5.43 g/m*3 2.1 C 0 km/h
978 02-02-2015 02:05:00 2.1 C 5.43 g/m*3 2.1 C 4.8 km/h
979 02-02-2015 02:10:00 2.1 C 5.43 g/m*3 2.1 C 4.8 km/h
980 02-02-2015 02:15:00 2.1 C 5.43 g/m*3 2.1 C 4.8 km/h
981 02-02-2015 02:20:00 2 C 5.39 g/m*3 2 C 0 km/h
982 02-02-2015 02:25:00 2 C 5.39 g/m*3 2 C 3.2 km/h
983 02-02-2015 02:30:00 2 C 5.39 g/m*3 2 C 3.2 km/h
984 02-02-2015 02:35:00 1.9 C 5.35 g/m*3 1.9 C 4.8 km/h
985 02-02-2015 02:40:00 2 C 5.39 g/m*3 2 C 3.2 km/h
986 02-02-2015 02:45:00 1.9 C 5.35 g/m*3 1.9 C 1.6 km/h
987 02-02-2015 02:50:00 1.9 C 5.35 g/m*3 1.9 C 4.8 km/h
988 02-02-2015 02:55:00 1.9 C 5.35 g/m*3 1.9 C 3.2 km/h
989 02-02-2015 03:00:00 1.9 C 5.35 g/m*3 1.9 C 3.2 km/h
990 02-02-2015 03:05:00 2 C 5.39 g/m*3 2 C 1.6 km/h
991 02-02-2015 03:10:00 2 C 5.39 g/m*3 2 C 0 km/h
992 02-02-2015 03:15:00 2.1 C 5.43 g/m*3 2.1 C 1.6 km/h
993 02-02-2015 03:20:00 2.1 C 5.43 g/m*3 2.1 C 4.8 km/h
994 02-02-2015 03:25:00 2.2 C 5.46 g/m*3 2.2 C 4.8 km/h
995 02-02-2015 03:30:00 2.2 C 5.46 g/m*3 2.2 C 1.6 km/h
996 02-02-2015 03:35:00 2.2 C 5.46 g/m*3 2.2 C 1.6 km/h
997 02-02-2015 03:40:00 2.2 C 5.46 g/m*3 2.2 C 1.6 km/h
998 02-02-2015 03:45:00 2.2 C 5.46 g/m*3 2.2 C 1.6 km/h
999 02-02-2015 03:50:00 2.2 C 5.46 g/m*3 2.2 C 4.8 km/h
1000 02-02-2015 03:55:00 2.2 C 5.46 g/m*3 2.2 C 1.6 km/h
Sensor: Nr:Datum:Temp:Abs-Feuchte:Windchill:Wind:
Aussen-T/F 1001 02-02-2015 04:00:00 2.2 C 5.46 g/m*3 2.2 C 3.2 km/h
1002 02-02-2015 04:05:00 2.2 C 5.46 g/m*3 2.2 C 4.8 km/h
1003 02-02-2015 04:10:00 2.3 C 5.5 g/m*3 2.3 C 4.8 km/h
1004 02-02-2015 04:15:00 2.3 C 5.44 g/m*3 2.3 C 1.6 km/h
1005 02-02-2015 04:20:00 2.3 C 5.44 g/m*3 2.3 C 3.2 km/h
1006 02-02-2015 04:25:00 2.3 C 5.44 g/m*3 2.3 C 1.6 km/h
1007 02-02-2015 04:30:00 2.3 C 5.44 g/m*3 2.3 C 1.6 km/h
1008 02-02-2015 04:35:00 2.3 C 5.44 g/m*3 2.3 C 1.6 km/h
1009 02-02-2015 04:40:00 2.2 C 5.41 g/m*3 2.2 C 1.6 km/h
1010 02-02-2015 04:45:00 2.2 C 5.41 g/m*3 2.2 C 1.6 km/h
1011 02-02-2015 04:50:00 2.2 C 5.41 g/m*3 2.2 C 3.2 km/h
1012 02-02-2015 04:55:00 2.2 C 5.41 g/m*3 2.2 C 3.2 km/h
1013 02-02-2015 05:00:00 2.2 C 5.41 g/m*3 2.2 C 1.6 km/h
1014 02-02-2015 05:05:00 2.2 C 5.41 g/m*3 2.2 C 1.6 km/h
1015 02-02-2015 05:10:00 2.2 C 5.41 g/m*3 2.2 C 0 km/h
1016 02-02-2015 05:15:00 2.3 C 5.39 g/m*3 2.3 C 0 km/h
1017 02-02-2015 05:20:00 2.2 C 5.41 g/m*3 2.2 C 0 km/h
1018 02-02-2015 05:25:00 2.2 C 5.41 g/m*3 2.2 C 1.6 km/h
1019 02-02-2015 05:30:00 2.2 C 5.41 g/m*3 2.2 C 1.6 km/h
1020 02-02-2015 05:35:00 2.2 C 5.41 g/m*3 2.2 C 1.6 km/h
1021 02-02-2015 05:40:00 2.2 C 5.41 g/m*3 2.2 C 1.6 km/h
1022 02-02-2015 05:45:00 2.2 C 5.41 g/m*3 2.2 C 0 km/h
1023 02-02-2015 05:50:00 2.1 C 5.37 g/m*3 2.1 C 0 km/h
1024 02-02-2015 05:55:00 2.1 C 5.37 g/m*3 2.1 C 1.6 km/h
1025 02-02-2015 06:00:00 2.1 C 5.31 g/m*3 2.1 C 3.2 km/h
Sensor: Nr:Datum:Temp:Abs-Feuchte:Windchill:Wind:
Aussen-T/F 1026 02-02-2015 06:05:00 2.1 C 5.31 g/m*3 2.1 C 0 km/h
1027 02-02-2015 06:10:00 2.1 C 5.31 g/m*3 2.1 C 1.6 km/h
1028 02-02-2015 06:15:00 2.1 C 5.31 g/m*3 -0.3 C 8.1 km/h
1029 02-02-2015 06:20:00 2.1 C 5.31 g/m*3 2.1 C 1.6 km/h
1030 02-02-2015 06:25:00 2.1 C 5.31 g/m*3 2.1 C 1.6 km/h
1031 02-02-2015 06:30:00 2.1 C 5.31 g/m*3 2.1 C 4.8 km/h
1032 02-02-2015 06:35:00 2.1 C 5.31 g/m*3 2.1 C 4.8 km/h
1033 02-02-2015 06:40:00 2.1 C 5.31 g/m*3 2.1 C 3.2 km/h
1034 02-02-2015 06:45:00 2 C 5.22 g/m*3 2 C 3.2 km/h
1035 02-02-2015 06:50:00 2 C 5.22 g/m*3 2 C 3.2 km/h
1036 02-02-2015 06:55:00 2.1 C 5.26 g/m*3 0.24 C 6.4 km/h
1037 02-02-2015 07:00:00 2.1 C 5.26 g/m*3 0.24 C 6.4 km/h
1038 02-02-2015 07:05:00 2.1 C 5.2 g/m*3 2.1 C 1.6 km/h
1039 02-02-2015 07:10:00 2.1 C 5.26 g/m*3 2.1 C 0 km/h
1040 02-02-2015 07:15:00 2 C 5.22 g/m*3 2 C 3.2 km/h
1041 02-02-2015 07:20:00 1.9 C 5.19 g/m*3 1.9 C 4.8 km/h
1042 02-02-2015 07:25:00 1.8 C 5.15 g/m*3 1.8 C 4.8 km/h
1043 02-02-2015 07:30:00 1.8 C 5.15 g/m*3 1.8 C 4.8 km/h
1044 02-02-2015 07:35:00 1.8 C 5.15 g/m*3 -0.1 C 6.4 km/h
1045 02-02-2015 07:40:00 1.8 C 5.21 g/m*3 1.8 C 4.8 km/h
1046 02-02-2015 07:45:00 1.8 C 5.21 g/m*3 1.8 C 3.2 km/h
1047 02-02-2015 07:50:00 1.8 C 5.15 g/m*3 1.8 C 1.6 km/h
1048 02-02-2015 07:55:00 1.8 C 5.15 g/m*3 1.8 C 4.8 km/h
1049 02-02-2015 08:00:00 1.9 C 5.19 g/m*3 1.9 C 4.8 km/h
1050 02-02-2015 08:05:00 1.9 C 5.24 g/m*3 1.9 C 3.2 km/h
Sensor: Nr:Datum:Temp:Abs-Feuchte:Windchill:Wind:
Aussen-T/F 1051 02-02-2015 08:10:00 1.9 C 5.24 g/m*3 1.9 C 3.2 km/h
1052 02-02-2015 08:15:00 1.8 C 5.21 g/m*3 -0.1 C 6.4 km/h
1053 02-02-2015 08:20:00 1.8 C 5.21 g/m*3 1.8 C 0 km/h
1054 02-02-2015 08:25:00 1.8 C 5.21 g/m*3 1.8 C 3.2 km/h
1055 02-02-2015 08:30:00 1.8 C 5.21 g/m*3 1.8 C 1.6 km/h
1056 02-02-2015 08:35:00 1.8 C 5.21 g/m*3 1.8 C 4.8 km/h
1057 02-02-2015 08:40:00 1.8 C 5.21 g/m*3 -0.65 C 8.1 km/h
1058 02-02-2015 08:45:00 1.8 C 5.21 g/m*3 1.8 C 4.8 km/h
1059 02-02-2015 08:50:00 1.8 C 5.21 g/m*3 1.8 C 1.6 km/h
1060 02-02-2015 08:55:00 1.9 C 5.19 g/m*3 1.9 C 0 km/h
1061 02-02-2015 09:00:00 1.9 C 5.19 g/m*3 1.9 C 1.6 km/h
1062 02-02-2015 09:05:00 2 C 5.22 g/m*3 2 C 4.8 km/h
1063 02-02-2015 09:10:00 1.9 C 5.19 g/m*3 1.9 C 3.2 km/h
1064 02-02-2015 09:15:00 1.9 C 5.13 g/m*3 -0.54 C 8.1 km/h
1065 02-02-2015 09:20:00 1.9 C 5.13 g/m*3 -0.54 C 8.1 km/h
1066 02-02-2015 09:25:00 2.1 C 5.15 g/m*3 -0.3 C 8.1 km/h
1067 02-02-2015 09:30:00 2.1 C 5.15 g/m*3 -0.73 C 9.7 km/h
1068 02-02-2015 09:35:00 2.1 C 5.15 g/m*3 0.24 C 6.4 km/h
1069 02-02-2015 11:35:00 3.1 C 5.15 g/m*3 0.46 C 9.7 km/h
1070 02-02-2015 11:40:00 2.9 C 5.08 g/m*3 -0.14 C 11.3 km/h
1071 02-02-2015 11:45:00 2.7 C 5.07 g/m*3 2.7 C 4.8 km/h
1072 02-02-2015 11:50:00 2.7 C 5.19 g/m*3 -0.02 C 9.7 km/h
1073 02-02-2015 11:55:00 2.1 C 5.04 g/m*3 0.24 C 6.4 km/h
1074 02-02-2015 12:00:00 2.1 C 5.04 g/m*3 2.1 C 4.8 km/h
1075 02-02-2015 12:05:00 2.1 C 5.04 g/m*3 0.24 C 6.4 km/h
Sensor: Nr:Datum:Temp:Abs-Feuchte:Windchill:Wind:
Aussen-T/F 1076 02-02-2015 12:10:00 1.9 C 5.02 g/m*3 0.01 C 6.4 km/h
1077 02-02-2015 12:15:00 1.9 C 5.08 g/m*3 -0.54 C 8.1 km/h
1078 02-02-2015 12:20:00 2.1 C 5.15 g/m*3 -0.73 C 9.7 km/h
1079 02-02-2015 12:25:00 2.3 C 5.16 g/m*3 -0.49 C 9.7 km/h
1080 02-02-2015 12:30:00 2.6 C 5.27 g/m*3 -0.14 C 9.7 km/h
1081 02-02-2015 12:35:00 2.7 C 5.24 g/m*3 0.94 C 6.4 km/h
1082 02-02-2015 12:40:00 2.9 C 5.2 g/m*3 0.22 C 9.7 km/h
1083 02-02-2015 12:45:00 3.1 C 5.27 g/m*3 1.4 C 6.4 km/h
1084 02-02-2015 12:50:00 3.3 C 5.34 g/m*3 1.11 C 8.1 km/h
1085 02-02-2015 12:55:00 3.4 C 5.31 g/m*3 1.75 C 6.4 km/h
1086 02-02-2015 13:00:00 3.4 C 5.19 g/m*3 0.46 C 11.3 km/h
1087 02-02-2015 13:05:00 3.4 C 5.07 g/m*3 0.14 C 12.9 km/h
1088 02-02-2015 13:10:00 3.4 C 5.07 g/m*3 -0.4 C 16.1 km/h
1089 02-02-2015 13:15:00 3.5 C 5.16 g/m*3 -0.02 C 14.5 km/h
1090 02-02-2015 13:20:00 3.6 C 5.14 g/m*3 0.11 C 14.5 km/h
1091 02-02-2015 13:25:00 3.6 C 5.08 g/m*3 1.46 C 8.1 km/h
1092 02-02-2015 13:30:00 3.5 C 5.1 g/m*3 0.58 C 11.3 km/h
1093 02-02-2015 13:35:00 3.4 C 5.01 g/m*3 0.82 C 9.7 km/h
1094 02-02-2015 13:40:00 3.5 C 5.1 g/m*3 0.94 C 9.7 km/h
1095 02-02-2015 13:45:00 3.5 C 5.1 g/m*3 1.34 C 8.1 km/h
1096 02-02-2015 13:50:00 3.6 C 5.2 g/m*3 1.98 C 6.4 km/h
1097 02-02-2015 13:55:00 3.7 C 5.11 g/m*3 1.58 C 8.1 km/h
1098 02-02-2015 14:00:00 3.8 C 5.08 g/m*3 0.35 C 14.5 km/h
1099 02-02-2015 14:05:00 3.9 C 5.05 g/m*3 1.41 C 9.7 km/h
1100 02-02-2015 14:10:00 3.9 C 5.05 g/m*3 1.06 C 11.3 km/h
Sensor: Nr:Datum:Temp:Abs-Feuchte:Windchill:Wind:
Aussen-T/F 1101 02-02-2015 14:15:00 3.9 C 5.05 g/m*3 -0.23 C 19.3 km/h
1102 02-02-2015 14:20:00 4 C 4.96 g/m*3 -0.11 C 19.3 km/h
1103 02-02-2015 14:25:00 3.9 C 4.99 g/m*3 0.22 C 16.1 km/h
1104 02-02-2015 14:30:00 3.9 C 4.99 g/m*3 0.47 C 14.5 km/h
1105 02-02-2015 14:35:00 3.9 C 4.99 g/m*3 0.47 C 14.5 km/h
1106 02-02-2015 14:40:00 3.7 C 4.99 g/m*3 -0.26 C 17.7 km/h
1107 02-02-2015 14:45:00 3.7 C 4.99 g/m*3 1.18 C 9.7 km/h
1108 02-02-2015 14:50:00 3.7 C 4.99 g/m*3 1.18 C 9.7 km/h
1109 02-02-2015 14:55:00 3.7 C 4.92 g/m*3 0.51 C 12.9 km/h
1110 02-02-2015 15:00:00 3.4 C 5.01 g/m*3 -0.86 C 19.3 km/h
1111 02-02-2015 15:05:00 3.3 C 5.04 g/m*3 1.63 C 6.4 km/h
1112 02-02-2015 15:10:00 3.3 C 4.97 g/m*3 0.34 C 11.3 km/h
1113 02-02-2015 15:15:00 3.3 C 4.91 g/m*3 0.34 C 11.3 km/h
1114 02-02-2015 15:20:00 3.4 C 4.95 g/m*3 0.46 C 11.3 km/h
1115 02-02-2015 15:25:00 3.4 C 4.89 g/m*3 0.14 C 12.9 km/h
1116 02-02-2015 15:30:00 3.4 C 4.83 g/m*3 -0.14 C 14.5 km/h
1117 02-02-2015 15:35:00 3.5 C 4.8 g/m*3 0.27 C 12.9 km/h
1118 02-02-2015 15:40:00 3.4 C 4.83 g/m*3 0.14 C 12.9 km/h
1119 02-02-2015 15:45:00 3.4 C 4.83 g/m*3 0.14 C 12.9 km/h
1120 02-02-2015 15:50:00 3.4 C 4.83 g/m*3 0.46 C 11.3 km/h
1121 02-02-2015 15:55:00 3.3 C 4.79 g/m*3 0.34 C 11.3 km/h
1122 02-02-2015 16:00:00 3.3 C 4.79 g/m*3 0.02 C 12.9 km/h
1123 02-02-2015 16:05:00 3.2 C 4.82 g/m*3 0.22 C 11.3 km/h
1124 02-02-2015 16:10:00 3.1 C 4.79 g/m*3 -0.77 C 16.1 km/h
1125 02-02-2015 16:15:00 3.1 C 4.79 g/m*3 -0.77 C 16.1 km/h
Sensor: Nr:Datum:Temp:Abs-Feuchte:Windchill:Wind:
Aussen-T/F 1126 02-02-2015 16:20:00 3.1 C 4.73 g/m*3 0.1 C 11.3 km/h
1127 02-02-2015 16:25:00 3.1 C 4.73 g/m*3 -0.51 C 14.5 km/h
1128 02-02-2015 16:30:00 3 C 4.76 g/m*3 -1.77 C 22.5 km/h
1129 02-02-2015 16:35:00 2.9 C 4.72 g/m*3 -1.26 C 17.7 km/h
1130 02-02-2015 16:40:00 3 C 4.76 g/m*3 -0.9 C 16.1 km/h
1131 02-02-2015 16:45:00 3 C 4.76 g/m*3 -0.9 C 16.1 km/h
1132 02-02-2015 16:50:00 2.9 C 4.72 g/m*3 -1.26 C 17.7 km/h
1133 02-02-2015 16:55:00 2.9 C 4.72 g/m*3 -1.02 C 16.1 km/h
1134 02-02-2015 17:00:00 2.8 C 4.75 g/m*3 -0.88 C 14.5 km/h
1135 02-02-2015 17:05:00 2.8 C 4.81 g/m*3 0.1 C 9.7 km/h
1136 02-02-2015 17:10:00 2.7 C 4.78 g/m*3 0.4 C 8.1 km/h
1137 02-02-2015 17:15:00 2.6 C 4.75 g/m*3 -0.83 C 12.9 km/h
1138 02-02-2015 17:20:00 2.6 C 4.8 g/m*3 -1.12 C 14.5 km/h
1139 02-02-2015 17:25:00 2.6 C 4.8 g/m*3 -0.14 C 9.7 km/h
1140 02-02-2015 17:30:00 2.5 C 4.77 g/m*3 0.17 C 8.1 km/h
1141 02-02-2015 17:35:00 2.5 C 4.77 g/m*3 -0.26 C 9.7 km/h
1142 02-02-2015 17:40:00 2.5 C 4.71 g/m*3 -0.95 C 12.9 km/h
1143 02-02-2015 17:45:00 2.5 C 4.71 g/m*3 -0.62 C 11.3 km/h
1144 02-02-2015 18:05:00 2.5 C 4.71 g/m*3 -0.26 C 9.7 km/h
1145 02-02-2015 18:10:00 2.5 C 4.71 g/m*3 0.71 C 6.4 km/h
1146 02-02-2015 18:15:00 2.4 C 4.74 g/m*3 0.59 C 6.4 km/h
1147 02-02-2015 18:20:00 2.4 C 4.74 g/m*3 2.4 C 4.8 km/h
1148 02-02-2015 18:25:00 2.4 C 4.74 g/m*3 0.05 C 8.1 km/h
1149 02-02-2015 18:30:00 2.4 C 4.74 g/m*3 -0.74 C 11.3 km/h
1150 02-02-2015 18:35:00 2.4 C 4.74 g/m*3 -0.37 C 9.7 km/h
Sensor: Nr:Datum:Temp:Abs-Feuchte:Windchill:Wind:
Aussen-T/F 1151 02-02-2015 18:40:00 2.4 C 4.74 g/m*3 0.05 C 8.1 km/h
1152 02-02-2015 18:45:00 2.4 C 4.74 g/m*3 -0.37 C 9.7 km/h
1153 02-02-2015 18:50:00 2.4 C 4.74 g/m*3 0.59 C 6.4 km/h
1154 02-02-2015 18:55:00 2.3 C 4.71 g/m*3 2.3 C 4.8 km/h
1155 02-02-2015 19:00:00 2.3 C 4.71 g/m*3 0.47 C 6.4 km/h
1156 02-02-2015 19:05:00 2.3 C 4.71 g/m*3 -0.49 C 9.7 km/h
1157 02-02-2015 19:10:00 2.3 C 4.71 g/m*3 0.47 C 6.4 km/h
1158 02-02-2015 19:15:00 2.3 C 4.76 g/m*3 2.3 C 4.8 km/h
1159 02-02-2015 19:20:00 2.3 C 4.76 g/m*3 2.3 C 3.2 km/h
1160 02-02-2015 19:25:00 2.2 C 4.73 g/m*3 -0.18 C 8.1 km/h
1161 02-02-2015 19:30:00 2.2 C 4.73 g/m*3 0.36 C 6.4 km/h
1162 02-02-2015 19:35:00 2.2 C 4.73 g/m*3 -1.62 C 14.5 km/h
1163 02-02-2015 19:40:00 2.2 C 4.79 g/m*3 2.2 C 3.2 km/h
1164 02-02-2015 19:45:00 2.1 C 4.76 g/m*3 0.24 C 6.4 km/h
1165 02-02-2015 19:50:00 2.1 C 4.76 g/m*3 0.24 C 6.4 km/h
1166 02-02-2015 19:55:00 2.2 C 4.73 g/m*3 -0.99 C 11.3 km/h
1167 02-02-2015 20:00:00 2.1 C 4.7 g/m*3 0.24 C 6.4 km/h
1168 02-02-2015 20:05:00 2.2 C 4.73 g/m*3 0.36 C 6.4 km/h
1169 02-02-2015 20:10:00 2.2 C 4.73 g/m*3 0.36 C 6.4 km/h
1170 02-02-2015 20:15:00 2.2 C 4.73 g/m*3 -0.61 C 9.7 km/h
1171 02-02-2015 20:20:00 2.2 C 4.68 g/m*3 -0.61 C 9.7 km/h
1172 02-02-2015 20:25:00 2.2 C 4.73 g/m*3 -0.61 C 9.7 km/h
1173 02-02-2015 20:30:00 2.2 C 4.73 g/m*3 -0.18 C 8.1 km/h
1174 02-02-2015 20:35:00 2.2 C 4.73 g/m*3 -0.18 C 8.1 km/h
1175 02-02-2015 20:40:00 2.1 C 4.7 g/m*3 -0.3 C 8.1 km/h
Sensor: Nr:Datum:Temp:Abs-Feuchte:Windchill:Wind:
Aussen-T/F 1176 02-02-2015 20:45:00 2.1 C 4.76 g/m*3 -0.73 C 9.7 km/h
1177 02-02-2015 20:50:00 2.1 C 4.76 g/m*3 2.1 C 4.8 km/h
1178 02-02-2015 20:55:00 2.1 C 4.76 g/m*3 0.24 C 6.4 km/h
1179 02-02-2015 21:00:00 2.1 C 4.7 g/m*3 0.24 C 6.4 km/h
1180 02-02-2015 21:05:00 2.1 C 4.7 g/m*3 2.1 C 4.8 km/h
1181 02-02-2015 21:10:00 2.1 C 4.7 g/m*3 -0.73 C 9.7 km/h
1182 02-02-2015 21:15:00 2.1 C 4.7 g/m*3 0.24 C 6.4 km/h
1183 02-02-2015 21:20:00 2 C 4.72 g/m*3 2 C 3.2 km/h
1184 02-02-2015 21:25:00 1.9 C 4.69 g/m*3 -0.54 C 8.1 km/h
1185 02-02-2015 21:30:00 1.8 C 4.66 g/m*3 -0.65 C 8.1 km/h
1186 02-02-2015 21:35:00 1.8 C 4.66 g/m*3 -0.1 C 6.4 km/h
1187 02-02-2015 21:40:00 1.8 C 4.66 g/m*3 -0.65 C 8.1 km/h
1188 02-02-2015 21:45:00 1.8 C 4.66 g/m*3 -1.47 C 11.3 km/h
1189 02-02-2015 21:50:00 1.8 C 4.66 g/m*3 -1.09 C 9.7 km/h
1190 02-02-2015 21:55:00 1.8 C 4.66 g/m*3 -1.09 C 9.7 km/h
1191 02-02-2015 22:50:00 1.4 C 4.53 g/m*3 -0.56 C 6.4 km/h
1192 02-02-2015 22:55:00 1.4 C 4.53 g/m*3 -0.56 C 6.4 km/h
1193 02-02-2015 23:00:00 1.4 C 4.53 g/m*3 1.4 C 4.8 km/h
1194 02-02-2015 23:05:00 1.5 C 4.57 g/m*3 -0.45 C 6.4 km/h
1195 02-02-2015 23:10:00 1.5 C 4.51 g/m*3 -1.01 C 8.1 km/h
1196 02-02-2015 23:15:00 1.5 C 4.57 g/m*3 1.5 C 4.8 km/h
1197 02-02-2015 23:20:00 1.5 C 4.51 g/m*3 -0.45 C 6.4 km/h
1198 02-02-2015 23:25:00 1.5 C 4.51 g/m*3 1.5 C 4.8 km/h
1199 02-02-2015 23:30:00 1.5 C 4.51 g/m*3 -0.45 C 6.4 km/h
1200 02-02-2015 23:35:00 1.5 C 4.51 g/m*3 -0.45 C 6.4 km/h
Sensor: Nr:Datum:Temp:Abs-Feuchte:Windchill:Wind:
Aussen-T/F 1201 02-02-2015 23:40:00 1.6 C 4.54 g/m*3 -1.33 C 9.7 km/h
1202 02-02-2015 23:45:00 1.6 C 4.54 g/m*3 -1.33 C 9.7 km/h
1203 02-02-2015 23:50:00 1.6 C 4.49 g/m*3 1.6 C 3.2 km/h
1204 02-02-2015 23:55:00 1.6 C 4.49 g/m*3 1.6 C 4.8 km/h
1205 03-02-2015 00:00:00 1.7 C 4.57 g/m*3 1.7 C 4.8 km/h
1206 03-02-2015 00:05:00 1.7 C 4.57 g/m*3 -0.77 C 8.1 km/h
1207 03-02-2015 00:10:00 1.7 C 4.52 g/m*3 1.7 C 4.8 km/h
1208 03-02-2015 00:15:00 1.6 C 4.54 g/m*3 1.6 C 3.2 km/h
1209 03-02-2015 00:20:00 1.6 C 4.54 g/m*3 1.6 C 3.2 km/h
1210 03-02-2015 00:25:00 1.6 C 4.49 g/m*3 1.6 C 4.8 km/h
1211 03-02-2015 00:30:00 1.6 C 4.54 g/m*3 1.6 C 3.2 km/h
1212 03-02-2015 00:35:00 1.6 C 4.6 g/m*3 1.6 C 3.2 km/h
1213 03-02-2015 00:40:00 1.6 C 4.54 g/m*3 1.6 C 1.6 km/h
1214 03-02-2015 00:45:00 1.6 C 4.54 g/m*3 1.6 C 3.2 km/h
1215 03-02-2015 00:50:00 1.6 C 4.54 g/m*3 1.6 C 4.8 km/h
1216 03-02-2015 00:55:00 1.6 C 4.65 g/m*3 1.6 C 4.8 km/h
1217 03-02-2015 01:00:00 1.6 C 4.65 g/m*3 1.6 C 3.2 km/h
1218 03-02-2015 01:05:00 1.5 C 4.57 g/m*3 1.5 C 3.2 km/h
1219 03-02-2015 01:10:00 1.4 C 4.59 g/m*3 1.4 C 0 km/h
1220 03-02-2015 01:15:00 1.4 C 4.59 g/m*3 1.4 C 1.6 km/h
1221 03-02-2015 01:20:00 1.4 C 4.59 g/m*3 1.4 C 3.2 km/h
1222 03-02-2015 01:25:00 1.4 C 4.53 g/m*3 1.4 C 3.2 km/h
1223 03-02-2015 01:30:00 1.4 C 4.59 g/m*3 1.4 C 1.6 km/h
1224 03-02-2015 01:35:00 1.3 C 4.56 g/m*3 1.3 C 3.2 km/h
1225 03-02-2015 01:40:00 1.3 C 4.56 g/m*3 1.3 C 3.2 km/h
Sensor: Nr:Datum:Temp:Abs-Feuchte:Windchill:Wind:
Aussen-T/F 1226 03-02-2015 01:45:00 1.3 C 4.56 g/m*3 1.3 C 3.2 km/h
1227 03-02-2015 01:50:00 1.3 C 4.56 g/m*3 1.3 C 4.8 km/h
1228 03-02-2015 01:55:00 1.3 C 4.56 g/m*3 1.3 C 0 km/h
1229 03-02-2015 02:00:00 1.2 C 4.53 g/m*3 1.2 C 0 km/h
1230 03-02-2015 02:05:00 1.2 C 4.53 g/m*3 1.2 C 0 km/h
1231 03-02-2015 02:10:00 1.2 C 4.58 g/m*3 1.2 C 0 km/h
1232 03-02-2015 02:15:00 1.1 C 4.55 g/m*3 1.1 C 3.2 km/h
1233 03-02-2015 02:20:00 1.1 C 4.55 g/m*3 1.1 C 1.6 km/h
1234 03-02-2015 02:25:00 1 C 4.57 g/m*3 1 C 3.2 km/h
1235 03-02-2015 02:30:00 1 C 4.52 g/m*3 1 C 3.2 km/h
1236 03-02-2015 02:35:00 1 C 4.57 g/m*3 1 C 1.6 km/h
1237 03-02-2015 02:40:00 1 C 4.57 g/m*3 1 C 3.2 km/h
1238 03-02-2015 02:45:00 0.9 C 4.54 g/m*3 0.9 C 3.2 km/h
1239 03-02-2015 02:50:00 0.9 C 4.48 g/m*3 0.9 C 3.2 km/h
1240 03-02-2015 02:55:00 0.9 C 4.48 g/m*3 0.9 C 1.6 km/h
1241 03-02-2015 03:00:00 0.9 C 4.48 g/m*3 0.9 C 3.2 km/h
1242 03-02-2015 03:05:00 0.9 C 4.48 g/m*3 0.9 C 3.2 km/h
1243 03-02-2015 03:10:00 0.8 C 4.45 g/m*3 0.8 C 3.2 km/h
1244 03-02-2015 03:15:00 0.8 C 4.45 g/m*3 0.8 C 3.2 km/h
1245 03-02-2015 03:20:00 0.8 C 4.51 g/m*3 0.8 C 0 km/h
1246 03-02-2015 03:25:00 0.7 C 4.53 g/m*3 0.7 C 0 km/h
1247 03-02-2015 03:30:00 0.7 C 4.53 g/m*3 0.7 C 1.6 km/h
1248 03-02-2015 03:35:00 0.6 C 4.49 g/m*3 0.6 C 1.6 km/h
1249 03-02-2015 03:40:00 0.6 C 4.44 g/m*3 0.6 C 3.2 km/h
1250 03-02-2015 03:45:00 0.6 C 4.49 g/m*3 0.6 C 1.6 km/h
Sensor: Nr:Datum:Temp:Abs-Feuchte:Windchill:Wind:
Aussen-T/F 1251 03-02-2015 03:50:00 0.6 C 4.49 g/m*3 0.6 C 1.6 km/h
1252 03-02-2015 03:55:00 0.6 C 4.49 g/m*3 0.6 C 4.8 km/h
1253 03-02-2015 04:00:00 0.6 C 4.49 g/m*3 0.6 C 3.2 km/h
1254 03-02-2015 04:05:00 0.5 C 4.46 g/m*3 0.5 C 1.6 km/h
1255 03-02-2015 04:10:00 0.5 C 4.46 g/m*3 0.5 C 0 km/h
1256 03-02-2015 04:15:00 0.6 C 4.49 g/m*3 0.6 C 1.6 km/h
1257 03-02-2015 04:20:00 0.6 C 4.49 g/m*3 0.6 C 0 km/h
1258 03-02-2015 04:25:00 0.5 C 4.51 g/m*3 0.5 C 0 km/h
1259 03-02-2015 04:30:00 0.5 C 4.51 g/m*3 0.5 C 0 km/h
1260 03-02-2015 04:35:00 0.6 C 4.54 g/m*3 0.6 C 1.6 km/h
1261 03-02-2015 04:40:00 0.6 C 4.54 g/m*3 0.6 C 1.6 km/h
1262 03-02-2015 04:45:00 0.6 C 4.54 g/m*3 0.6 C 1.6 km/h
1263 03-02-2015 04:50:00 0.6 C 4.49 g/m*3 0.6 C 0 km/h
1264 03-02-2015 04:55:00 0.6 C 4.49 g/m*3 0.6 C 1.6 km/h
1265 03-02-2015 05:00:00 0.6 C 4.49 g/m*3 0.6 C 1.6 km/h
1266 03-02-2015 05:05:00 0.6 C 4.49 g/m*3 0.6 C 0 km/h
1267 03-02-2015 05:10:00 0.7 C 4.53 g/m*3 0.7 C 1.6 km/h
1268 03-02-2015 05:15:00 0.7 C 4.53 g/m*3 0.7 C 1.6 km/h
1269 03-02-2015 05:20:00 0.6 C 4.49 g/m*3 0.6 C 0 km/h
1270 03-02-2015 05:25:00 0.6 C 4.49 g/m*3 0.6 C 0 km/h
1271 03-02-2015 05:30:00 0.6 C 4.49 g/m*3 0.6 C 0 km/h
1272 03-02-2015 05:35:00 0.6 C 4.49 g/m*3 0.6 C 0 km/h
1273 03-02-2015 05:40:00 0.6 C 4.49 g/m*3 0.6 C 0 km/h
1274 03-02-2015 05:45:00 0.6 C 4.49 g/m*3 0.6 C 0 km/h
1275 03-02-2015 05:50:00 0.6 C 4.49 g/m*3 0.6 C 0 km/h
Sensor: Nr:Datum:Temp:Abs-Feuchte:Windchill:Wind:
Aussen-T/F 1276 03-02-2015 05:55:00 0.6 C 4.49 g/m*3 0.6 C 1.6 km/h
1277 03-02-2015 06:00:00 0.6 C 4.49 g/m*3 0.6 C 0 km/h
1278 03-02-2015 06:05:00 0.6 C 4.49 g/m*3 0.6 C 0 km/h
1279 03-02-2015 06:10:00 0.6 C 4.49 g/m*3 0.6 C 0 km/h
1280 03-02-2015 06:15:00 0.6 C 4.49 g/m*3 0.6 C 0 km/h
1281 03-02-2015 06:20:00 0.5 C 4.46 g/m*3 0.5 C 1.6 km/h
1282 03-02-2015 06:25:00 0.6 C 4.49 g/m*3 0.6 C 3.2 km/h
1283 03-02-2015 06:30:00 0.6 C 4.49 g/m*3 0.6 C 1.6 km/h
1284 03-02-2015 06:35:00 0.6 C 4.49 g/m*3 0.6 C 3.2 km/h
1285 03-02-2015 06:40:00 0.6 C 4.49 g/m*3 0.6 C 0 km/h
1286 03-02-2015 06:45:00 0.6 C 4.49 g/m*3 0.6 C 0 km/h
1287 03-02-2015 06:50:00 0.6 C 4.44 g/m*3 0.6 C 0 km/h
1288 03-02-2015 06:55:00 0.6 C 4.44 g/m*3 0.6 C 0 km/h
1289 03-02-2015 07:00:00 0.6 C 4.44 g/m*3 0.6 C 4.8 km/h
1290 03-02-2015 07:05:00 0.6 C 4.39 g/m*3 -1.49 C 6.4 km/h
1291 03-02-2015 07:10:00 0.7 C 4.42 g/m*3 0.7 C 3.2 km/h
1292 03-02-2015 07:15:00 0.7 C 4.42 g/m*3 0.7 C 1.6 km/h
1293 03-02-2015 07:20:00 0.7 C 4.47 g/m*3 0.7 C 1.6 km/h
1294 03-02-2015 07:25:00 0.7 C 4.47 g/m*3 0.7 C 1.6 km/h
1295 03-02-2015 07:30:00 0.6 C 4.49 g/m*3 0.6 C 0 km/h
1296 03-02-2015 07:35:00 0.6 C 4.44 g/m*3 0.6 C 0 km/h
1297 03-02-2015 07:40:00 0.6 C 4.49 g/m*3 0.6 C 0 km/h
1298 03-02-2015 07:45:00 0.5 C 4.46 g/m*3 0.5 C 0 km/h
1299 03-02-2015 07:50:00 0.5 C 4.46 g/m*3 0.5 C 0 km/h
1300 03-02-2015 07:55:00 0.5 C 4.46 g/m*3 0.5 C 1.6 km/h
Sensor: Nr:Datum:Temp:Abs-Feuchte:Windchill:Wind:
Aussen-T/F 1301 03-02-2015 08:00:00 0.4 C 4.43 g/m*3 0.4 C 0 km/h
1302 03-02-2015 08:05:00 0.4 C 4.43 g/m*3 0.4 C 0 km/h
1303 03-02-2015 08:10:00 0.4 C 4.43 g/m*3 0.4 C 0 km/h
1304 03-02-2015 12:15:00 2.4 C 5.71 g/m*3 0.59 C 6.4 km/h
1305 03-02-2015 12:20:00 2.4 C 5.71 g/m*3 -0.37 C 9.7 km/h
1306 03-02-2015 12:25:00 2.6 C 5.79 g/m*3 0.29 C 8.1 km/h
1307 03-02-2015 12:30:00 2.6 C 5.79 g/m*3 -0.14 C 9.7 km/h
1308 03-02-2015 16:00:00 3.1 C 5.21 g/m*3 3.1 C 4.8 km/h
1309 03-02-2015 16:05:00 3.1 C 5.21 g/m*3 1.4 C 6.4 km/h
1310 03-02-2015 16:10:00 3.1 C 5.21 g/m*3 3.1 C 1.6 km/h
1311 03-02-2015 16:15:00 3.1 C 5.21 g/m*3 3.1 C 1.6 km/h
1312 03-02-2015 16:20:00 3.1 C 5.21 g/m*3 3.1 C 1.6 km/h
1313 03-02-2015 16:25:00 2.8 C 5.1 g/m*3 2.8 C 1.6 km/h
1314 03-02-2015 16:30:00 2.7 C 5.13 g/m*3 2.7 C 0 km/h
1315 03-02-2015 16:35:00 2.7 C 5.13 g/m*3 2.7 C 0 km/h
1316 03-02-2015 16:40:00 2.7 C 5.13 g/m*3 2.7 C 0 km/h
1317 03-02-2015 16:45:00 2.7 C 5.13 g/m*3 2.7 C 0 km/h
1318 03-02-2015 16:50:00 2.7 C 5.13 g/m*3 2.7 C 0 km/h
1319 03-02-2015 17:15:00 1.5 C 4.83 g/m*3 1.5 C 3.2 km/h
1320 03-02-2015 17:20:00 1.3 C 4.82 g/m*3 1.3 C 3.2 km/h
1321 03-02-2015 17:25:00 1.2 C 4.79 g/m*3 1.2 C 4.8 km/h
1322 03-02-2015 17:30:00 1.1 C 4.76 g/m*3 1.1 C 3.2 km/h
1323 03-02-2015 17:35:00 1 C 4.78 g/m*3 1 C 3.2 km/h
1324 03-02-2015 17:40:00 0.9 C 4.74 g/m*3 0.9 C 3.2 km/h
1325 03-02-2015 17:45:00 0.9 C 4.79 g/m*3 0.9 C 1.6 km/h
Sensor: Nr:Datum:Temp:Abs-Feuchte:Windchill:Wind:
Aussen-T/F 1326 03-02-2015 17:50:00 1 C 4.83 g/m*3 1 C 3.2 km/h
1327 03-02-2015 17:55:00 1.1 C 4.86 g/m*3 1.1 C 3.2 km/h
1328 03-02-2015 18:00:00 1.1 C 4.86 g/m*3 1.1 C 3.2 km/h
1329 03-02-2015 18:05:00 0.9 C 4.79 g/m*3 0.9 C 3.2 km/h
1330 03-02-2015 18:10:00 0.8 C 4.76 g/m*3 0.8 C 4.8 km/h
1331 03-02-2015 18:15:00 0.7 C 4.73 g/m*3 0.7 C 0 km/h
1332 03-02-2015 18:20:00 0.6 C 4.7 g/m*3 0.6 C 3.2 km/h
1333 03-02-2015 18:25:00 0.5 C 4.66 g/m*3 0.5 C 1.6 km/h
1334 03-02-2015 18:30:00 0.5 C 4.71 g/m*3 0.5 C 4.8 km/h
1335 03-02-2015 18:35:00 0.7 C 4.78 g/m*3 0.7 C 4.8 km/h
1336 03-02-2015 18:40:00 0.7 C 4.78 g/m*3 0.7 C 3.2 km/h
1337 03-02-2015 18:45:00 0.7 C 4.78 g/m*3 0.7 C 3.2 km/h
1338 03-02-2015 18:50:00 0.6 C 4.75 g/m*3 0.6 C 4.8 km/h
1339 03-02-2015 18:55:00 0.6 C 4.75 g/m*3 0.6 C 4.8 km/h
1340 03-02-2015 19:00:00 0.5 C 4.71 g/m*3 0.5 C 3.2 km/h
1341 03-02-2015 19:05:00 0.4 C 4.68 g/m*3 0.4 C 4.8 km/h
1342 03-02-2015 19:10:00 0.6 C 4.8 g/m*3 0.6 C 4.8 km/h
1343 03-02-2015 19:15:00 0.7 C 4.83 g/m*3 0.7 C 1.6 km/h
1344 03-02-2015 19:20:00 0.7 C 4.83 g/m*3 0.7 C 0 km/h
1345 03-02-2015 19:25:00 0.8 C 4.86 g/m*3 0.8 C 0 km/h
1346 03-02-2015 19:30:00 0.7 C 4.83 g/m*3 0.7 C 0 km/h
1347 03-02-2015 19:35:00 0.7 C 4.83 g/m*3 0.7 C 0 km/h
1348 03-02-2015 19:40:00 0.7 C 4.83 g/m*3 0.7 C 1.6 km/h
1349 03-02-2015 19:45:00 0.7 C 4.83 g/m*3 0.7 C 0 km/h
1350 03-02-2015 19:50:00 0.7 C 4.83 g/m*3 0.7 C 0 km/h
Sensor: Nr:Datum:Temp:Abs-Feuchte:Windchill:Wind:
Aussen-T/F 1351 03-02-2015 19:55:00 0.7 C 4.83 g/m*3 0.7 C 3.2 km/h
1352 03-02-2015 20:00:00 0.8 C 4.86 g/m*3 0.8 C 1.6 km/h
1353 03-02-2015 20:05:00 0.8 C 4.86 g/m*3 0.8 C 1.6 km/h
1354 03-02-2015 20:10:00 0.8 C 4.86 g/m*3 0.8 C 1.6 km/h
1355 03-02-2015 20:15:00 0.8 C 4.86 g/m*3 0.8 C 0 km/h
1356 03-02-2015 20:20:00 0.8 C 4.86 g/m*3 0.8 C 0 km/h
1357 03-02-2015 20:25:00 0.8 C 4.86 g/m*3 0.8 C 0 km/h
1358 03-02-2015 20:30:00 0.9 C 4.9 g/m*3 0.9 C 1.6 km/h
1359 03-02-2015 20:35:00 0.9 C 4.9 g/m*3 0.9 C 0 km/h
1360 03-02-2015 20:40:00 0.9 C 4.9 g/m*3 0.9 C 0 km/h
1361 03-02-2015 20:45:00 1 C 4.93 g/m*3 1 C 0 km/h
1362 03-02-2015 20:50:00 1.1 C 4.96 g/m*3 1.1 C 0 km/h
1363 03-02-2015 20:55:00 1.1 C 4.96 g/m*3 1.1 C 0 km/h
1364 03-02-2015 21:00:00 1.2 C 5 g/m*3 1.2 C 1.6 km/h
1365 03-02-2015 21:05:00 1.2 C 5 g/m*3 1.2 C 3.2 km/h
1366 03-02-2015 21:10:00 1.2 C 5 g/m*3 1.2 C 3.2 km/h
1367 03-02-2015 21:15:00 1.1 C 4.91 g/m*3 1.1 C 3.2 km/h
1368 03-02-2015 21:20:00 1.1 C 4.91 g/m*3 1.1 C 3.2 km/h
1369 03-02-2015 21:25:00 1.1 C 4.96 g/m*3 1.1 C 0 km/h
1370 03-02-2015 21:30:00 1.1 C 4.96 g/m*3 1.1 C 0 km/h
1371 03-02-2015 21:35:00 1.1 C 4.96 g/m*3 1.1 C 0 km/h
1372 03-02-2015 21:40:00 1.1 C 4.96 g/m*3 1.1 C 0 km/h
1373 03-02-2015 21:45:00 0.9 C 4.85 g/m*3 0.9 C 0 km/h
1374 03-02-2015 21:50:00 0.7 C 4.78 g/m*3 0.7 C 0 km/h
1375 03-02-2015 21:55:00 0.5 C 4.71 g/m*3 0.5 C 3.2 km/h
Sensor: Nr:Datum:Temp:Abs-Feuchte:Windchill:Wind:
Aussen-T/F 1376 03-02-2015 22:00:00 0.4 C 4.68 g/m*3 0.4 C 3.2 km/h
1377 03-02-2015 22:05:00 0.4 C 4.68 g/m*3 0.4 C 0 km/h
1378 03-02-2015 22:10:00 0.3 C 4.65 g/m*3 0.3 C 0 km/h
1379 03-02-2015 22:15:00 0.2 C 4.62 g/m*3 0.2 C 1.6 km/h
1380 03-02-2015 22:20:00 0.2 C 4.67 g/m*3 0.2 C 3.2 km/h
1381 03-02-2015 22:25:00 0.2 C 4.67 g/m*3 0.2 C 0 km/h
1382 03-02-2015 22:30:00 0.1 C 4.63 g/m*3 0.1 C 0 km/h
1383 03-02-2015 22:35:00 -0.1 C 4.57 g/m*3 -0.1 C 0 km/h
1384 03-02-2015 22:40:00 -0.2 C 4.49 g/m*3 -0.2 C 0 km/h
1385 03-02-2015 22:45:00 -0.2 C 4.54 g/m*3 -0.2 C 3.2 km/h
1386 03-02-2015 22:50:00 -0.1 C 4.57 g/m*3 -0.1 C 4.8 km/h
1387 03-02-2015 22:55:00 -0.1 C 4.57 g/m*3 -0.1 C 0 km/h
1388 03-02-2015 23:00:00 -0.1 C 4.62 g/m*3 -0.1 C 0 km/h
1389 03-02-2015 23:05:00 -0.2 C 4.54 g/m*3 -0.2 C 0 km/h
1390 03-02-2015 23:10:00 -0.2 C 4.54 g/m*3 -0.2 C 0 km/h
1391 03-02-2015 23:15:00 -0.3 C 4.51 g/m*3 -0.3 C 1.6 km/h
1392 03-02-2015 23:20:00 -0.4 C 4.48 g/m*3 -0.4 C 0 km/h
1393 03-02-2015 23:25:00 -0.5 C 4.45 g/m*3 -0.5 C 0 km/h
1394 03-02-2015 23:30:00 -0.6 C 4.42 g/m*3 -0.6 C 0 km/h
1395 03-02-2015 23:35:00 -0.7 C 4.39 g/m*3 -0.7 C 0 km/h
1396 03-02-2015 23:40:00 -0.8 C 4.35 g/m*3 -0.8 C 1.6 km/h
1397 03-02-2015 23:45:00 -0.8 C 4.35 g/m*3 -0.8 C 1.6 km/h
1398 03-02-2015 23:50:00 -0.8 C 4.4 g/m*3 -0.8 C 0 km/h
1399 03-02-2015 23:55:00 -0.7 C 4.43 g/m*3 -0.7 C 3.2 km/h
1400 04-02-2015 00:00:00 -0.7 C 4.43 g/m*3 -0.7 C 0 km/h
Sensor: Nr:Datum:Temp:Abs-Feuchte:Windchill:Wind:
Aussen-T/F 1401 04-02-2015 00:05:00 -0.6 C 4.46 g/m*3 -0.6 C 1.6 km/h
1402 04-02-2015 00:10:00 -0.4 C 4.52 g/m*3 -0.4 C 0 km/h
1403 04-02-2015 00:15:00 -0.4 C 4.52 g/m*3 -0.4 C 0 km/h
1404 04-02-2015 00:20:00 -0.3 C 4.56 g/m*3 -0.3 C 0 km/h
1405 04-02-2015 00:25:00 -0.3 C 4.56 g/m*3 -0.3 C 0 km/h
1406 04-02-2015 00:30:00 -0.3 C 4.56 g/m*3 -0.3 C 0 km/h
1407 04-02-2015 00:35:00 -0.3 C 4.56 g/m*3 -0.3 C 0 km/h
1408 04-02-2015 00:40:00 -0.3 C 4.56 g/m*3 -0.3 C 0 km/h
1409 04-02-2015 00:45:00 -0.4 C 4.52 g/m*3 -0.4 C 0 km/h
1410 04-02-2015 00:50:00 -0.4 C 4.52 g/m*3 -0.4 C 0 km/h
1411 04-02-2015 00:55:00 -0.4 C 4.52 g/m*3 -0.4 C 1.6 km/h
1412 04-02-2015 01:00:00 -0.4 C 4.52 g/m*3 -0.4 C 1.6 km/h
1413 04-02-2015 01:05:00 -0.3 C 4.56 g/m*3 -0.3 C 1.6 km/h
1414 04-02-2015 01:10:00 -0.2 C 4.64 g/m*3 -0.2 C 0 km/h
1415 04-02-2015 01:15:00 -0.2 C 4.59 g/m*3 -0.2 C 0 km/h
1416 04-02-2015 01:20:00 -0.2 C 4.59 g/m*3 -0.2 C 1.6 km/h
1417 04-02-2015 01:25:00 -0.1 C 4.62 g/m*3 -0.1 C 3.2 km/h
1418 04-02-2015 01:30:00 0 C 4.7 g/m*3 0 C 1.6 km/h
1419 04-02-2015 01:35:00 0 C 4.7 g/m*3 0 C 4.8 km/h
1420 04-02-2015 01:40:00 0.1 C 4.73 g/m*3 0.1 C 1.6 km/h
1421 04-02-2015 01:45:00 0.1 C 4.73 g/m*3 0.1 C 3.2 km/h
1422 04-02-2015 01:50:00 0.1 C 4.73 g/m*3 0.1 C 0 km/h
1423 04-02-2015 01:55:00 0.1 C 4.73 g/m*3 0.1 C 1.6 km/h
1424 04-02-2015 02:00:00 0.2 C 4.72 g/m*3 0.2 C 0 km/h
1425 04-02-2015 02:05:00 0.2 C 4.77 g/m*3 0.2 C 0 km/h
Sensor: Nr:Datum:Temp:Abs-Feuchte:Windchill:Wind:
Aussen-T/F 1426 04-02-2015 02:10:00 0.3 C 4.8 g/m*3 0.3 C 0 km/h
1427 04-02-2015 02:15:00 0.3 C 4.8 g/m*3 0.3 C 0 km/h
1428 04-02-2015 02:20:00 0.3 C 4.8 g/m*3 0.3 C 0 km/h
1429 04-02-2015 02:25:00 0.4 C 4.83 g/m*3 0.4 C 1.6 km/h
1430 04-02-2015 02:30:00 0.4 C 4.83 g/m*3 0.4 C 3.2 km/h
1431 04-02-2015 02:35:00 0.4 C 4.83 g/m*3 0.4 C 3.2 km/h
1432 04-02-2015 02:40:00 0.4 C 4.78 g/m*3 0.4 C 3.2 km/h
1433 04-02-2015 02:45:00 0.3 C 4.75 g/m*3 0.3 C 1.6 km/h
1434 04-02-2015 02:50:00 0.3 C 4.75 g/m*3 0.3 C 0 km/h
1435 04-02-2015 02:55:00 0.3 C 4.75 g/m*3 0.3 C 0 km/h
1436 04-02-2015 03:00:00 0.2 C 4.72 g/m*3 0.2 C 0 km/h
1437 04-02-2015 03:05:00 0.2 C 4.72 g/m*3 0.2 C 0 km/h
1438 04-02-2015 03:10:00 0.2 C 4.72 g/m*3 0.2 C 3.2 km/h
1439 04-02-2015 03:15:00 0.2 C 4.72 g/m*3 0.2 C 0 km/h
1440 04-02-2015 03:20:00 0.2 C 4.72 g/m*3 0.2 C 3.2 km/h
1441 04-02-2015 03:25:00 0.3 C 4.75 g/m*3 0.3 C 0 km/h
1442 04-02-2015 03:30:00 0.3 C 4.75 g/m*3 0.3 C 0 km/h
1443 04-02-2015 03:35:00 0.3 C 4.75 g/m*3 0.3 C 3.2 km/h
1444 04-02-2015 03:40:00 0.3 C 4.75 g/m*3 0.3 C 3.2 km/h
1445 04-02-2015 03:45:00 0.3 C 4.75 g/m*3 0.3 C 0 km/h
1446 04-02-2015 03:50:00 0.3 C 4.75 g/m*3 0.3 C 0 km/h
1447 04-02-2015 03:55:00 0.3 C 4.7 g/m*3 0.3 C 3.2 km/h
1448 04-02-2015 04:00:00 0.3 C 4.7 g/m*3 -2.42 C 8.1 km/h
1449 04-02-2015 04:05:00 0.3 C 4.65 g/m*3 -2.88 C 9.7 km/h
1450 04-02-2015 04:10:00 0.4 C 4.68 g/m*3 0.4 C 4.8 km/h
Sensor: Nr:Datum:Temp:Abs-Feuchte:Windchill:Wind:
Aussen-T/F 1451 04-02-2015 04:15:00 0.5 C 4.66 g/m*3 0.5 C 1.6 km/h
1452 04-02-2015 04:20:00 0.5 C 4.66 g/m*3 0.5 C 4.8 km/h
1453 04-02-2015 04:25:00 0.5 C 4.66 g/m*3 0.5 C 1.6 km/h
1454 04-02-2015 04:30:00 0.6 C 4.65 g/m*3 0.6 C 0 km/h
1455 04-02-2015 04:35:00 0.5 C 4.61 g/m*3 0.5 C 4.8 km/h
1456 04-02-2015 04:40:00 0.5 C 4.61 g/m*3 0.5 C 1.6 km/h
1457 04-02-2015 04:45:00 0.5 C 4.61 g/m*3 0.5 C 1.6 km/h
1458 04-02-2015 04:50:00 0.5 C 4.61 g/m*3 -2.18 C 8.1 km/h
1459 04-02-2015 04:55:00 0.5 C 4.56 g/m*3 0.5 C 1.6 km/h
1460 04-02-2015 05:00:00 0.5 C 4.56 g/m*3 0.5 C 4.8 km/h
1461 04-02-2015 05:05:00 0.5 C 4.56 g/m*3 0.5 C 1.6 km/h
1462 04-02-2015 05:10:00 0.5 C 4.56 g/m*3 0.5 C 1.6 km/h
1463 04-02-2015 05:15:00 0.5 C 4.56 g/m*3 0.5 C 1.6 km/h
1464 04-02-2015 05:20:00 0.5 C 4.56 g/m*3 0.5 C 3.2 km/h
1465 04-02-2015 05:25:00 0.5 C 4.56 g/m*3 -1.6 C 6.4 km/h
1466 04-02-2015 05:30:00 0.5 C 4.51 g/m*3 0.5 C 4.8 km/h
1467 04-02-2015 05:35:00 0.5 C 4.51 g/m*3 -1.6 C 6.4 km/h
1468 04-02-2015 05:40:00 0.5 C 4.51 g/m*3 -1.6 C 6.4 km/h
1469 04-02-2015 05:45:00 0.5 C 4.51 g/m*3 0.5 C 3.2 km/h
1470 04-02-2015 05:50:00 0.5 C 4.51 g/m*3 0.5 C 4.8 km/h
1471 04-02-2015 05:55:00 0.5 C 4.51 g/m*3 0.5 C 0 km/h
1472 04-02-2015 06:00:00 0.5 C 4.51 g/m*3 0.5 C 4.8 km/h
1473 04-02-2015 06:05:00 0.4 C 4.43 g/m*3 -2.3 C 8.1 km/h
1474 04-02-2015 06:10:00 0.4 C 4.43 g/m*3 -2.3 C 8.1 km/h
1475 04-02-2015 06:15:00 0.3 C 4.4 g/m*3 -1.84 C 6.4 km/h
Sensor: Nr:Datum:Temp:Abs-Feuchte:Windchill:Wind:
Aussen-T/F 1476 04-02-2015 06:20:00 0.3 C 4.35 g/m*3 -1.84 C 6.4 km/h
1477 04-02-2015 06:25:00 0.2 C 4.32 g/m*3 -1.95 C 6.4 km/h
1478 04-02-2015 06:30:00 0.2 C 4.32 g/m*3 0.2 C 4.8 km/h
1479 04-02-2015 06:35:00 0.1 C 4.29 g/m*3 0.1 C 3.2 km/h
1480 04-02-2015 06:40:00 0 C 4.26 g/m*3 0 C 0 km/h
1481 04-02-2015 06:45:00 -0.2 C 4.21 g/m*3 -0.2 C 0 km/h
1482 04-02-2015 06:50:00 -0.4 C 4.15 g/m*3 -0.4 C 1.6 km/h
1483 04-02-2015 06:55:00 -0.6 C 4.14 g/m*3 -0.6 C 0 km/h
1484 04-02-2015 07:00:00 -0.7 C 4.15 g/m*3 -0.7 C 0 km/h
1485 04-02-2015 07:05:00 -0.7 C 4.2 g/m*3 -0.7 C 0 km/h
1486 04-02-2015 07:10:00 -0.6 C 4.23 g/m*3 -0.6 C 1.6 km/h
1487 04-02-2015 07:15:00 -0.6 C 4.18 g/m*3 -0.6 C 3.2 km/h
1488 04-02-2015 07:20:00 -0.5 C 4.21 g/m*3 -2.76 C 6.4 km/h
1489 04-02-2015 07:25:00 -0.4 C 4.24 g/m*3 -0.4 C 1.6 km/h
1490 04-02-2015 07:30:00 -0.4 C 4.19 g/m*3 -0.4 C 3.2 km/h
1491 04-02-2015 07:35:00 -0.4 C 4.15 g/m*3 -0.4 C 3.2 km/h
1492 04-02-2015 07:40:00 -0.5 C 4.12 g/m*3 -0.5 C 1.6 km/h
1493 04-02-2015 07:45:00 -0.6 C 4.09 g/m*3 -0.6 C 3.2 km/h
1494 04-02-2015 07:50:00 -0.7 C 4.06 g/m*3 -0.7 C 1.6 km/h
1495 04-02-2015 07:55:00 -0.7 C 4.06 g/m*3 -0.7 C 0 km/h
1496 04-02-2015 08:00:00 -0.7 C 4.06 g/m*3 -0.7 C 1.6 km/h
1497 04-02-2015 08:05:00 -0.7 C 4.06 g/m*3 -0.7 C 0 km/h
1498 04-02-2015 08:10:00 -0.7 C 4.06 g/m*3 -0.7 C 1.6 km/h
1499 04-02-2015 10:15:00 -0.7 C 4.06 g/m*3 -4.48 C 11.3 km/h
1500 04-02-2015 10:20:00 -0.4 C 4.1 g/m*3 -4.12 C 11.3 km/h
Sensor: Nr:Datum:Temp:Abs-Feuchte:Windchill:Wind:
Aussen-T/F 1501 04-02-2015 10:25:00 -0.3 C 4.13 g/m*3 -4.99 C 16.1 km/h
1502 04-02-2015 10:30:00 -0.1 C 4.04 g/m*3 -4.74 C 16.1 km/h
1503 04-02-2015 10:35:00 0.1 C 4.05 g/m*3 -4.2 C 14.5 km/h
1504 04-02-2015 10:40:00 0.2 C 4.03 g/m*3 -4.37 C 16.1 km/h
1505 04-02-2015 10:45:00 0.3 C 4.01 g/m*3 -4.51 C 17.7 km/h
1506 04-02-2015 10:50:00 0.3 C 4.01 g/m*3 -4.24 C 16.1 km/h
1507 04-02-2015 10:55:00 0.3 C 3.96 g/m*3 -3.28 C 11.3 km/h
1508 04-02-2015 11:00:00 0.3 C 3.91 g/m*3 -3.95 C 14.5 km/h
1509 04-02-2015 11:05:00 0.4 C 3.93 g/m*3 -2.3 C 8.1 km/h
1510 04-02-2015 11:10:00 0.4 C 3.88 g/m*3 -3.83 C 14.5 km/h
1511 04-02-2015 11:15:00 0.4 C 3.88 g/m*3 -2.76 C 9.7 km/h
1512 04-02-2015 11:20:00 0.4 C 3.88 g/m*3 -4.39 C 17.7 km/h
1513 04-02-2015 11:25:00 0.4 C 3.88 g/m*3 -3.83 C 14.5 km/h
1514 04-02-2015 11:30:00 0.5 C 3.91 g/m*3 -3.39 C 12.9 km/h
1515 04-02-2015 11:35:00 0.6 C 3.89 g/m*3 -2.92 C 11.3 km/h
1516 04-02-2015 11:40:00 0.6 C 3.94 g/m*3 -3.27 C 12.9 km/h
1517 04-02-2015 11:45:00 0.7 C 3.97 g/m*3 -2.4 C 9.7 km/h
1518 04-02-2015 11:50:00 0.7 C 3.92 g/m*3 -2.8 C 11.3 km/h
1519 04-02-2015 11:55:00 0.7 C 3.97 g/m*3 -2.8 C 11.3 km/h
1520 04-02-2015 12:00:00 0.7 C 3.92 g/m*3 -3.46 C 14.5 km/h
1521 04-02-2015 12:05:00 0.7 C 3.92 g/m*3 -2.8 C 11.3 km/h
1522 04-02-2015 12:10:00 0.7 C 3.92 g/m*3 -3.15 C 12.9 km/h
1523 04-02-2015 12:15:00 0.8 C 3.89 g/m*3 -3.62 C 16.1 km/h
1524 04-02-2015 12:20:00 0.8 C 3.84 g/m*3 -2.28 C 9.7 km/h
1525 04-02-2015 12:25:00 0.9 C 3.92 g/m*3 -3.5 C 16.1 km/h
Sensor: Nr:Datum:Temp:Abs-Feuchte:Windchill:Wind:
Aussen-T/F 1526 04-02-2015 12:30:00 1 C 3.94 g/m*3 -4.11 C 20.9 km/h
1527 04-02-2015 12:35:00 1.1 C 3.97 g/m*3 -1.92 C 9.7 km/h
1528 04-02-2015 12:40:00 1.2 C 3.95 g/m*3 -1.8 C 9.7 km/h
1529 04-02-2015 12:45:00 1.2 C 3.95 g/m*3 -1.8 C 9.7 km/h
1530 04-02-2015 12:50:00 1.1 C 3.92 g/m*3 -1.48 C 8.1 km/h
1531 04-02-2015 12:55:00 1.1 C 3.92 g/m*3 -1.92 C 9.7 km/h
1532 04-02-2015 13:00:00 1.1 C 3.97 g/m*3 -1.92 C 9.7 km/h
1533 04-02-2015 13:05:00 1.2 C 3.95 g/m*3 -1.36 C 8.1 km/h
1534 04-02-2015 13:10:00 1.2 C 4 g/m*3 -2.19 C 11.3 km/h
1535 04-02-2015 13:15:00 1.3 C 4.03 g/m*3 -3 C 16.1 km/h
1536 04-02-2015 13:20:00 1.3 C 3.97 g/m*3 -0.68 C 6.4 km/h
1537 04-02-2015 13:25:00 1.3 C 3.97 g/m*3 1.3 C 4.8 km/h
1538 04-02-2015 13:30:00 1.4 C 4 g/m*3 -1.95 C 11.3 km/h
1539 04-02-2015 13:35:00 1.5 C 4.03 g/m*3 -0.45 C 6.4 km/h
1540 04-02-2015 13:40:00 1.6 C 4 g/m*3 1.6 C 4.8 km/h
1541 04-02-2015 13:45:00 1.6 C 4.06 g/m*3 -2.35 C 14.5 km/h
1542 04-02-2015 13:50:00 1.7 C 4.08 g/m*3 -1.21 C 9.7 km/h
1543 04-02-2015 13:55:00 1.8 C 4.11 g/m*3 -1.47 C 11.3 km/h
1544 04-02-2015 14:00:00 1.9 C 4.03 g/m*3 -0.97 C 9.7 km/h
1545 04-02-2015 14:05:00 1.9 C 4.08 g/m*3 1.9 C 4.8 km/h
1546 04-02-2015 14:10:00 1.9 C 4.03 g/m*3 1.9 C 4.8 km/h
1547 04-02-2015 14:15:00 2.1 C 4.2 g/m*3 -0.73 C 9.7 km/h
1548 04-02-2015 14:20:00 2.3 C 4.2 g/m*3 -0.87 C 11.3 km/h
1549 04-02-2015 14:25:00 2.4 C 4.17 g/m*3 -0.37 C 9.7 km/h
1550 04-02-2015 14:30:00 2.4 C 4.23 g/m*3 0.59 C 6.4 km/h
Sensor: Nr:Datum:Temp:Abs-Feuchte:Windchill:Wind:
Aussen-T/F 1551 04-02-2015 14:35:00 2.6 C 4.34 g/m*3 -0.14 C 9.7 km/h
1552 04-02-2015 14:40:00 2.7 C 4.31 g/m*3 -0.02 C 9.7 km/h
1553 04-02-2015 14:45:00 2.7 C 4.25 g/m*3 0.4 C 8.1 km/h
1554 04-02-2015 14:50:00 2.7 C 4.25 g/m*3 0.4 C 8.1 km/h
1555 04-02-2015 14:55:00 2.8 C 4.28 g/m*3 0.52 C 8.1 km/h
1556 04-02-2015 15:00:00 3 C 4.28 g/m*3 0.76 C 8.1 km/h
1557 04-02-2015 15:05:00 3.2 C 4.28 g/m*3 0.99 C 8.1 km/h
1558 04-02-2015 15:10:00 3.4 C 4.28 g/m*3 1.75 C 6.4 km/h
1559 04-02-2015 15:15:00 3.4 C 4.28 g/m*3 0.46 C 11.3 km/h
1560 04-02-2015 15:20:00 3.4 C 4.28 g/m*3 0.82 C 9.7 km/h
1561 04-02-2015 15:25:00 3.4 C 4.28 g/m*3 0.14 C 12.9 km/h
1562 04-02-2015 15:30:00 3.3 C 4.19 g/m*3 1.11 C 8.1 km/h
1563 04-02-2015 15:35:00 3.2 C 4.22 g/m*3 0.99 C 8.1 km/h
1564 04-02-2015 15:40:00 3.1 C 4.25 g/m*3 1.4 C 6.4 km/h
1565 04-02-2015 15:45:00 2.9 C 4.25 g/m*3 0.22 C 9.7 km/h
1566 04-02-2015 15:50:00 2.8 C 4.28 g/m*3 -0.26 C 11.3 km/h
1567 04-02-2015 15:55:00 2.7 C 4.25 g/m*3 -0.02 C 9.7 km/h
1568 04-02-2015 16:00:00 2.6 C 4.22 g/m*3 -0.5 C 11.3 km/h
1569 04-02-2015 16:05:00 2.5 C 4.2 g/m*3 -0.95 C 12.9 km/h
1570 04-02-2015 16:10:00 2.4 C 4.17 g/m*3 -0.37 C 9.7 km/h
1571 04-02-2015 16:15:00 2.3 C 4.2 g/m*3 -0.07 C 8.1 km/h
1572 04-02-2015 16:20:00 2.2 C 4.17 g/m*3 -0.61 C 9.7 km/h
1573 04-02-2015 16:25:00 2.2 C 4.17 g/m*3 -0.61 C 9.7 km/h
1574 04-02-2015 16:30:00 2.2 C 4.22 g/m*3 2.2 C 4.8 km/h
1575 04-02-2015 16:35:00 2.1 C 4.2 g/m*3 2.1 C 4.8 km/h
Sensor: Nr:Datum:Temp:Abs-Feuchte:Windchill:Wind:
Aussen-T/F 1576 04-02-2015 16:40:00 2 C 4.22 g/m*3 -0.85 C 9.7 km/h
1577 04-02-2015 16:45:00 1.9 C 4.19 g/m*3 0.01 C 6.4 km/h
1578 04-02-2015 16:50:00 1.8 C 4.22 g/m*3 1.8 C 4.8 km/h
1579 04-02-2015 16:55:00 1.7 C 4.19 g/m*3 1.7 C 4.8 km/h
1580 04-02-2015 17:00:00 1.6 C 4.16 g/m*3 1.6 C 0 km/h
1581 04-02-2015 17:05:00 1.3 C 4.19 g/m*3 1.3 C 1.6 km/h
1582 04-02-2015 17:10:00 1 C 4.2 g/m*3 1 C 0 km/h
1583 04-02-2015 17:15:00 0.7 C 4.22 g/m*3 0.7 C 0 km/h
1584 04-02-2015 17:20:00 0.5 C 4.21 g/m*3 0.5 C 0 km/h
1585 04-02-2015 17:25:00 0.3 C 4.16 g/m*3 0.3 C 0 km/h
1586 04-02-2015 17:30:00 0.2 C 4.18 g/m*3 0.2 C 3.2 km/h
1587 04-02-2015 17:35:00 0.1 C 4.2 g/m*3 0.1 C 1.6 km/h
1588 04-02-2015 17:40:00 0 C 4.17 g/m*3 0 C 0 km/h
1589 04-02-2015 17:45:00 -0.1 C 4.14 g/m*3 -0.1 C 3.2 km/h
1590 04-02-2015 17:50:00 -0.1 C 4.19 g/m*3 -0.1 C 1.6 km/h
1591 04-02-2015 17:55:00 -0.2 C 4.16 g/m*3 -0.2 C 4.8 km/h
1592 04-02-2015 18:00:00 -0.2 C 4.16 g/m*3 -0.2 C 4.8 km/h
1593 04-02-2015 18:05:00 -0.2 C 4.16 g/m*3 -0.2 C 4.8 km/h
1594 04-02-2015 18:10:00 -0.3 C 4.13 g/m*3 -0.3 C 4.8 km/h
1595 04-02-2015 18:15:00 -0.3 C 4.18 g/m*3 -0.3 C 4.8 km/h
1596 04-02-2015 18:20:00 -0.3 C 4.18 g/m*3 -0.3 C 4.8 km/h
1597 04-02-2015 18:25:00 -0.4 C 4.15 g/m*3 -0.4 C 4.8 km/h
1598 04-02-2015 18:30:00 -0.4 C 4.15 g/m*3 -0.4 C 4.8 km/h
1599 04-02-2015 18:35:00 -0.5 C 4.12 g/m*3 -0.5 C 4.8 km/h
1600 04-02-2015 18:40:00 -0.6 C 4.09 g/m*3 -0.6 C 3.2 km/h
Sensor: Nr:Datum:Temp:Abs-Feuchte:Windchill:Wind:
Aussen-T/F 1601 04-02-2015 18:45:00 -0.6 C 4.09 g/m*3 -0.6 C 4.8 km/h
1602 04-02-2015 18:50:00 -0.6 C 4.09 g/m*3 -0.6 C 3.2 km/h
1603 04-02-2015 18:55:00 -0.7 C 4.06 g/m*3 -0.7 C 3.2 km/h
1604 04-02-2015 19:00:00 -0.7 C 4.11 g/m*3 -0.7 C 3.2 km/h
1605 04-02-2015 19:05:00 -0.8 C 4.08 g/m*3 -0.8 C 3.2 km/h
1606 04-02-2015 19:10:00 -0.9 C 4.05 g/m*3 -0.9 C 3.2 km/h
1607 04-02-2015 19:15:00 -1 C 4.07 g/m*3 -1 C 3.2 km/h
1608 04-02-2015 19:20:00 -1.1 C 4.09 g/m*3 -1.1 C 0 km/h
1609 04-02-2015 19:25:00 -1.1 C 4.09 g/m*3 -1.1 C 3.2 km/h
1610 04-02-2015 19:30:00 -1.2 C 4.06 g/m*3 -1.2 C 1.6 km/h
1611 04-02-2015 19:35:00 -1.2 C 4.06 g/m*3 -1.2 C 1.6 km/h
1612 04-02-2015 19:40:00 -1.2 C 4.06 g/m*3 -1.2 C 1.6 km/h
1613 04-02-2015 19:45:00 -1.3 C 4.03 g/m*3 -1.3 C 0 km/h
1614 04-02-2015 19:50:00 -1.4 C 4 g/m*3 -1.4 C 0 km/h
1615 04-02-2015 19:55:00 -1.4 C 4.04 g/m*3 -1.4 C 0 km/h
1616 04-02-2015 20:00:00 -1.4 C 4.04 g/m*3 -1.4 C 0 km/h
1617 04-02-2015 20:05:00 -1.5 C 4.02 g/m*3 -1.5 C 0 km/h
1618 04-02-2015 20:10:00 -1.5 C 4.02 g/m*3 -1.5 C 0 km/h
1619 04-02-2015 20:15:00 -1.6 C 3.99 g/m*3 -1.6 C 0 km/h
1620 04-02-2015 20:20:00 -1.6 C 3.99 g/m*3 -1.6 C 0 km/h
1621 04-02-2015 20:25:00 -1.6 C 3.99 g/m*3 -1.6 C 0 km/h
1622 04-02-2015 20:30:00 -1.7 C 3.96 g/m*3 -1.7 C 0 km/h
1623 04-02-2015 20:35:00 -1.7 C 4 g/m*3 -1.7 C 0 km/h
1624 04-02-2015 20:40:00 -1.7 C 4 g/m*3 -1.7 C 0 km/h
1625 04-02-2015 20:45:00 -1.7 C 4 g/m*3 -1.7 C 0 km/h
Sensor: Nr:Datum:Temp:Abs-Feuchte:Windchill:Wind:
Aussen-T/F 1626 04-02-2015 20:50:00 -1.8 C 3.98 g/m*3 -1.8 C 0 km/h
1627 04-02-2015 20:55:00 -1.8 C 3.98 g/m*3 -1.8 C 0 km/h
1628 04-02-2015 21:00:00 -1.8 C 3.98 g/m*3 -1.8 C 0 km/h
1629 04-02-2015 21:05:00 -1.8 C 3.98 g/m*3 -1.8 C 0 km/h
1630 04-02-2015 21:10:00 -1.8 C 3.98 g/m*3 -1.8 C 0 km/h
1631 04-02-2015 21:15:00 -1.9 C 3.95 g/m*3 -1.9 C 0 km/h
1632 04-02-2015 21:20:00 -1.9 C 3.95 g/m*3 -1.9 C 0 km/h
1633 04-02-2015 21:25:00 -2.1 C 3.89 g/m*3 -2.1 C 0 km/h
1634 04-02-2015 21:30:00 -2.2 C 3.87 g/m*3 -2.2 C 0 km/h
1635 04-02-2015 21:35:00 -2.2 C 3.87 g/m*3 -2.2 C 0 km/h
1636 04-02-2015 21:40:00 -2.2 C 3.87 g/m*3 -2.2 C 0 km/h
1637 04-02-2015 21:45:00 -2.2 C 3.87 g/m*3 -2.2 C 0 km/h
1638 04-02-2015 21:50:00 -2.3 C 3.84 g/m*3 -2.3 C 0 km/h
1639 04-02-2015 21:55:00 -2.3 C 3.88 g/m*3 -2.3 C 0 km/h
1640 04-02-2015 22:00:00 -2.3 C 3.88 g/m*3 -2.3 C 0 km/h
1641 04-02-2015 22:05:00 -2.3 C 3.88 g/m*3 -2.3 C 0 km/h
1642 04-02-2015 22:10:00 -2.3 C 3.88 g/m*3 -2.3 C 1.6 km/h
1643 04-02-2015 22:15:00 -2.4 C 3.85 g/m*3 -2.4 C 0 km/h
1644 04-02-2015 22:20:00 -2.4 C 3.85 g/m*3 -2.4 C 0 km/h
1645 04-02-2015 22:25:00 -2.4 C 3.85 g/m*3 -2.4 C 0 km/h
1646 04-02-2015 22:30:00 -2.5 C 3.83 g/m*3 -2.5 C 0 km/h
1647 04-02-2015 22:35:00 -2.5 C 3.83 g/m*3 -2.5 C 0 km/h
1648 04-02-2015 22:40:00 -2.6 C 3.8 g/m*3 -2.6 C 0 km/h
1649 04-02-2015 22:45:00 -2.6 C 3.8 g/m*3 -2.6 C 0 km/h
1650 04-02-2015 22:50:00 -2.6 C 3.8 g/m*3 -2.6 C 0 km/h
Sensor: Nr:Datum:Temp:Abs-Feuchte:Windchill:Wind:
Aussen-T/F 1651 04-02-2015 22:55:00 -2.6 C 3.8 g/m*3 -2.6 C 0 km/h
1652 04-02-2015 23:00:00 -2.6 C 3.8 g/m*3 -2.6 C 0 km/h
1653 04-02-2015 23:05:00 -2.6 C 3.8 g/m*3 -2.6 C 0 km/h
1654 04-02-2015 23:10:00 -2.6 C 3.8 g/m*3 -2.6 C 0 km/h
1655 04-02-2015 23:15:00 -2.6 C 3.8 g/m*3 -2.6 C 0 km/h
1656 04-02-2015 23:20:00 -2.6 C 3.8 g/m*3 -2.6 C 0 km/h
1657 04-02-2015 23:25:00 -2.7 C 3.77 g/m*3 -2.7 C 0 km/h
1658 04-02-2015 23:30:00 -2.7 C 3.77 g/m*3 -2.7 C 3.2 km/h
1659 04-02-2015 23:35:00 -2.6 C 3.84 g/m*3 -2.6 C 3.2 km/h
1660 04-02-2015 23:40:00 -2.6 C 3.84 g/m*3 -2.6 C 0 km/h
1661 04-02-2015 23:45:00 -2.6 C 3.8 g/m*3 -2.6 C 0 km/h
1662 04-02-2015 23:50:00 -2.7 C 3.77 g/m*3 -2.7 C 3.2 km/h
1663 04-02-2015 23:55:00 -2.6 C 3.8 g/m*3 -2.6 C 1.6 km/h
1664 05-02-2015 00:00:00 -2.6 C 3.84 g/m*3 -2.6 C 1.6 km/h
1665 05-02-2015 00:05:00 -2.6 C 3.8 g/m*3 -2.6 C 1.6 km/h
1666 05-02-2015 00:10:00 -2.7 C 3.77 g/m*3 -2.7 C 1.6 km/h
1667 05-02-2015 00:15:00 -2.7 C 3.77 g/m*3 -2.7 C 1.6 km/h
1668 05-02-2015 00:20:00 -2.8 C 3.75 g/m*3 -2.8 C 1.6 km/h
1669 05-02-2015 00:25:00 -2.8 C 3.75 g/m*3 -2.8 C 1.6 km/h
1670 05-02-2015 00:30:00 -2.9 C 3.72 g/m*3 -2.9 C 1.6 km/h
1671 05-02-2015 00:35:00 -3 C 3.69 g/m*3 -3 C 3.2 km/h
1672 05-02-2015 00:40:00 -3 C 3.69 g/m*3 -3 C 1.6 km/h
1673 05-02-2015 00:45:00 -3 C 3.69 g/m*3 -3 C 0 km/h
1674 05-02-2015 00:50:00 -3.1 C 3.67 g/m*3 -3.1 C 0 km/h
1675 05-02-2015 00:55:00 -3.2 C 3.64 g/m*3 -3.2 C 1.6 km/h
Sensor: Nr:Datum:Temp:Abs-Feuchte:Windchill:Wind:
Aussen-T/F 1676 05-02-2015 01:00:00 -3.2 C 3.68 g/m*3 -3.2 C 1.6 km/h
1677 05-02-2015 01:05:00 -3.2 C 3.68 g/m*3 -3.2 C 0 km/h
1678 05-02-2015 01:10:00 -3.2 C 3.64 g/m*3 -3.2 C 0 km/h
1679 05-02-2015 01:15:00 -3.3 C 3.65 g/m*3 -3.3 C 0 km/h
1680 05-02-2015 01:20:00 -3.3 C 3.61 g/m*3 -3.3 C 0 km/h
1681 05-02-2015 01:25:00 -3.3 C 3.65 g/m*3 -3.3 C 1.6 km/h
1682 05-02-2015 01:30:00 -3.4 C 3.63 g/m*3 -3.4 C 0 km/h
1683 05-02-2015 01:35:00 -3.4 C 3.63 g/m*3 -3.4 C 0 km/h
1684 05-02-2015 01:40:00 -3.5 C 3.6 g/m*3 -3.5 C 0 km/h
1685 05-02-2015 01:45:00 -3.6 C 3.54 g/m*3 -3.6 C 0 km/h
1686 05-02-2015 01:50:00 -3.6 C 3.58 g/m*3 -3.6 C 0 km/h
1687 05-02-2015 01:55:00 -3.7 C 3.55 g/m*3 -3.7 C 0 km/h
1688 05-02-2015 02:00:00 -3.7 C 3.55 g/m*3 -3.7 C 0 km/h
1689 05-02-2015 02:05:00 -3.7 C 3.55 g/m*3 -3.7 C 0 km/h
1690 05-02-2015 02:10:00 -3.8 C 3.53 g/m*3 -3.8 C 0 km/h
1691 05-02-2015 02:15:00 -3.8 C 3.53 g/m*3 -3.8 C 0 km/h
1692 05-02-2015 02:20:00 -3.7 C 3.55 g/m*3 -3.7 C 0 km/h
1693 05-02-2015 02:25:00 -3.8 C 3.53 g/m*3 -3.8 C 1.6 km/h
1694 05-02-2015 02:30:00 -3.8 C 3.53 g/m*3 -3.8 C 0 km/h
1695 05-02-2015 02:35:00 -3.8 C 3.53 g/m*3 -3.8 C 1.6 km/h
1696 05-02-2015 02:40:00 -3.7 C 3.55 g/m*3 -3.7 C 1.6 km/h
1697 05-02-2015 02:45:00 -3.7 C 3.55 g/m*3 -3.7 C 3.2 km/h
1698 05-02-2015 02:50:00 -3.5 C 3.6 g/m*3 -3.5 C 4.8 km/h
1699 05-02-2015 02:55:00 -3.5 C 3.6 g/m*3 -3.5 C 4.8 km/h
1700 05-02-2015 03:00:00 -3.6 C 3.58 g/m*3 -3.6 C 3.2 km/h
Sensor: Nr:Datum:Temp:Abs-Feuchte:Windchill:Wind:
Aussen-T/F 1701 05-02-2015 03:05:00 -3.6 C 3.54 g/m*3 -3.6 C 3.2 km/h
1702 05-02-2015 03:10:00 -3.6 C 3.54 g/m*3 -3.6 C 3.2 km/h
1703 05-02-2015 03:15:00 -3.7 C 3.51 g/m*3 -3.7 C 3.2 km/h
1704 05-02-2015 03:20:00 -3.7 C 3.51 g/m*3 -3.7 C 3.2 km/h
1705 05-02-2015 03:25:00 -3.8 C 3.49 g/m*3 -3.8 C 3.2 km/h
1706 05-02-2015 03:30:00 -3.8 C 3.49 g/m*3 -3.8 C 4.8 km/h
1707 05-02-2015 03:35:00 -3.8 C 3.49 g/m*3 -3.8 C 4.8 km/h
1708 05-02-2015 03:40:00 -3.8 C 3.49 g/m*3 -3.8 C 3.2 km/h
1709 05-02-2015 03:45:00 -3.9 C 3.43 g/m*3 -3.9 C 0 km/h
1710 05-02-2015 03:50:00 -3.9 C 3.43 g/m*3 -3.9 C 1.6 km/h
1711 05-02-2015 03:55:00 -4 C 3.4 g/m*3 -4 C 0 km/h
1712 05-02-2015 04:00:00 -4.1 C 3.38 g/m*3 -4.1 C 1.6 km/h
1713 05-02-2015 04:05:00 -4.2 C 3.35 g/m*3 -4.2 C 0 km/h
1714 05-02-2015 04:10:00 -4.2 C 3.35 g/m*3 -4.2 C 3.2 km/h
1715 05-02-2015 04:15:00 -4.2 C 3.35 g/m*3 -4.2 C 1.6 km/h
1716 05-02-2015 04:20:00 -4.2 C 3.39 g/m*3 -4.2 C 4.8 km/h
1717 05-02-2015 04:25:00 -4.2 C 3.39 g/m*3 -4.2 C 4.8 km/h
1718 05-02-2015 04:30:00 -4.2 C 3.39 g/m*3 -4.2 C 3.2 km/h
1719 05-02-2015 04:35:00 -4.2 C 3.39 g/m*3 -4.2 C 0 km/h
1720 05-02-2015 04:40:00 -4.2 C 3.39 g/m*3 -4.2 C 3.2 km/h
1721 05-02-2015 04:45:00 -4.2 C 3.39 g/m*3 -4.2 C 3.2 km/h
1722 05-02-2015 04:50:00 -4.2 C 3.39 g/m*3 -4.2 C 1.6 km/h
1723 05-02-2015 04:55:00 -4.2 C 3.39 g/m*3 -4.2 C 3.2 km/h
1724 05-02-2015 05:00:00 -4.2 C 3.39 g/m*3 -4.2 C 4.8 km/h
1725 05-02-2015 05:05:00 -4.3 C 3.33 g/m*3 -4.3 C 3.2 km/h
Sensor: Nr:Datum:Temp:Abs-Feuchte:Windchill:Wind:
Aussen-T/F 1726 05-02-2015 05:10:00 -4.2 C 3.39 g/m*3 -4.2 C 3.2 km/h
1727 05-02-2015 05:15:00 -4.2 C 3.39 g/m*3 -4.2 C 1.6 km/h
1728 05-02-2015 05:20:00 -4.3 C 3.33 g/m*3 -4.3 C 1.6 km/h
1729 05-02-2015 05:25:00 -4.3 C 3.33 g/m*3 -4.3 C 0 km/h
1730 05-02-2015 05:30:00 -4.4 C 3.31 g/m*3 -4.4 C 0 km/h
1731 05-02-2015 05:35:00 -4.4 C 3.31 g/m*3 -4.4 C 0 km/h
1732 05-02-2015 05:40:00 -4.4 C 3.31 g/m*3 -4.4 C 0 km/h
1733 05-02-2015 05:45:00 -4.4 C 3.31 g/m*3 -4.4 C 0 km/h
1734 05-02-2015 05:50:00 -4.5 C 3.28 g/m*3 -4.5 C 0 km/h
1735 05-02-2015 05:55:00 -4.6 C 3.26 g/m*3 -4.6 C 0 km/h
1736 05-02-2015 06:00:00 -4.6 C 3.26 g/m*3 -4.6 C 0 km/h
1737 05-02-2015 06:05:00 -4.6 C 3.26 g/m*3 -4.6 C 0 km/h
1738 05-02-2015 06:10:00 -4.7 C 3.24 g/m*3 -4.7 C 0 km/h
1739 05-02-2015 06:15:00 -4.7 C 3.24 g/m*3 -4.7 C 0 km/h
1740 05-02-2015 06:20:00 -4.7 C 3.24 g/m*3 -4.7 C 0 km/h
1741 05-02-2015 06:25:00 -4.7 C 3.27 g/m*3 -4.7 C 0 km/h
1742 05-02-2015 06:30:00 -4.6 C 3.29 g/m*3 -4.6 C 1.6 km/h
1743 05-02-2015 06:35:00 -4.6 C 3.29 g/m*3 -4.6 C 0 km/h
1744 05-02-2015 06:40:00 -4.5 C 3.32 g/m*3 -4.5 C 0 km/h
1745 05-02-2015 06:45:00 -4.4 C 3.34 g/m*3 -4.4 C 0 km/h
1746 05-02-2015 06:50:00 -4.4 C 3.34 g/m*3 -4.4 C 0 km/h
1747 05-02-2015 06:55:00 -4.3 C 3.37 g/m*3 -4.3 C 0 km/h
1748 05-02-2015 07:00:00 -4.3 C 3.37 g/m*3 -4.3 C 0 km/h
1749 05-02-2015 07:05:00 -4.3 C 3.37 g/m*3 -4.3 C 0 km/h
1750 05-02-2015 07:10:00 -4.2 C 3.43 g/m*3 -4.2 C 0 km/h
Sensor: Nr:Datum:Temp:Abs-Feuchte:Windchill:Wind:
Aussen-T/F 1751 05-02-2015 07:15:00 -4.1 C 3.45 g/m*3 -4.1 C 0 km/h
1752 05-02-2015 07:20:00 -3.9 C 3.5 g/m*3 -3.9 C 0 km/h
1753 05-02-2015 07:25:00 -3.8 C 3.53 g/m*3 -3.8 C 0 km/h
1754 05-02-2015 07:30:00 -3.8 C 3.49 g/m*3 -3.8 C 0 km/h
1755 05-02-2015 07:35:00 -3.8 C 3.49 g/m*3 -3.8 C 0 km/h
1756 05-02-2015 07:40:00 -3.7 C 3.51 g/m*3 -3.7 C 3.2 km/h
1757 05-02-2015 07:45:00 -3.7 C 3.51 g/m*3 -3.7 C 1.6 km/h
1758 05-02-2015 07:50:00 -3.6 C 3.54 g/m*3 -3.6 C 1.6 km/h
1759 05-02-2015 07:55:00 -3.6 C 3.54 g/m*3 -3.6 C 1.6 km/h
1760 05-02-2015 17:00:00 1.1 C 3.66 g/m*3 -3.25 C 16.1 km/h
1761 05-02-2015 17:05:00 1 C 3.63 g/m*3 -3.09 C 14.5 km/h
1762 05-02-2015 17:10:00 0.9 C 3.61 g/m*3 -2.9 C 12.9 km/h
1763 05-02-2015 17:15:00 0.9 C 3.61 g/m*3 -3.5 C 16.1 km/h
1764 05-02-2015 17:20:00 0.8 C 3.58 g/m*3 -3.62 C 16.1 km/h
1765 05-02-2015 17:25:00 0.8 C 3.58 g/m*3 -4.77 C 24.1 km/h
1766 05-02-2015 17:30:00 0.8 C 3.63 g/m*3 -3.02 C 12.9 km/h
1767 05-02-2015 17:35:00 0.7 C 3.66 g/m*3 -4.01 C 17.7 km/h
1768 05-02-2015 17:40:00 0.7 C 3.66 g/m*3 -2.4 C 9.7 km/h
1769 05-02-2015 17:45:00 0.7 C 3.66 g/m*3 -3.15 C 12.9 km/h
1770 05-02-2015 17:50:00 0.7 C 3.66 g/m*3 -3.15 C 12.9 km/h
1771 05-02-2015 17:55:00 0.7 C 3.66 g/m*3 -1.95 C 8.1 km/h
1772 05-02-2015 18:00:00 0.7 C 3.66 g/m*3 -2.4 C 9.7 km/h
1773 05-02-2015 18:05:00 0.7 C 3.71 g/m*3 -3.46 C 14.5 km/h
1774 05-02-2015 18:10:00 0.7 C 3.71 g/m*3 -3.75 C 16.1 km/h
1775 05-02-2015 18:15:00 0.7 C 3.66 g/m*3 -3.75 C 16.1 km/h
Sensor: Nr:Datum:Temp:Abs-Feuchte:Windchill:Wind:
Aussen-T/F 1776 05-02-2015 18:20:00 0.7 C 3.66 g/m*3 -3.46 C 14.5 km/h
1777 05-02-2015 18:25:00 0.7 C 3.66 g/m*3 -4.01 C 17.7 km/h
1778 05-02-2015 18:30:00 0.7 C 3.71 g/m*3 -3.46 C 14.5 km/h
1779 05-02-2015 18:35:00 0.6 C 3.64 g/m*3 -3.58 C 14.5 km/h
1780 05-02-2015 18:40:00 0.6 C 3.64 g/m*3 -3.27 C 12.9 km/h
1781 05-02-2015 18:45:00 0.6 C 3.64 g/m*3 -3.27 C 12.9 km/h
1782 05-02-2015 18:50:00 0.6 C 3.64 g/m*3 -3.58 C 14.5 km/h
1783 05-02-2015 18:55:00 0.6 C 3.69 g/m*3 -2.06 C 8.1 km/h
1784 05-02-2015 19:00:00 0.5 C 3.66 g/m*3 -3.04 C 11.3 km/h
1785 05-02-2015 19:05:00 0.5 C 3.71 g/m*3 -3.04 C 11.3 km/h
1786 05-02-2015 19:10:00 0.4 C 3.69 g/m*3 -3.16 C 11.3 km/h
1787 05-02-2015 19:15:00 0.4 C 3.74 g/m*3 -2.76 C 9.7 km/h
1788 05-02-2015 19:20:00 0.4 C 3.74 g/m*3 -3.16 C 11.3 km/h
1789 05-02-2015 19:25:00 0.4 C 3.74 g/m*3 -2.3 C 8.1 km/h
1790 05-02-2015 19:30:00 0.4 C 3.69 g/m*3 -3.16 C 11.3 km/h
1791 05-02-2015 19:35:00 0.5 C 3.66 g/m*3 -3.71 C 14.5 km/h
1792 05-02-2015 19:40:00 0.6 C 3.69 g/m*3 -3.87 C 16.1 km/h
1793 05-02-2015 19:45:00 0.6 C 3.69 g/m*3 -4.14 C 17.7 km/h
1794 05-02-2015 19:50:00 0.6 C 3.69 g/m*3 -2.52 C 9.7 km/h
1795 05-02-2015 19:55:00 0.6 C 3.69 g/m*3 -2.92 C 11.3 km/h
1796 05-02-2015 20:00:00 0.6 C 3.69 g/m*3 -2.06 C 8.1 km/h
1797 05-02-2015 20:05:00 0.6 C 3.64 g/m*3 -3.27 C 12.9 km/h
1798 05-02-2015 20:10:00 0.7 C 3.66 g/m*3 -2.8 C 11.3 km/h
1799 05-02-2015 20:15:00 0.7 C 3.61 g/m*3 -2.4 C 9.7 km/h
1800 05-02-2015 20:20:00 0.7 C 3.56 g/m*3 -3.15 C 12.9 km/h
Sensor: Nr:Datum:Temp:Abs-Feuchte:Windchill:Wind:
Aussen-T/F 1801 05-02-2015 20:25:00 0.7 C 3.56 g/m*3 -3.46 C 14.5 km/h
1802 05-02-2015 20:30:00 0.7 C 3.56 g/m*3 -3.75 C 16.1 km/h
1803 05-02-2015 20:35:00 0.7 C 3.51 g/m*3 -3.75 C 16.1 km/h
1804 05-02-2015 20:40:00 0.6 C 3.48 g/m*3 -4.61 C 20.9 km/h
1805 05-02-2015 20:45:00 0.5 C 3.51 g/m*3 -2.64 C 9.7 km/h
1806 05-02-2015 20:50:00 0.5 C 3.51 g/m*3 -3.39 C 12.9 km/h
1807 05-02-2015 20:55:00 0.5 C 3.51 g/m*3 -4.51 C 19.3 km/h
1808 05-02-2015 21:00:00 0.4 C 3.49 g/m*3 -3.51 C 12.9 km/h
1809 05-02-2015 21:05:00 0.5 C 3.51 g/m*3 -3.71 C 14.5 km/h
1810 05-02-2015 21:10:00 0.4 C 3.49 g/m*3 -4.12 C 16.1 km/h
1811 05-02-2015 21:15:00 0.4 C 3.49 g/m*3 -3.83 C 14.5 km/h
1812 05-02-2015 21:20:00 0.3 C 3.51 g/m*3 -3.28 C 11.3 km/h
1813 05-02-2015 21:25:00 0.3 C 3.51 g/m*3 -2.42 C 8.1 km/h
1814 05-02-2015 21:30:00 0.3 C 3.51 g/m*3 -3.63 C 12.9 km/h
1815 05-02-2015 21:35:00 0.3 C 3.51 g/m*3 -3.95 C 14.5 km/h
1816 05-02-2015 21:40:00 0.3 C 3.46 g/m*3 -3.63 C 12.9 km/h
1817 05-02-2015 21:45:00 0.3 C 3.46 g/m*3 -3.63 C 12.9 km/h
1818 05-02-2015 21:50:00 0.2 C 3.49 g/m*3 -4.89 C 19.3 km/h
1819 05-02-2015 21:55:00 0.2 C 3.49 g/m*3 -3.4 C 11.3 km/h
1820 05-02-2015 22:00:00 0.2 C 3.49 g/m*3 -2.53 C 8.1 km/h
1821 05-02-2015 22:05:00 0.1 C 3.46 g/m*3 -3.52 C 11.3 km/h
1822 05-02-2015 22:10:00 0.1 C 3.46 g/m*3 -3.52 C 11.3 km/h
1823 05-02-2015 22:15:00 0.1 C 3.46 g/m*3 -5.25 C 20.9 km/h
1824 05-02-2015 22:20:00 0.1 C 3.46 g/m*3 -3.12 C 9.7 km/h
1825 05-02-2015 22:25:00 0 C 3.44 g/m*3 -2.77 C 8.1 km/h
Sensor: Nr:Datum:Temp:Abs-Feuchte:Windchill:Wind:
Aussen-T/F 1826 05-02-2015 22:30:00 0 C 3.49 g/m*3 -3.64 C 11.3 km/h
1827 05-02-2015 22:35:00 -0.1 C 3.46 g/m*3 -3.76 C 11.3 km/h
1828 05-02-2015 22:40:00 -0.1 C 3.46 g/m*3 -4.12 C 12.9 km/h
1829 05-02-2015 22:45:00 -0.1 C 3.46 g/m*3 -4.12 C 12.9 km/h
1830 05-02-2015 22:50:00 -0.1 C 3.51 g/m*3 -3.35 C 9.7 km/h
1831 05-02-2015 22:55:00 -0.1 C 3.51 g/m*3 -0.1 C 4.8 km/h
1832 05-02-2015 23:00:00 -0.2 C 3.49 g/m*3 -0.2 C 4.8 km/h
1833 05-02-2015 23:05:00 -0.2 C 3.49 g/m*3 -4.86 C 16.1 km/h
1834 05-02-2015 23:10:00 -0.2 C 3.54 g/m*3 -3 C 8.1 km/h
1835 05-02-2015 23:15:00 -0.2 C 3.54 g/m*3 -0.2 C 3.2 km/h
1836 05-02-2015 23:20:00 -0.2 C 3.54 g/m*3 -0.2 C 3.2 km/h
1837 05-02-2015 23:25:00 -0.2 C 3.54 g/m*3 -3.47 C 9.7 km/h
1838 05-02-2015 23:30:00 -0.2 C 3.54 g/m*3 -4.57 C 14.5 km/h
1839 05-02-2015 23:35:00 -0.2 C 3.54 g/m*3 -3.47 C 9.7 km/h
1840 05-02-2015 23:40:00 -0.2 C 3.54 g/m*3 -3.88 C 11.3 km/h
1841 05-02-2015 23:45:00 -0.2 C 3.54 g/m*3 -4.24 C 12.9 km/h
1842 05-02-2015 23:50:00 -0.2 C 3.54 g/m*3 -3.47 C 9.7 km/h
1843 05-02-2015 23:55:00 -0.2 C 3.54 g/m*3 -3 C 8.1 km/h
1844 06-02-2015 00:00:00 -0.2 C 3.54 g/m*3 -2.41 C 6.4 km/h
1845 06-02-2015 00:05:00 -0.2 C 3.54 g/m*3 -3.47 C 9.7 km/h
1846 06-02-2015 00:10:00 -0.1 C 3.56 g/m*3 -2.89 C 8.1 km/h
1847 06-02-2015 00:15:00 -0.1 C 3.56 g/m*3 -2.89 C 8.1 km/h
1848 06-02-2015 00:20:00 -0.1 C 3.56 g/m*3 -4.12 C 12.9 km/h
1849 06-02-2015 00:25:00 -0.1 C 3.56 g/m*3 -4.12 C 12.9 km/h
1850 06-02-2015 00:30:00 0 C 3.59 g/m*3 -3.23 C 9.7 km/h
Sensor: Nr:Datum:Temp:Abs-Feuchte:Windchill:Wind:
Aussen-T/F 1851 06-02-2015 00:35:00 0 C 3.59 g/m*3 -4 C 12.9 km/h
1852 06-02-2015 00:40:00 -0.1 C 3.56 g/m*3 -2.3 C 6.4 km/h
1853 06-02-2015 00:45:00 -0.1 C 3.56 g/m*3 -2.89 C 8.1 km/h
1854 06-02-2015 00:50:00 0 C 3.59 g/m*3 -3.23 C 9.7 km/h
1855 06-02-2015 00:55:00 0 C 3.59 g/m*3 -3.23 C 9.7 km/h
1856 06-02-2015 01:00:00 0 C 3.59 g/m*3 -5.8 C 24.1 km/h
1857 06-02-2015 01:05:00 0 C 3.59 g/m*3 -5.37 C 20.9 km/h
1858 06-02-2015 01:10:00 0 C 3.59 g/m*3 -3.64 C 11.3 km/h
1859 06-02-2015 01:15:00 0 C 3.59 g/m*3 -4.62 C 16.1 km/h
1860 06-02-2015 01:20:00 -0.1 C 3.56 g/m*3 -4.12 C 12.9 km/h
1861 06-02-2015 01:25:00 -0.1 C 3.56 g/m*3 -4.44 C 14.5 km/h
1862 06-02-2015 01:30:00 -0.1 C 3.56 g/m*3 -5.26 C 19.3 km/h
1863 06-02-2015 01:35:00 -0.1 C 3.56 g/m*3 -2.89 C 8.1 km/h
1864 06-02-2015 01:40:00 -0.1 C 3.56 g/m*3 -5.26 C 19.3 km/h
1865 06-02-2015 01:45:00 -0.1 C 3.56 g/m*3 -2.89 C 8.1 km/h
1866 06-02-2015 01:50:00 -0.1 C 3.56 g/m*3 -2.89 C 8.1 km/h
1867 06-02-2015 01:55:00 -0.1 C 3.61 g/m*3 -2.3 C 6.4 km/h
1868 06-02-2015 02:00:00 -0.1 C 3.61 g/m*3 -4.44 C 14.5 km/h
1869 06-02-2015 02:05:00 -0.1 C 3.61 g/m*3 -3.76 C 11.3 km/h
1870 06-02-2015 02:10:00 -0.1 C 3.61 g/m*3 -2.89 C 8.1 km/h
1871 06-02-2015 02:15:00 -0.1 C 3.61 g/m*3 -4.12 C 12.9 km/h
1872 06-02-2015 02:20:00 -0.1 C 3.56 g/m*3 -4.12 C 12.9 km/h
1873 06-02-2015 02:25:00 -0.1 C 3.56 g/m*3 -2.3 C 6.4 km/h
1874 06-02-2015 02:30:00 -0.1 C 3.56 g/m*3 -3.76 C 11.3 km/h
1875 06-02-2015 02:35:00 -0.1 C 3.56 g/m*3 -3.35 C 9.7 km/h
Sensor: Nr:Datum:Temp:Abs-Feuchte:Windchill:Wind:
Aussen-T/F 1876 06-02-2015 02:40:00 -0.1 C 3.61 g/m*3 -4.12 C 12.9 km/h
1877 06-02-2015 02:45:00 -0.1 C 3.61 g/m*3 -3.35 C 9.7 km/h
1878 06-02-2015 02:50:00 -0.1 C 3.61 g/m*3 -3.35 C 9.7 km/h
1879 06-02-2015 02:55:00 -0.2 C 3.58 g/m*3 -3 C 8.1 km/h
1880 06-02-2015 03:00:00 -0.2 C 3.54 g/m*3 -4.86 C 16.1 km/h
1881 06-02-2015 03:05:00 -0.3 C 3.51 g/m*3 -0.3 C 4.8 km/h
1882 06-02-2015 03:10:00 -0.4 C 3.49 g/m*3 -0.4 C 4.8 km/h
1883 06-02-2015 03:15:00 -0.4 C 3.44 g/m*3 -6.31 C 24.1 km/h
1884 06-02-2015 03:20:00 -0.5 C 3.46 g/m*3 -0.5 C 3.2 km/h
1885 06-02-2015 03:25:00 -0.5 C 3.46 g/m*3 -5.24 C 16.1 km/h
1886 06-02-2015 03:30:00 -0.6 C 3.39 g/m*3 -4.73 C 12.9 km/h
1887 06-02-2015 03:35:00 -0.7 C 3.42 g/m*3 -0.7 C 4.8 km/h
1888 06-02-2015 03:40:00 -0.7 C 3.42 g/m*3 -0.7 C 4.8 km/h
1889 06-02-2015 03:45:00 -0.8 C 3.44 g/m*3 -3.71 C 8.1 km/h
1890 06-02-2015 03:50:00 -0.8 C 3.44 g/m*3 -4.97 C 12.9 km/h
1891 06-02-2015 03:55:00 -0.7 C 3.46 g/m*3 -4.07 C 9.7 km/h
1892 06-02-2015 04:00:00 -0.7 C 3.46 g/m*3 -0.7 C 4.8 km/h
1893 06-02-2015 04:05:00 -0.8 C 3.44 g/m*3 -3.11 C 6.4 km/h
1894 06-02-2015 04:10:00 -0.7 C 3.46 g/m*3 -0.7 C 1.6 km/h
1895 06-02-2015 04:15:00 -0.7 C 3.46 g/m*3 -0.7 C 3.2 km/h
1896 06-02-2015 04:20:00 -0.7 C 3.42 g/m*3 -4.48 C 11.3 km/h
1897 06-02-2015 04:25:00 -0.6 C 3.44 g/m*3 -5.06 C 14.5 km/h
1898 06-02-2015 04:30:00 -0.5 C 3.46 g/m*3 -4.94 C 14.5 km/h
1899 06-02-2015 04:35:00 -0.4 C 3.49 g/m*3 -3.71 C 9.7 km/h
1900 06-02-2015 04:40:00 -0.4 C 3.49 g/m*3 -3.71 C 9.7 km/h
Sensor: Nr:Datum:Temp:Abs-Feuchte:Windchill:Wind:
Aussen-T/F 1901 06-02-2015 04:45:00 -0.4 C 3.49 g/m*3 -2.64 C 6.4 km/h
1902 06-02-2015 04:50:00 -0.4 C 3.49 g/m*3 -4.49 C 12.9 km/h
1903 06-02-2015 04:55:00 -0.4 C 3.49 g/m*3 -0.4 C 4.8 km/h
1904 06-02-2015 05:00:00 -0.4 C 3.49 g/m*3 -4.49 C 12.9 km/h
1905 06-02-2015 05:05:00 -0.4 C 3.49 g/m*3 -3.24 C 8.1 km/h
1906 06-02-2015 05:10:00 -0.3 C 3.51 g/m*3 -4.36 C 12.9 km/h
1907 06-02-2015 05:15:00 -0.3 C 3.51 g/m*3 -3.59 C 9.7 km/h
1908 06-02-2015 05:20:00 -0.4 C 3.49 g/m*3 -4.12 C 11.3 km/h
1909 06-02-2015 05:25:00 -0.4 C 3.49 g/m*3 -2.64 C 6.4 km/h
1910 06-02-2015 05:30:00 -0.4 C 3.49 g/m*3 -0.4 C 3.2 km/h
1911 06-02-2015 05:35:00 -0.4 C 3.49 g/m*3 -3.71 C 9.7 km/h
1912 06-02-2015 05:40:00 -0.4 C 3.49 g/m*3 -2.64 C 6.4 km/h
1913 06-02-2015 05:45:00 -0.5 C 3.46 g/m*3 -5.51 C 17.7 km/h
1914 06-02-2015 05:50:00 -0.5 C 3.51 g/m*3 -0.5 C 4.8 km/h
1915 06-02-2015 05:55:00 -0.5 C 3.51 g/m*3 -4.61 C 12.9 km/h
1916 06-02-2015 06:00:00 -0.5 C 3.46 g/m*3 -3.83 C 9.7 km/h
1917 06-02-2015 06:05:00 -0.5 C 3.46 g/m*3 -4.24 C 11.3 km/h
1918 06-02-2015 06:10:00 -0.5 C 3.46 g/m*3 -3.36 C 8.1 km/h
1919 06-02-2015 06:15:00 -0.6 C 3.44 g/m*3 -3.95 C 9.7 km/h
1920 06-02-2015 06:20:00 -0.6 C 3.44 g/m*3 -3.95 C 9.7 km/h
1921 06-02-2015 06:25:00 -0.7 C 3.42 g/m*3 -5.76 C 17.7 km/h
1922 06-02-2015 06:30:00 -0.7 C 3.46 g/m*3 -3.59 C 8.1 km/h
1923 06-02-2015 06:35:00 -0.7 C 3.46 g/m*3 -0.7 C 3.2 km/h
1924 06-02-2015 06:40:00 -0.7 C 3.46 g/m*3 -3.59 C 8.1 km/h
1925 06-02-2015 06:45:00 -0.7 C 3.46 g/m*3 -3.59 C 8.1 km/h
Sensor: Nr:Datum:Temp:Abs-Feuchte:Windchill:Wind:
Aussen-T/F 1926 06-02-2015 06:50:00 -0.7 C 3.46 g/m*3 -4.85 C 12.9 km/h
1927 06-02-2015 06:55:00 -0.7 C 3.46 g/m*3 -2.99 C 6.4 km/h
1928 06-02-2015 07:00:00 -0.7 C 3.46 g/m*3 -0.7 C 4.8 km/h
1929 06-02-2015 07:05:00 -0.7 C 3.46 g/m*3 -4.48 C 11.3 km/h
1930 06-02-2015 07:10:00 -0.7 C 3.42 g/m*3 -3.59 C 8.1 km/h
1931 06-02-2015 07:15:00 -0.7 C 3.46 g/m*3 -4.48 C 11.3 km/h
1932 06-02-2015 07:20:00 -0.6 C 3.44 g/m*3 -4.73 C 12.9 km/h
1933 06-02-2015 07:25:00 -0.6 C 3.44 g/m*3 -2.88 C 6.4 km/h
1934 06-02-2015 07:30:00 -0.6 C 3.44 g/m*3 -3.95 C 9.7 km/h
1935 06-02-2015 07:35:00 -0.6 C 3.44 g/m*3 -3.95 C 9.7 km/h
1936 06-02-2015 07:40:00 -0.6 C 3.49 g/m*3 -3.48 C 8.1 km/h
1937 06-02-2015 07:45:00 -0.7 C 3.46 g/m*3 -4.48 C 11.3 km/h
1938 06-02-2015 07:50:00 -0.6 C 3.49 g/m*3 -3.95 C 9.7 km/h
1939 06-02-2015 07:55:00 -0.6 C 3.49 g/m*3 -4.36 C 11.3 km/h
1940 06-02-2015 08:00:00 -0.5 C 3.51 g/m*3 -3.83 C 9.7 km/h
1941 06-02-2015 08:05:00 -0.4 C 3.49 g/m*3 -5.11 C 16.1 km/h
1942 06-02-2015 08:10:00 -0.3 C 3.51 g/m*3 -3.12 C 8.1 km/h
1943 06-02-2015 08:15:00 -0.3 C 3.51 g/m*3 -3.59 C 9.7 km/h
1944 06-02-2015 08:20:00 -0.3 C 3.51 g/m*3 -4 C 11.3 km/h
1945 06-02-2015 08:25:00 -0.3 C 3.51 g/m*3 -4.69 C 14.5 km/h
1946 06-02-2015 08:30:00 -0.2 C 3.49 g/m*3 -5.14 C 17.7 km/h
1947 06-02-2015 08:35:00 -0.2 C 3.49 g/m*3 -4.24 C 12.9 km/h
1948 06-02-2015 08:40:00 -0.2 C 3.49 g/m*3 -5.39 C 19.3 km/h
1949 06-02-2015 08:45:00 -0.2 C 3.49 g/m*3 -3 C 8.1 km/h
1950 06-02-2015 08:50:00 -0.1 C 3.51 g/m*3 -2.89 C 8.1 km/h
Sensor: Nr:Datum:Temp:Abs-Feuchte:Windchill:Wind:
Aussen-T/F 1951 06-02-2015 08:55:00 -0.1 C 3.51 g/m*3 -4.12 C 12.9 km/h
1952 06-02-2015 09:00:00 -0.1 C 3.51 g/m*3 -3.76 C 11.3 km/h
1953 06-02-2015 09:05:00 -0.1 C 3.51 g/m*3 -4.12 C 12.9 km/h
1954 06-02-2015 09:10:00 0 C 3.54 g/m*3 -3.64 C 11.3 km/h
1955 06-02-2015 09:15:00 0 C 3.54 g/m*3 -2.18 C 6.4 km/h
1956 06-02-2015 09:20:00 0.1 C 3.56 g/m*3 -3.52 C 11.3 km/h
1957 06-02-2015 09:25:00 0.1 C 3.56 g/m*3 -3.52 C 11.3 km/h
1958 06-02-2015 09:30:00 0.1 C 3.51 g/m*3 -3.88 C 12.9 km/h
1959 06-02-2015 09:35:00 0.1 C 3.51 g/m*3 -4.2 C 14.5 km/h
1960 06-02-2015 09:40:00 0.1 C 3.51 g/m*3 -4.76 C 17.7 km/h
1961 06-02-2015 09:45:00 0.1 C 3.51 g/m*3 -4.49 C 16.1 km/h
1962 06-02-2015 09:50:00 0.2 C 3.54 g/m*3 -3 C 9.7 km/h
1963 06-02-2015 09:55:00 0.2 C 3.54 g/m*3 -3.75 C 12.9 km/h
1964 06-02-2015 10:00:00 0.2 C 3.54 g/m*3 -3.75 C 12.9 km/h
1965 06-02-2015 10:05:00 0.2 C 3.54 g/m*3 -4.64 C 17.7 km/h
1966 06-02-2015 10:10:00 0.2 C 3.49 g/m*3 -4.37 C 16.1 km/h
1967 06-02-2015 10:15:00 0.2 C 3.49 g/m*3 -5.12 C 20.9 km/h
1968 06-02-2015 10:20:00 0.3 C 3.51 g/m*3 -4.24 C 16.1 km/h
1969 06-02-2015 10:25:00 0.3 C 3.51 g/m*3 -4.24 C 16.1 km/h
1970 06-02-2015 10:30:00 0.4 C 3.54 g/m*3 -5.67 C 27.4 km/h
1971 06-02-2015 10:35:00 0.4 C 3.49 g/m*3 -3.16 C 11.3 km/h
1972 06-02-2015 10:40:00 0.3 C 3.51 g/m*3 -3.28 C 11.3 km/h
1973 06-02-2015 10:45:00 0.3 C 3.51 g/m*3 -2.88 C 9.7 km/h
1974 06-02-2015 10:50:00 0.3 C 3.51 g/m*3 -3.28 C 11.3 km/h
1975 06-02-2015 10:55:00 0.3 C 3.51 g/m*3 -2.42 C 8.1 km/h
Sensor: Nr:Datum:Temp:Abs-Feuchte:Windchill:Wind:
Aussen-T/F 1976 06-02-2015 11:00:00 0.3 C 3.51 g/m*3 -4.24 C 16.1 km/h
1977 06-02-2015 11:05:00 0.4 C 3.54 g/m*3 -3.83 C 14.5 km/h
1978 06-02-2015 11:10:00 0.4 C 3.54 g/m*3 -4.39 C 17.7 km/h
1979 06-02-2015 11:15:00 0.4 C 3.49 g/m*3 -4.87 C 20.9 km/h
1980 06-02-2015 11:20:00 0.5 C 3.51 g/m*3 -3.39 C 12.9 km/h
1981 06-02-2015 11:25:00 0.6 C 3.53 g/m*3 -2.06 C 8.1 km/h
1982 06-02-2015 11:30:00 0.7 C 3.56 g/m*3 -3.46 C 14.5 km/h
1983 06-02-2015 11:35:00 0.7 C 3.56 g/m*3 -4.01 C 17.7 km/h
1984 06-02-2015 11:40:00 0.8 C 3.53 g/m*3 -4.13 C 19.3 km/h
1985 06-02-2015 11:45:00 0.8 C 3.53 g/m*3 -3.89 C 17.7 km/h
1986 06-02-2015 11:50:00 0.9 C 3.56 g/m*3 -3.21 C 14.5 km/h
1987 06-02-2015 11:55:00 0.9 C 3.51 g/m*3 -3.21 C 14.5 km/h
1988 06-02-2015 12:00:00 1 C 3.58 g/m*3 -2.43 C 11.3 km/h
1989 06-02-2015 12:05:00 1.1 C 3.55 g/m*3 -3.98 C 20.9 km/h
1990 06-02-2015 12:10:00 1.2 C 3.58 g/m*3 -2.54 C 12.9 km/h
1991 06-02-2015 12:15:00 1.3 C 3.55 g/m*3 -2.41 C 12.9 km/h
1992 06-02-2015 12:20:00 1.3 C 3.55 g/m*3 -2.72 C 14.5 km/h
1993 06-02-2015 12:25:00 1.4 C 3.52 g/m*3 -1.57 C 9.7 km/h
1994 06-02-2015 12:30:00 1.5 C 3.54 g/m*3 -2.17 C 12.9 km/h
1995 06-02-2015 12:35:00 1.7 C 3.54 g/m*3 -2.23 C 14.5 km/h
1996 06-02-2015 12:40:00 1.8 C 3.51 g/m*3 -2.64 C 17.7 km/h
1997 06-02-2015 12:45:00 1.9 C 3.48 g/m*3 -3.36 C 24.1 km/h
1998 06-02-2015 12:50:00 1.9 C 3.53 g/m*3 -0.97 C 9.7 km/h
1999 06-02-2015 12:55:00 2 C 3.56 g/m*3 -0.85 C 9.7 km/h
2000 06-02-2015 13:00:00 2.1 C 3.52 g/m*3 -0.73 C 9.7 km/h
Sensor: Nr:Datum:Temp:Abs-Feuchte:Windchill:Wind:
Aussen-T/F 2001 06-02-2015 13:05:00 2.2 C 3.49 g/m*3 -2.59 C 20.9 km/h
2002 06-02-2015 13:10:00 2.2 C 3.55 g/m*3 -2.59 C 20.9 km/h
2003 06-02-2015 13:15:00 2.3 C 3.52 g/m*3 -2.24 C 19.3 km/h
2004 06-02-2015 13:20:00 2.4 C 3.54 g/m*3 -2.33 C 20.9 km/h
2005 06-02-2015 13:25:00 2.4 C 3.54 g/m*3 -1.64 C 16.1 km/h
2006 06-02-2015 13:30:00 2.6 C 3.59 g/m*3 -1.87 C 19.3 km/h
2007 06-02-2015 13:35:00 2.6 C 3.53 g/m*3 -0.83 C 12.9 km/h
2008 06-02-2015 13:40:00 2.7 C 3.61 g/m*3 -1 C 14.5 km/h
2009 06-02-2015 13:45:00 2.8 C 3.58 g/m*3 -1.61 C 19.3 km/h
2010 06-02-2015 13:50:00 2.9 C 3.54 g/m*3 -1.49 C 19.3 km/h
2011 06-02-2015 13:55:00 3 C 3.57 g/m*3 -1.57 C 20.9 km/h
2012 06-02-2015 14:00:00 3.1 C 3.59 g/m*3 0.46 C 9.7 km/h
2013 06-02-2015 14:05:00 3.2 C 3.56 g/m*3 -0.89 C 17.7 km/h
2014 06-02-2015 14:10:00 3.3 C 3.52 g/m*3 -2.22 C 30.6 km/h
2015 06-02-2015 14:15:00 3.3 C 3.52 g/m*3 -2.22 C 30.6 km/h
2016 06-02-2015 14:20:00 3.4 C 3.54 g/m*3 -0.64 C 17.7 km/h
2017 06-02-2015 14:25:00 3.4 C 3.54 g/m*3 -0.86 C 19.3 km/h
2018 06-02-2015 14:30:00 3.4 C 3.6 g/m*3 -0.64 C 17.7 km/h
2019 06-02-2015 14:35:00 3.4 C 3.48 g/m*3 -0.86 C 19.3 km/h
2020 06-02-2015 14:40:00 3.3 C 3.58 g/m*3 0.34 C 11.3 km/h
2021 06-02-2015 14:45:00 3.4 C 3.54 g/m*3 -0.86 C 19.3 km/h
2022 06-02-2015 14:50:00 3.4 C 3.54 g/m*3 1.23 C 8.1 km/h
2023 06-02-2015 14:55:00 3.6 C 3.59 g/m*3 1.46 C 8.1 km/h
2024 06-02-2015 15:00:00 3.6 C 3.53 g/m*3 -0.15 C 16.1 km/h
2025 06-02-2015 15:05:00 3.8 C 3.51 g/m*3 2.21 C 6.4 km/h
Sensor: Nr:Datum:Temp:Abs-Feuchte:Windchill:Wind:
Aussen-T/F 2026 06-02-2015 15:10:00 3.9 C 3.47 g/m*3 2.32 C 6.4 km/h
2027 06-02-2015 15:15:00 4 C 3.43 g/m*3 4 C 4.8 km/h
2028 06-02-2015 15:20:00 4 C 3.43 g/m*3 2.44 C 6.4 km/h
2029 06-02-2015 15:25:00 3.9 C 3.47 g/m*3 1.82 C 8.1 km/h
2030 06-02-2015 15:30:00 3.9 C 3.35 g/m*3 0.75 C 12.9 km/h
2031 06-02-2015 15:35:00 3.9 C 3.35 g/m*3 1.06 C 11.3 km/h
2032 06-02-2015 15:40:00 3.8 C 3.32 g/m*3 1.7 C 8.1 km/h
2033 06-02-2015 15:45:00 3.6 C 3.34 g/m*3 0.7 C 11.3 km/h
2034 06-02-2015 15:50:00 3.4 C 3.36 g/m*3 1.23 C 8.1 km/h
2035 06-02-2015 15:55:00 3.3 C 3.4 g/m*3 1.11 C 8.1 km/h
2036 06-02-2015 16:00:00 3.2 C 3.25 g/m*3 1.51 C 6.4 km/h
2037 06-02-2015 16:05:00 3.2 C 3.37 g/m*3 0.58 C 9.7 km/h
2038 06-02-2015 16:10:00 3.2 C 3.31 g/m*3 1.51 C 6.4 km/h
2039 06-02-2015 16:15:00 3.1 C 3.47 g/m*3 1.4 C 6.4 km/h
2040 06-02-2015 16:20:00 3 C 3.33 g/m*3 -0.34 C 12.9 km/h
2041 06-02-2015 16:25:00 2.9 C 3.31 g/m*3 -0.46 C 12.9 km/h
2042 06-02-2015 16:30:00 2.9 C 3.43 g/m*3 1.17 C 6.4 km/h
2043 06-02-2015 16:35:00 2.8 C 3.23 g/m*3 -0.88 C 14.5 km/h
2044 06-02-2015 16:40:00 2.8 C 3.28 g/m*3 0.52 C 8.1 km/h
2045 06-02-2015 16:45:00 2.8 C 3.23 g/m*3 -1.61 C 19.3 km/h
2046 06-02-2015 16:50:00 2.8 C 3.17 g/m*3 -2.02 C 22.5 km/h
2047 06-02-2015 16:55:00 2.7 C 3.15 g/m*3 -1.95 C 20.9 km/h
2048 06-02-2015 17:00:00 2.6 C 3.18 g/m*3 -0.83 C 12.9 km/h
2049 06-02-2015 17:05:00 2.5 C 3.22 g/m*3 -0.95 C 12.9 km/h
2050 06-02-2015 17:10:00 2.4 C 3.31 g/m*3 0.05 C 8.1 km/h
Sensor: Nr:Datum:Temp:Abs-Feuchte:Windchill:Wind:
Aussen-T/F 2051 06-02-2015 17:15:00 2.1 C 3.19 g/m*3 -0.3 C 8.1 km/h
2052 06-02-2015 17:20:00 2 C 3.22 g/m*3 -0.85 C 9.7 km/h
2053 06-02-2015 17:25:00 1.7 C 3.38 g/m*3 1.7 C 4.8 km/h
2054 06-02-2015 17:30:00 1.3 C 3.39 g/m*3 1.3 C 3.2 km/h
2055 06-02-2015 17:35:00 0.9 C 3.4 g/m*3 0.9 C 4.8 km/h
2056 06-02-2015 17:40:00 0.6 C 3.43 g/m*3 0.6 C 4.8 km/h
2057 06-02-2015 17:45:00 0.4 C 3.39 g/m*3 -1.72 C 6.4 km/h
2058 06-02-2015 17:50:00 0.3 C 3.41 g/m*3 0.3 C 4.8 km/h
2059 06-02-2015 17:55:00 0.2 C 3.39 g/m*3 -2.53 C 8.1 km/h
2060 06-02-2015 18:00:00 0.3 C 3.31 g/m*3 0.3 C 4.8 km/h
2061 06-02-2015 18:05:00 0.3 C 3.41 g/m*3 0.3 C 3.2 km/h
2062 06-02-2015 18:10:00 0.2 C 3.44 g/m*3 0.2 C 3.2 km/h
2063 06-02-2015 18:15:00 -0.1 C 3.37 g/m*3 -0.1 C 3.2 km/h
2064 06-02-2015 18:20:00 -0.1 C 3.37 g/m*3 -0.1 C 3.2 km/h
2065 06-02-2015 18:25:00 0.1 C 3.32 g/m*3 -2.65 C 8.1 km/h
2066 06-02-2015 18:30:00 0.3 C 3.36 g/m*3 0.3 C 3.2 km/h
2067 06-02-2015 18:35:00 0.4 C 3.34 g/m*3 -3.16 C 11.3 km/h
2068 06-02-2015 18:40:00 0.4 C 3.34 g/m*3 0.4 C 3.2 km/h
2069 06-02-2015 18:45:00 0.3 C 3.26 g/m*3 -3.28 C 11.3 km/h
2070 06-02-2015 18:50:00 0.3 C 3.36 g/m*3 0.3 C 3.2 km/h
2071 06-02-2015 18:55:00 0.1 C 3.37 g/m*3 0.1 C 3.2 km/h
2072 06-02-2015 19:00:00 -0.1 C 3.32 g/m*3 -2.3 C 6.4 km/h
2073 06-02-2015 19:05:00 0 C 3.34 g/m*3 0 C 3.2 km/h
2074 06-02-2015 19:10:00 -0.1 C 3.37 g/m*3 -0.1 C 3.2 km/h
2075 06-02-2015 19:15:00 -0.2 C 3.39 g/m*3 -0.2 C 3.2 km/h
Sensor: Nr:Datum:Temp:Abs-Feuchte:Windchill:Wind:
Aussen-T/F 2076 06-02-2015 19:20:00 -0.3 C 3.42 g/m*3 -0.3 C 1.6 km/h
2077 06-02-2015 19:25:00 -0.4 C 3.39 g/m*3 -0.4 C 0 km/h
2078 06-02-2015 19:30:00 -0.5 C 3.37 g/m*3 -0.5 C 0 km/h
2079 06-02-2015 19:35:00 -0.4 C 3.39 g/m*3 -0.4 C 3.2 km/h
2080 06-02-2015 19:40:00 -0.4 C 3.44 g/m*3 -0.4 C 3.2 km/h
2081 06-02-2015 19:45:00 -0.6 C 3.44 g/m*3 -0.6 C 3.2 km/h
2082 06-02-2015 19:50:00 -0.6 C 3.39 g/m*3 -0.6 C 3.2 km/h
2083 06-02-2015 19:55:00 -0.6 C 3.44 g/m*3 -0.6 C 3.2 km/h
2084 06-02-2015 20:00:00 -0.6 C 3.44 g/m*3 -0.6 C 3.2 km/h
2085 06-02-2015 20:05:00 -0.6 C 3.49 g/m*3 -0.6 C 3.2 km/h
2086 06-02-2015 20:10:00 -0.7 C 3.46 g/m*3 -0.7 C 3.2 km/h
2087 06-02-2015 20:15:00 -0.7 C 3.46 g/m*3 -0.7 C 3.2 km/h
2088 06-02-2015 20:20:00 -0.6 C 3.39 g/m*3 -2.88 C 6.4 km/h
2089 06-02-2015 20:25:00 -0.4 C 3.44 g/m*3 -0.4 C 3.2 km/h
2090 06-02-2015 20:30:00 -0.4 C 3.35 g/m*3 -3.24 C 8.1 km/h
2091 06-02-2015 20:35:00 -0.3 C 3.37 g/m*3 -0.3 C 3.2 km/h
2092 06-02-2015 20:40:00 -0.3 C 3.42 g/m*3 -0.3 C 3.2 km/h
2093 06-02-2015 20:45:00 -0.3 C 3.42 g/m*3 -0.3 C 3.2 km/h
2094 06-02-2015 20:50:00 -0.3 C 3.37 g/m*3 -0.3 C 3.2 km/h
2095 06-02-2015 20:55:00 -0.3 C 3.42 g/m*3 -0.3 C 4.8 km/h
2096 06-02-2015 21:00:00 -0.4 C 3.39 g/m*3 -3.24 C 8.1 km/h
2097 06-02-2015 21:05:00 -0.3 C 3.42 g/m*3 -0.3 C 4.8 km/h
2098 06-02-2015 21:10:00 -0.3 C 3.42 g/m*3 -0.3 C 3.2 km/h
2099 06-02-2015 21:15:00 -0.4 C 3.39 g/m*3 -0.4 C 4.8 km/h
2100 06-02-2015 21:20:00 -0.4 C 3.39 g/m*3 -0.4 C 4.8 km/h
Sensor: Nr:Datum:Temp:Abs-Feuchte:Windchill:Wind:
Aussen-T/F 2101 06-02-2015 21:25:00 -0.4 C 3.44 g/m*3 -0.4 C 3.2 km/h
2102 06-02-2015 21:30:00 -0.4 C 3.44 g/m*3 -0.4 C 3.2 km/h
2103 06-02-2015 21:35:00 -0.5 C 3.42 g/m*3 -0.5 C 1.6 km/h
2104 06-02-2015 21:40:00 -0.6 C 3.39 g/m*3 -3.48 C 8.1 km/h
2105 06-02-2015 21:45:00 -0.6 C 3.39 g/m*3 -3.48 C 8.1 km/h
2106 06-02-2015 21:50:00 -0.6 C 3.39 g/m*3 -0.6 C 4.8 km/h
2107 06-02-2015 21:55:00 -0.7 C 3.42 g/m*3 -0.7 C 1.6 km/h
2108 06-02-2015 22:00:00 -0.8 C 3.39 g/m*3 -0.8 C 3.2 km/h
2109 06-02-2015 22:05:00 -0.8 C 3.44 g/m*3 -0.8 C 3.2 km/h
2110 06-02-2015 22:10:00 -0.9 C 3.41 g/m*3 -0.9 C 3.2 km/h
2111 06-02-2015 22:15:00 -0.9 C 3.41 g/m*3 -0.9 C 3.2 km/h
2112 06-02-2015 22:20:00 -0.9 C 3.41 g/m*3 -3.83 C 8.1 km/h
2113 06-02-2015 22:25:00 -0.9 C 3.41 g/m*3 -3.22 C 6.4 km/h
2114 06-02-2015 22:30:00 -0.9 C 3.41 g/m*3 -0.9 C 4.8 km/h
2115 06-02-2015 22:35:00 -0.9 C 3.41 g/m*3 -3.83 C 8.1 km/h
2116 06-02-2015 22:40:00 -0.9 C 3.41 g/m*3 -4.31 C 9.7 km/h
2117 06-02-2015 22:45:00 -0.9 C 3.41 g/m*3 -3.83 C 8.1 km/h
2118 06-02-2015 22:50:00 -0.9 C 3.37 g/m*3 -4.31 C 9.7 km/h
2119 06-02-2015 22:55:00 -0.9 C 3.37 g/m*3 -0.9 C 4.8 km/h
2120 06-02-2015 23:00:00 -0.9 C 3.37 g/m*3 -3.83 C 8.1 km/h
2121 06-02-2015 23:05:00 -1 C 3.35 g/m*3 -1 C 4.8 km/h
2122 06-02-2015 23:10:00 -1 C 3.35 g/m*3 -5.22 C 12.9 km/h
2123 06-02-2015 23:15:00 -1.1 C 3.32 g/m*3 -4.06 C 8.1 km/h
2124 06-02-2015 23:20:00 -1.1 C 3.28 g/m*3 -3.45 C 6.4 km/h
2125 06-02-2015 23:25:00 -1 C 3.3 g/m*3 -3.95 C 8.1 km/h
Sensor: Nr:Datum:Temp:Abs-Feuchte:Windchill:Wind:
Aussen-T/F 2126 06-02-2015 23:30:00 -1.1 C 3.28 g/m*3 -4.06 C 8.1 km/h
2127 06-02-2015 23:35:00 -1.1 C 3.28 g/m*3 -3.45 C 6.4 km/h
2128 06-02-2015 23:40:00 -1.1 C 3.28 g/m*3 -4.97 C 11.3 km/h
2129 06-02-2015 23:45:00 -1.2 C 3.3 g/m*3 -3.57 C 6.4 km/h
2130 06-02-2015 23:50:00 -1.2 C 3.3 g/m*3 -5.09 C 11.3 km/h
2131 06-02-2015 23:55:00 -1.3 C 3.28 g/m*3 -1.3 C 3.2 km/h
2132 07-02-2015 00:00:00 -1.3 C 3.28 g/m*3 -1.3 C 4.8 km/h
2133 07-02-2015 00:05:00 -1.3 C 3.28 g/m*3 -3.68 C 6.4 km/h
2134 07-02-2015 00:10:00 -1.4 C 3.25 g/m*3 -4.42 C 8.1 km/h
2135 07-02-2015 00:15:00 -1.3 C 3.28 g/m*3 -4.78 C 9.7 km/h
2136 07-02-2015 00:20:00 -1.3 C 3.28 g/m*3 -4.78 C 9.7 km/h
2137 07-02-2015 00:25:00 -1.3 C 3.23 g/m*3 -4.78 C 9.7 km/h
2138 07-02-2015 00:30:00 -1.3 C 3.28 g/m*3 -5.21 C 11.3 km/h
2139 07-02-2015 00:35:00 -1.3 C 3.28 g/m*3 -5.58 C 12.9 km/h
2140 07-02-2015 00:40:00 -1.3 C 3.28 g/m*3 -6.23 C 16.1 km/h
2141 07-02-2015 00:45:00 -1.3 C 3.23 g/m*3 -5.58 C 12.9 km/h
2142 07-02-2015 00:50:00 -1.3 C 3.23 g/m*3 -5.21 C 11.3 km/h
2143 07-02-2015 00:55:00 -1.4 C 3.21 g/m*3 -4.42 C 8.1 km/h
2144 07-02-2015 01:00:00 -1.4 C 3.21 g/m*3 -5.33 C 11.3 km/h
2145 07-02-2015 01:05:00 -1.4 C 3.25 g/m*3 -4.9 C 9.7 km/h
2146 07-02-2015 01:10:00 -1.5 C 3.23 g/m*3 -1.5 C 4.8 km/h
2147 07-02-2015 01:15:00 -1.6 C 3.21 g/m*3 -1.6 C 4.8 km/h
2148 07-02-2015 01:20:00 -1.7 C 3.19 g/m*3 -1.7 C 1.6 km/h
2149 07-02-2015 01:25:00 -1.7 C 3.23 g/m*3 -4.15 C 6.4 km/h
2150 07-02-2015 01:30:00 -1.8 C 3.21 g/m*3 -4.26 C 6.4 km/h
Sensor: Nr:Datum:Temp:Abs-Feuchte:Windchill:Wind:
Aussen-T/F 2151 07-02-2015 01:35:00 -1.8 C 3.21 g/m*3 -1.8 C 3.2 km/h
2152 07-02-2015 01:40:00 -1.9 C 3.18 g/m*3 -5.5 C 9.7 km/h
2153 07-02-2015 01:45:00 -1.9 C 3.23 g/m*3 -1.9 C 1.6 km/h
2154 07-02-2015 01:50:00 -1.9 C 3.18 g/m*3 -1.9 C 3.2 km/h
2155 07-02-2015 01:55:00 -2 C 3.2 g/m*3 -2 C 1.6 km/h
2156 07-02-2015 02:00:00 -2.2 C 3.2 g/m*3 -2.2 C 1.6 km/h
2157 07-02-2015 02:05:00 -2.5 C 3.17 g/m*3 -2.5 C 3.2 km/h
2158 07-02-2015 02:10:00 -2.7 C 3.17 g/m*3 -2.7 C 4.8 km/h
2159 07-02-2015 02:15:00 -2.9 C 3.2 g/m*3 -2.9 C 3.2 km/h
2160 07-02-2015 02:20:00 -3 C 3.18 g/m*3 -3 C 3.2 km/h
2161 07-02-2015 02:25:00 -3.1 C 3.16 g/m*3 -3.1 C 4.8 km/h
2162 07-02-2015 02:30:00 -3.2 C 3.18 g/m*3 -3.2 C 4.8 km/h
2163 07-02-2015 02:35:00 -3.2 C 3.18 g/m*3 -3.2 C 4.8 km/h
2164 07-02-2015 02:40:00 -3.3 C 3.15 g/m*3 -3.3 C 4.8 km/h
2165 07-02-2015 02:45:00 -3.3 C 3.15 g/m*3 -3.3 C 4.8 km/h
2166 07-02-2015 02:50:00 -3.3 C 3.15 g/m*3 -3.3 C 4.8 km/h
2167 07-02-2015 02:55:00 -3.4 C 3.21 g/m*3 -3.4 C 4.8 km/h
2168 07-02-2015 03:00:00 -3.4 C 3.17 g/m*3 -3.4 C 4.8 km/h
2169 07-02-2015 03:05:00 -3.4 C 3.17 g/m*3 -3.4 C 3.2 km/h
2170 07-02-2015 03:10:00 -3.4 C 3.17 g/m*3 -3.4 C 4.8 km/h
2171 07-02-2015 03:15:00 -3.4 C 3.21 g/m*3 -3.4 C 3.2 km/h
2172 07-02-2015 03:20:00 -3.4 C 3.21 g/m*3 -6.11 C 6.4 km/h
2173 07-02-2015 03:25:00 -3.5 C 3.15 g/m*3 -3.5 C 4.8 km/h
2174 07-02-2015 03:30:00 -3.5 C 3.15 g/m*3 -3.5 C 4.8 km/h
2175 07-02-2015 03:35:00 -3.5 C 3.15 g/m*3 -3.5 C 4.8 km/h
Sensor: Nr:Datum:Temp:Abs-Feuchte:Windchill:Wind:
Aussen-T/F 2176 07-02-2015 03:40:00 -3.5 C 3.18 g/m*3 -3.5 C 4.8 km/h
2177 07-02-2015 03:45:00 -3.5 C 3.15 g/m*3 -6.22 C 6.4 km/h
2178 07-02-2015 03:50:00 -3.4 C 3.17 g/m*3 -3.4 C 4.8 km/h
2179 07-02-2015 03:55:00 -3.3 C 3.19 g/m*3 -3.3 C 4.8 km/h
2180 07-02-2015 04:00:00 -3.3 C 3.19 g/m*3 -3.3 C 4.8 km/h
2181 07-02-2015 04:05:00 -3.3 C 3.15 g/m*3 -3.3 C 3.2 km/h
2182 07-02-2015 04:10:00 -3.4 C 3.13 g/m*3 -3.4 C 4.8 km/h
2183 07-02-2015 04:15:00 -3.6 C 3.09 g/m*3 -3.6 C 3.2 km/h
2184 07-02-2015 04:20:00 -3.6 C 3.12 g/m*3 -3.6 C 3.2 km/h
2185 07-02-2015 04:25:00 -3.7 C 3.1 g/m*3 -3.7 C 4.8 km/h
2186 07-02-2015 04:30:00 -3.7 C 3.1 g/m*3 -3.7 C 3.2 km/h
2187 07-02-2015 04:35:00 -3.8 C 3.08 g/m*3 -3.8 C 4.8 km/h
2188 07-02-2015 04:40:00 -3.8 C 3.04 g/m*3 -3.8 C 4.8 km/h
2189 07-02-2015 04:45:00 -3.8 C 3.08 g/m*3 -3.8 C 4.8 km/h
2190 07-02-2015 04:50:00 -3.9 C 3.06 g/m*3 -3.9 C 4.8 km/h
2191 07-02-2015 04:55:00 -3.9 C 3.09 g/m*3 -3.9 C 4.8 km/h
2192 07-02-2015 05:00:00 -3.8 C 3.12 g/m*3 -3.8 C 3.2 km/h
2193 07-02-2015 05:05:00 -3.8 C 3.08 g/m*3 -3.8 C 4.8 km/h
2194 07-02-2015 05:10:00 -3.8 C 3.12 g/m*3 -3.8 C 3.2 km/h
2195 07-02-2015 05:15:00 -3.8 C 3.15 g/m*3 -3.8 C 3.2 km/h
2196 07-02-2015 05:20:00 -3.8 C 3.15 g/m*3 -3.8 C 4.8 km/h
2197 07-02-2015 05:25:00 -3.8 C 3.12 g/m*3 -3.8 C 4.8 km/h
2198 07-02-2015 05:30:00 -3.9 C 3.09 g/m*3 -3.9 C 4.8 km/h
2199 07-02-2015 05:35:00 -3.9 C 3.06 g/m*3 -6.69 C 6.4 km/h
2200 07-02-2015 05:40:00 -3.8 C 3.08 g/m*3 -6.57 C 6.4 km/h
Sensor: Nr:Datum:Temp:Abs-Feuchte:Windchill:Wind:
Aussen-T/F 2201 07-02-2015 05:45:00 -3.8 C 3.08 g/m*3 -3.8 C 4.8 km/h
2202 07-02-2015 05:50:00 -3.8 C 3.08 g/m*3 -6.57 C 6.4 km/h
2203 07-02-2015 05:55:00 -3.8 C 3.04 g/m*3 -6.57 C 6.4 km/h
2204 07-02-2015 06:00:00 -3.8 C 3.04 g/m*3 -6.57 C 6.4 km/h
2205 07-02-2015 06:05:00 -3.8 C 3.04 g/m*3 -6.57 C 6.4 km/h
2206 07-02-2015 06:10:00 -3.8 C 3.04 g/m*3 -3.8 C 4.8 km/h
2207 07-02-2015 06:15:00 -3.8 C 3.08 g/m*3 -3.8 C 4.8 km/h
2208 07-02-2015 06:20:00 -3.8 C 3.08 g/m*3 -3.8 C 4.8 km/h
2209 07-02-2015 06:25:00 -3.8 C 3.08 g/m*3 -3.8 C 4.8 km/h
2210 07-02-2015 06:30:00 -3.9 C 3.06 g/m*3 -3.9 C 4.8 km/h
2211 07-02-2015 06:35:00 -3.9 C 3.06 g/m*3 -3.9 C 4.8 km/h
2212 07-02-2015 06:40:00 -3.9 C 3.09 g/m*3 -3.9 C 3.2 km/h
2213 07-02-2015 06:45:00 -4 C 3.11 g/m*3 -4 C 1.6 km/h
2214 07-02-2015 06:50:00 -4.1 C 3.09 g/m*3 -4.1 C 4.8 km/h
2215 07-02-2015 06:55:00 -4.1 C 3.09 g/m*3 -4.1 C 3.2 km/h
2216 07-02-2015 07:00:00 -4.2 C 3.07 g/m*3 -4.2 C 0 km/h
2217 07-02-2015 07:05:00 -4.3 C 3.04 g/m*3 -4.3 C 0 km/h
2218 07-02-2015 07:10:00 -4.4 C 3.02 g/m*3 -4.4 C 0 km/h
2219 07-02-2015 07:15:00 -4.5 C 3.04 g/m*3 -4.5 C 0 km/h
2220 07-02-2015 07:20:00 -4.6 C 3.01 g/m*3 -4.6 C 0 km/h
2221 07-02-2015 07:25:00 -4.6 C 3.01 g/m*3 -4.6 C 0 km/h
2222 07-02-2015 07:30:00 -4.7 C 2.99 g/m*3 -4.7 C 0 km/h
2223 07-02-2015 07:35:00 -4.7 C 3.03 g/m*3 -4.7 C 0 km/h
2224 07-02-2015 07:40:00 -4.8 C 3.01 g/m*3 -4.8 C 0 km/h
2225 07-02-2015 07:45:00 -4.9 C 2.98 g/m*3 -4.9 C 0 km/h
Sensor: Nr:Datum:Temp:Abs-Feuchte:Windchill:Wind:
Aussen-T/F 2226 07-02-2015 07:50:00 -4.9 C 2.98 g/m*3 -4.9 C 0 km/h
2227 07-02-2015 07:55:00 -5 C 2.96 g/m*3 -5 C 0 km/h
2228 07-02-2015 08:00:00 -5 C 2.96 g/m*3 -5 C 0 km/h
2229 07-02-2015 08:05:00 -5.1 C 2.94 g/m*3 -5.1 C 0 km/h
2230 07-02-2015 08:10:00 -5.1 C 2.97 g/m*3 -5.1 C 0 km/h
2231 07-02-2015 08:15:00 -5.1 C 2.97 g/m*3 -5.1 C 0 km/h
2232 07-02-2015 08:20:00 -5.1 C 2.97 g/m*3 -5.1 C 0 km/h
2233 07-02-2015 08:25:00 -5 C 3 g/m*3 -5 C 0 km/h
2234 07-02-2015 08:30:00 -4.9 C 3.05 g/m*3 -4.9 C 4.8 km/h
2235 07-02-2015 08:35:00 -4.9 C 3.05 g/m*3 -4.9 C 0 km/h
2236 07-02-2015 08:40:00 -4.8 C 3.07 g/m*3 -4.8 C 0 km/h
2237 07-02-2015 08:45:00 -4.8 C 3.04 g/m*3 -4.8 C 0 km/h
2238 07-02-2015 08:50:00 -4.8 C 3.04 g/m*3 -4.8 C 0 km/h
2239 07-02-2015 08:55:00 -4.8 C 3.04 g/m*3 -4.8 C 0 km/h
2240 07-02-2015 09:00:00 -4.8 C 3.04 g/m*3 -4.8 C 0 km/h
2241 07-02-2015 09:05:00 -4.7 C 3.06 g/m*3 -4.7 C 1.6 km/h
2242 07-02-2015 09:10:00 -4.6 C 3.08 g/m*3 -4.6 C 1.6 km/h
2243 07-02-2015 09:15:00 -4.5 C 3.11 g/m*3 -4.5 C 1.6 km/h
2244 07-02-2015 09:20:00 -4.5 C 3.11 g/m*3 -4.5 C 0 km/h
2245 07-02-2015 09:25:00 -4.5 C 3.11 g/m*3 -4.5 C 1.6 km/h
2246 07-02-2015 09:30:00 -4.4 C 3.09 g/m*3 -4.4 C 0 km/h
2247 07-02-2015 09:35:00 -4.4 C 3.13 g/m*3 -4.4 C 0 km/h
2248 07-02-2015 09:40:00 -4.3 C 3.15 g/m*3 -4.3 C 3.2 km/h
2249 07-02-2015 09:45:00 -4.2 C 3.17 g/m*3 -4.2 C 4.8 km/h
2250 07-02-2015 09:50:00 -4.1 C 3.16 g/m*3 -4.1 C 0 km/h
Sensor: Nr:Datum:Temp:Abs-Feuchte:Windchill:Wind:
Aussen-T/F 2251 07-02-2015 09:55:00 -3.9 C 3.21 g/m*3 -3.9 C 0 km/h
2252 07-02-2015 10:00:00 -3.8 C 3.19 g/m*3 -3.8 C 0 km/h
2253 07-02-2015 10:05:00 -3.8 C 3.19 g/m*3 -3.8 C 1.6 km/h
2254 07-02-2015 10:10:00 -3.6 C 3.24 g/m*3 -3.6 C 3.2 km/h
2255 07-02-2015 10:15:00 -3.5 C 3.22 g/m*3 -3.5 C 3.2 km/h
2256 07-02-2015 10:20:00 -3.3 C 3.27 g/m*3 -3.3 C 3.2 km/h
2257 07-02-2015 10:25:00 -3.2 C 3.29 g/m*3 -3.2 C 3.2 km/h
2258 07-02-2015 10:30:00 -3.2 C 3.25 g/m*3 -3.2 C 3.2 km/h
2259 07-02-2015 10:35:00 -3.1 C 3.28 g/m*3 -3.1 C 3.2 km/h
2260 07-02-2015 10:40:00 -3 C 3.3 g/m*3 -3 C 4.8 km/h
2261 07-02-2015 10:45:00 -2.9 C 3.32 g/m*3 -2.9 C 3.2 km/h
2262 07-02-2015 10:50:00 -2.9 C 3.32 g/m*3 -2.9 C 0 km/h
2263 07-02-2015 10:55:00 -2.8 C 3.39 g/m*3 -2.8 C 3.2 km/h
2264 07-02-2015 11:00:00 -2.8 C 3.39 g/m*3 -2.8 C 3.2 km/h
2265 07-02-2015 11:05:00 -2.7 C 3.37 g/m*3 -2.7 C 3.2 km/h
2266 07-02-2015 11:10:00 -2.6 C 3.39 g/m*3 -2.6 C 3.2 km/h
2267 07-02-2015 11:15:00 -2.4 C 3.44 g/m*3 -2.4 C 3.2 km/h
2268 07-02-2015 11:20:00 -2.4 C 3.44 g/m*3 -2.4 C 3.2 km/h
2269 07-02-2015 11:25:00 -2.3 C 3.47 g/m*3 -2.3 C 4.8 km/h
2270 07-02-2015 11:30:00 -2.2 C 3.45 g/m*3 -2.2 C 4.8 km/h
2271 07-02-2015 11:35:00 -2 C 3.5 g/m*3 -2 C 3.2 km/h
2272 07-02-2015 11:40:00 -1.9 C 3.57 g/m*3 -1.9 C 1.6 km/h
2273 07-02-2015 11:45:00 -1.9 C 3.52 g/m*3 -1.9 C 3.2 km/h
2274 07-02-2015 11:50:00 -1.8 C 3.46 g/m*3 -4.89 C 8.1 km/h
2275 07-02-2015 11:55:00 -1.4 C 3.47 g/m*3 -3.8 C 6.4 km/h
Sensor: Nr:Datum:Temp:Abs-Feuchte:Windchill:Wind:
Aussen-T/F 2276 07-02-2015 12:00:00 -1.2 C 3.52 g/m*3 -1.2 C 3.2 km/h
2277 07-02-2015 12:05:00 -1.1 C 3.5 g/m*3 -1.1 C 1.6 km/h
2278 07-02-2015 12:10:00 -1 C 3.57 g/m*3 -1 C 3.2 km/h
2279 07-02-2015 12:15:00 -1.1 C 3.64 g/m*3 -1.1 C 4.8 km/h
2280 07-02-2015 12:20:00 -1.1 C 3.64 g/m*3 -1.1 C 3.2 km/h
2281 07-02-2015 12:25:00 -1.1 C 3.55 g/m*3 -1.1 C 0 km/h
2282 07-02-2015 12:30:00 -0.9 C 3.64 g/m*3 -0.9 C 3.2 km/h
2283 07-02-2015 12:35:00 -0.9 C 3.6 g/m*3 -0.9 C 3.2 km/h
2284 07-02-2015 12:40:00 -0.8 C 3.67 g/m*3 -0.8 C 3.2 km/h
2285 07-02-2015 12:45:00 -0.7 C 3.6 g/m*3 -0.7 C 3.2 km/h
2286 07-02-2015 12:50:00 -0.7 C 3.65 g/m*3 -0.7 C 3.2 km/h
2287 07-02-2015 12:55:00 -0.6 C 3.72 g/m*3 -0.6 C 4.8 km/h
2288 07-02-2015 13:00:00 -0.6 C 3.67 g/m*3 -0.6 C 3.2 km/h
2289 07-02-2015 13:05:00 -0.6 C 3.67 g/m*3 -0.6 C 4.8 km/h
2290 07-02-2015 13:10:00 -0.5 C 3.74 g/m*3 -0.5 C 3.2 km/h
2291 07-02-2015 13:15:00 -0.4 C 3.72 g/m*3 -0.4 C 3.2 km/h
2292 07-02-2015 13:20:00 -0.3 C 3.8 g/m*3 -0.3 C 3.2 km/h
2293 07-02-2015 13:25:00 -0.2 C 3.82 g/m*3 -0.2 C 4.8 km/h
2294 07-02-2015 13:30:00 -0.1 C 3.85 g/m*3 -0.1 C 3.2 km/h
2295 07-02-2015 13:35:00 0.1 C 3.81 g/m*3 0.1 C 3.2 km/h
2296 07-02-2015 13:40:00 0.3 C 3.91 g/m*3 0.3 C 3.2 km/h
2297 07-02-2015 13:45:00 0.4 C 3.84 g/m*3 0.4 C 3.2 km/h
2298 07-02-2015 13:50:00 0.6 C 3.84 g/m*3 0.6 C 3.2 km/h
2299 07-02-2015 13:55:00 0.8 C 3.94 g/m*3 0.8 C 4.8 km/h
2300 07-02-2015 14:00:00 0.9 C 3.92 g/m*3 0.9 C 4.8 km/h
Sensor: Nr:Datum:Temp:Abs-Feuchte:Windchill:Wind:
Aussen-T/F 2301 07-02-2015 14:05:00 1.1 C 4.02 g/m*3 1.1 C 4.8 km/h
2302 07-02-2015 14:10:00 1.3 C 3.92 g/m*3 1.3 C 3.2 km/h
2303 07-02-2015 14:15:00 1.5 C 4.08 g/m*3 1.5 C 4.8 km/h
2304 07-02-2015 14:20:00 1.6 C 4.11 g/m*3 1.6 C 3.2 km/h
2305 07-02-2015 14:25:00 1.7 C 4.08 g/m*3 1.7 C 3.2 km/h
2306 07-02-2015 14:30:00 1.8 C 4.06 g/m*3 1.8 C 3.2 km/h
2307 07-02-2015 14:35:00 1.9 C 4.03 g/m*3 1.9 C 4.8 km/h
2308 07-02-2015 14:40:00 2.1 C 4.08 g/m*3 2.1 C 3.2 km/h
2309 07-02-2015 14:45:00 2.2 C 4.06 g/m*3 2.2 C 4.8 km/h
2310 07-02-2015 14:50:00 2.3 C 4.08 g/m*3 2.3 C 3.2 km/h
2311 07-02-2015 14:55:00 2.4 C 4.17 g/m*3 2.4 C 4.8 km/h
2312 07-02-2015 15:00:00 2.3 C 4.08 g/m*3 2.3 C 3.2 km/h
2313 07-02-2015 15:05:00 2.3 C 4.08 g/m*3 2.3 C 4.8 km/h
2314 07-02-2015 15:10:00 2.4 C 4.23 g/m*3 2.4 C 4.8 km/h
2315 07-02-2015 15:15:00 2.4 C 4.11 g/m*3 2.4 C 4.8 km/h
2316 07-02-2015 15:20:00 2.4 C 4.17 g/m*3 2.4 C 4.8 km/h
2317 07-02-2015 15:25:00 2.5 C 4.08 g/m*3 2.5 C 3.2 km/h
2318 07-02-2015 15:30:00 2.5 C 4.2 g/m*3 2.5 C 3.2 km/h
2319 07-02-2015 15:35:00 2.4 C 4.23 g/m*3 2.4 C 4.8 km/h
2320 07-02-2015 15:40:00 2.4 C 3.94 g/m*3 2.4 C 3.2 km/h
2321 07-02-2015 15:45:00 2.7 C 4.14 g/m*3 2.7 C 3.2 km/h
2322 07-02-2015 15:50:00 2.6 C 3.94 g/m*3 2.6 C 4.8 km/h
2323 07-02-2015 15:55:00 2.9 C 3.9 g/m*3 2.9 C 4.8 km/h
2324 07-02-2015 16:00:00 3.1 C 4.01 g/m*3 1.4 C 6.4 km/h
2325 07-02-2015 16:05:00 3 C 4.04 g/m*3 1.28 C 6.4 km/h
Sensor: Nr:Datum:Temp:Abs-Feuchte:Windchill:Wind:
Aussen-T/F 2326 07-02-2015 16:10:00 3.1 C 3.83 g/m*3 -0.77 C 16.1 km/h
2327 07-02-2015 16:15:00 3.4 C 3.85 g/m*3 0.14 C 12.9 km/h
2328 07-02-2015 16:20:00 3.6 C 3.84 g/m*3 1.46 C 8.1 km/h
2329 07-02-2015 16:25:00 3.7 C 3.8 g/m*3 1.58 C 8.1 km/h
2330 07-02-2015 16:30:00 3.7 C 3.68 g/m*3 1.18 C 9.7 km/h
2331 07-02-2015 16:35:00 3.8 C 3.58 g/m*3 -0.14 C 17.7 km/h
2332 07-02-2015 16:40:00 3.8 C 3.58 g/m*3 0.35 C 14.5 km/h
2333 07-02-2015 16:45:00 3.7 C 3.55 g/m*3 1.58 C 8.1 km/h
2334 07-02-2015 16:50:00 3.7 C 3.55 g/m*3 -0.03 C 16.1 km/h
2335 07-02-2015 16:55:00 3.7 C 3.55 g/m*3 1.18 C 9.7 km/h
2336 07-02-2015 17:00:00 3.6 C 3.53 g/m*3 1.98 C 6.4 km/h
2337 07-02-2015 17:05:00 3.4 C 3.54 g/m*3 1.23 C 8.1 km/h
2338 07-02-2015 17:10:00 3.4 C 3.66 g/m*3 1.23 C 8.1 km/h
2339 07-02-2015 17:15:00 3.2 C 3.86 g/m*3 3.2 C 3.2 km/h
2340 07-02-2015 17:20:00 2.9 C 3.78 g/m*3 2.9 C 4.8 km/h
2341 07-02-2015 17:25:00 2.7 C 3.85 g/m*3 2.7 C 4.8 km/h
2342 07-02-2015 17:30:00 2.3 C 3.86 g/m*3 2.3 C 3.2 km/h
2343 07-02-2015 17:35:00 2.1 C 3.97 g/m*3 2.1 C 1.6 km/h
2344 07-02-2015 17:40:00 1.6 C 3.89 g/m*3 1.6 C 3.2 km/h
2345 07-02-2015 17:45:00 1.3 C 3.92 g/m*3 1.3 C 4.8 km/h
2346 07-02-2015 17:50:00 1.1 C 3.92 g/m*3 1.1 C 1.6 km/h
2347 07-02-2015 17:55:00 1 C 4 g/m*3 1 C 1.6 km/h
2348 07-02-2015 18:00:00 1 C 3.94 g/m*3 1 C 3.2 km/h
2349 07-02-2015 18:05:00 1.3 C 4.08 g/m*3 1.3 C 3.2 km/h
2350 07-02-2015 18:10:00 1.7 C 4.14 g/m*3 1.7 C 4.8 km/h
Sensor: Nr:Datum:Temp:Abs-Feuchte:Windchill:Wind:
Aussen-T/F 2351 07-02-2015 18:15:00 1.9 C 4.14 g/m*3 1.9 C 4.8 km/h
2352 07-02-2015 18:20:00 2.2 C 4.28 g/m*3 2.2 C 3.2 km/h
2353 07-02-2015 18:25:00 2.3 C 4.2 g/m*3 2.3 C 3.2 km/h
2354 07-02-2015 18:30:00 2.3 C 4.25 g/m*3 2.3 C 1.6 km/h
2355 07-02-2015 18:35:00 2.3 C 4.25 g/m*3 2.3 C 4.8 km/h
2356 07-02-2015 18:40:00 2.3 C 4.31 g/m*3 2.3 C 1.6 km/h
2357 07-02-2015 18:45:00 2.3 C 4.31 g/m*3 2.3 C 0 km/h
2358 07-02-2015 18:50:00 2.3 C 4.25 g/m*3 2.3 C 3.2 km/h
2359 07-02-2015 18:55:00 2.3 C 4.25 g/m*3 2.3 C 3.2 km/h
2360 07-02-2015 19:00:00 2.4 C 4.23 g/m*3 0.59 C 6.4 km/h
2361 07-02-2015 19:05:00 2.6 C 4.28 g/m*3 0.29 C 8.1 km/h
2362 07-02-2015 19:10:00 2.8 C 4.34 g/m*3 2.8 C 4.8 km/h
2363 07-02-2015 19:15:00 2.8 C 4.28 g/m*3 2.8 C 4.8 km/h
2364 07-02-2015 19:20:00 2.9 C 4.37 g/m*3 2.9 C 4.8 km/h
2365 07-02-2015 19:25:00 2.9 C 4.37 g/m*3 2.9 C 3.2 km/h
2366 07-02-2015 19:30:00 2.8 C 4.46 g/m*3 2.8 C 4.8 km/h
2367 07-02-2015 19:35:00 2.7 C 4.49 g/m*3 2.7 C 3.2 km/h
2368 07-02-2015 19:40:00 2.6 C 4.51 g/m*3 2.6 C 3.2 km/h
2369 07-02-2015 19:45:00 2.6 C 4.51 g/m*3 2.6 C 3.2 km/h
2370 07-02-2015 19:50:00 2.6 C 4.57 g/m*3 2.6 C 4.8 km/h
2371 07-02-2015 19:55:00 2.6 C 4.57 g/m*3 2.6 C 4.8 km/h
2372 07-02-2015 20:00:00 2.7 C 4.6 g/m*3 0.4 C 8.1 km/h
2373 07-02-2015 20:05:00 2.7 C 4.66 g/m*3 -0.38 C 11.3 km/h
2374 07-02-2015 20:10:00 2.8 C 4.75 g/m*3 -0.26 C 11.3 km/h
2375 07-02-2015 20:15:00 2.8 C 4.81 g/m*3 2.8 C 4.8 km/h
Sensor: Nr:Datum:Temp:Abs-Feuchte:Windchill:Wind:
Aussen-T/F 2376 07-02-2015 20:20:00 2.8 C 4.87 g/m*3 1.05 C 6.4 km/h
2377 07-02-2015 20:25:00 2.7 C 4.89 g/m*3 2.7 C 4.8 km/h
2378 07-02-2015 20:30:00 2.7 C 4.89 g/m*3 0.4 C 8.1 km/h
2379 07-02-2015 20:35:00 2.7 C 5.01 g/m*3 0.4 C 8.1 km/h
2380 07-02-2015 20:40:00 2.6 C 4.98 g/m*3 2.6 C 3.2 km/h
2381 07-02-2015 20:45:00 2.6 C 4.98 g/m*3 2.6 C 1.6 km/h
2382 07-02-2015 20:50:00 2.5 C 5 g/m*3 0.71 C 6.4 km/h
2383 07-02-2015 20:55:00 2.5 C 5.06 g/m*3 2.5 C 4.8 km/h
2384 07-02-2015 21:00:00 2.6 C 5.15 g/m*3 -0.5 C 11.3 km/h
2385 07-02-2015 21:05:00 2.6 C 5.21 g/m*3 0.82 C 6.4 km/h
2386 07-02-2015 21:10:00 2.6 C 5.21 g/m*3 0.29 C 8.1 km/h
2387 07-02-2015 21:15:00 2.6 C 5.21 g/m*3 0.82 C 6.4 km/h
2388 07-02-2015 21:20:00 2.6 C 5.27 g/m*3 0.82 C 6.4 km/h
2389 07-02-2015 21:25:00 2.6 C 5.27 g/m*3 2.6 C 4.8 km/h
2390 07-02-2015 21:30:00 2.6 C 5.27 g/m*3 2.6 C 4.8 km/h
2391 07-02-2015 21:35:00 2.7 C 5.36 g/m*3 0.94 C 6.4 km/h
2392 07-02-2015 21:40:00 2.7 C 5.36 g/m*3 2.7 C 0 km/h
2393 07-02-2015 21:45:00 2.7 C 5.36 g/m*3 2.7 C 3.2 km/h
2394 07-02-2015 21:50:00 2.7 C 5.42 g/m*3 2.7 C 3.2 km/h
2395 07-02-2015 21:55:00 2.7 C 5.42 g/m*3 2.7 C 3.2 km/h
2396 07-02-2015 22:00:00 2.7 C 5.42 g/m*3 0.94 C 6.4 km/h
2397 07-02-2015 22:05:00 2.7 C 5.48 g/m*3 0.94 C 6.4 km/h
2398 07-02-2015 22:10:00 2.7 C 5.48 g/m*3 2.7 C 3.2 km/h
2399 07-02-2015 22:15:00 2.7 C 5.48 g/m*3 2.7 C 3.2 km/h
2400 07-02-2015 22:20:00 2.7 C 5.48 g/m*3 2.7 C 3.2 km/h
Sensor: Nr:Datum:Temp:Abs-Feuchte:Windchill:Wind:
Aussen-T/F 2401 07-02-2015 22:25:00 2.7 C 5.48 g/m*3 0.94 C 6.4 km/h
2402 07-02-2015 22:30:00 2.7 C 5.48 g/m*3 0.94 C 6.4 km/h
2403 07-02-2015 22:35:00 2.7 C 5.48 g/m*3 2.7 C 3.2 km/h
2404 07-02-2015 22:40:00 2.7 C 5.48 g/m*3 2.7 C 4.8 km/h
2405 07-02-2015 22:45:00 2.9 C 5.55 g/m*3 0.64 C 8.1 km/h
2406 07-02-2015 22:50:00 2.9 C 5.55 g/m*3 2.9 C 4.8 km/h
2407 07-02-2015 22:55:00 3 C 5.59 g/m*3 0.34 C 9.7 km/h
2408 07-02-2015 23:00:00 3 C 5.59 g/m*3 0.34 C 9.7 km/h
2409 07-02-2015 23:05:00 3.1 C 5.63 g/m*3 0.46 C 9.7 km/h
2410 07-02-2015 23:10:00 3.1 C 5.63 g/m*3 0.1 C 11.3 km/h
2411 07-02-2015 23:15:00 3.1 C 5.63 g/m*3 0.87 C 8.1 km/h
2412 07-02-2015 23:20:00 3.2 C 5.66 g/m*3 0.58 C 9.7 km/h
2413 07-02-2015 23:25:00 3.2 C 5.66 g/m*3 0.58 C 9.7 km/h
2414 07-02-2015 23:30:00 3.2 C 5.72 g/m*3 -0.39 C 14.5 km/h
2415 07-02-2015 23:35:00 3.2 C 5.72 g/m*3 -0.1 C 12.9 km/h
2416 07-02-2015 23:40:00 3.3 C 5.76 g/m*3 0.02 C 12.9 km/h
2417 07-02-2015 23:45:00 3.3 C 5.7 g/m*3 0.7 C 9.7 km/h
2418 07-02-2015 23:50:00 3.3 C 5.7 g/m*3 1.11 C 8.1 km/h
2419 07-02-2015 23:55:00 3.3 C 5.7 g/m*3 1.11 C 8.1 km/h
2420 08-02-2015 00:00:00 3.4 C 5.74 g/m*3 0.46 C 11.3 km/h
2421 08-02-2015 00:05:00 3.4 C 5.74 g/m*3 1.75 C 6.4 km/h
2422 08-02-2015 00:10:00 3.4 C 5.74 g/m*3 0.46 C 11.3 km/h
2423 08-02-2015 00:15:00 3.4 C 5.74 g/m*3 0.82 C 9.7 km/h
2424 08-02-2015 00:20:00 3.4 C 5.74 g/m*3 1.75 C 6.4 km/h
2425 08-02-2015 00:25:00 3.4 C 5.74 g/m*3 0.46 C 11.3 km/h
Sensor: Nr:Datum:Temp:Abs-Feuchte:Windchill:Wind:
Aussen-T/F 2426 08-02-2015 00:30:00 3.4 C 5.74 g/m*3 1.75 C 6.4 km/h
2427 08-02-2015 00:35:00 3.5 C 5.78 g/m*3 1.86 C 6.4 km/h
2428 08-02-2015 00:40:00 3.5 C 5.78 g/m*3 1.34 C 8.1 km/h
2429 08-02-2015 00:45:00 3.6 C 5.82 g/m*3 1.06 C 9.7 km/h
2430 08-02-2015 00:50:00 3.7 C 5.86 g/m*3 1.18 C 9.7 km/h
2431 08-02-2015 00:55:00 3.7 C 5.86 g/m*3 3.7 C 4.8 km/h
2432 08-02-2015 01:00:00 3.8 C 5.9 g/m*3 0.63 C 12.9 km/h
2433 08-02-2015 01:05:00 3.8 C 5.83 g/m*3 0.35 C 14.5 km/h
2434 08-02-2015 01:10:00 3.9 C 5.94 g/m*3 0.75 C 12.9 km/h
2435 08-02-2015 01:15:00 3.9 C 5.87 g/m*3 3.9 C 4.8 km/h
2436 08-02-2015 01:20:00 3.8 C 5.83 g/m*3 0.63 C 12.9 km/h
2437 08-02-2015 01:25:00 3.9 C 5.87 g/m*3 0.22 C 16.1 km/h
2438 08-02-2015 01:30:00 3.9 C 5.87 g/m*3 1.41 C 9.7 km/h
2439 08-02-2015 01:35:00 3.9 C 5.87 g/m*3 1.82 C 8.1 km/h
2440 08-02-2015 01:40:00 3.9 C 5.87 g/m*3 1.41 C 9.7 km/h
2441 08-02-2015 01:45:00 3.9 C 5.87 g/m*3 3.9 C 4.8 km/h
2442 08-02-2015 01:50:00 3.9 C 5.81 g/m*3 1.06 C 11.3 km/h
2443 08-02-2015 01:55:00 3.9 C 5.87 g/m*3 1.82 C 8.1 km/h
2444 08-02-2015 02:00:00 3.9 C 5.87 g/m*3 1.41 C 9.7 km/h
2445 08-02-2015 02:05:00 4 C 5.85 g/m*3 1.53 C 9.7 km/h
2446 08-02-2015 02:10:00 4.1 C 5.89 g/m*3 0.72 C 14.5 km/h
2447 08-02-2015 02:15:00 4.1 C 5.89 g/m*3 2.05 C 8.1 km/h
2448 08-02-2015 02:20:00 4.1 C 5.89 g/m*3 1.65 C 9.7 km/h
2449 08-02-2015 02:25:00 4.1 C 5.82 g/m*3 4.1 C 3.2 km/h
2450 08-02-2015 02:30:00 3.9 C 5.81 g/m*3 1.82 C 8.1 km/h
Sensor: Nr:Datum:Temp:Abs-Feuchte:Windchill:Wind:
Aussen-T/F 2451 08-02-2015 02:35:00 3.9 C 5.81 g/m*3 2.32 C 6.4 km/h
2452 08-02-2015 02:40:00 3.8 C 5.77 g/m*3 3.8 C 4.8 km/h
2453 08-02-2015 02:45:00 3.9 C 5.87 g/m*3 2.32 C 6.4 km/h
2454 08-02-2015 02:50:00 3.9 C 5.87 g/m*3 1.82 C 8.1 km/h
2455 08-02-2015 02:55:00 3.9 C 5.87 g/m*3 1.82 C 8.1 km/h
2456 08-02-2015 03:00:00 3.9 C 5.87 g/m*3 1.82 C 8.1 km/h
2457 08-02-2015 03:05:00 3.8 C 5.83 g/m*3 0.94 C 11.3 km/h
2458 08-02-2015 03:10:00 3.8 C 5.83 g/m*3 2.21 C 6.4 km/h
2459 08-02-2015 03:15:00 3.7 C 5.8 g/m*3 3.7 C 4.8 km/h
2460 08-02-2015 03:20:00 3.7 C 5.8 g/m*3 3.7 C 3.2 km/h
2461 08-02-2015 03:25:00 3.6 C 5.76 g/m*3 3.6 C 4.8 km/h
2462 08-02-2015 03:30:00 3.6 C 5.76 g/m*3 3.6 C 3.2 km/h
2463 08-02-2015 03:35:00 3.5 C 5.72 g/m*3 3.5 C 4.8 km/h
2464 08-02-2015 03:40:00 3.5 C 5.78 g/m*3 3.5 C 4.8 km/h
2465 08-02-2015 03:45:00 3.6 C 5.82 g/m*3 0.7 C 11.3 km/h
2466 08-02-2015 03:50:00 3.7 C 5.86 g/m*3 1.18 C 9.7 km/h
2467 08-02-2015 03:55:00 3.8 C 5.83 g/m*3 0.63 C 12.9 km/h
2468 08-02-2015 04:00:00 3.9 C 5.81 g/m*3 1.82 C 8.1 km/h
2469 08-02-2015 04:05:00 4 C 5.79 g/m*3 1.53 C 9.7 km/h
2470 08-02-2015 04:10:00 4.1 C 5.82 g/m*3 1.65 C 9.7 km/h
2471 08-02-2015 04:15:00 4.2 C 5.8 g/m*3 -0.05 C 20.9 km/h
2472 08-02-2015 04:20:00 4.2 C 5.8 g/m*3 1.12 C 12.9 km/h
2473 08-02-2015 04:25:00 4.2 C 5.73 g/m*3 1.12 C 12.9 km/h
2474 08-02-2015 04:30:00 4.2 C 5.67 g/m*3 1.77 C 9.7 km/h
2475 08-02-2015 04:35:00 4.2 C 5.67 g/m*3 1.12 C 12.9 km/h
Sensor: Nr:Datum:Temp:Abs-Feuchte:Windchill:Wind:
Aussen-T/F 2476 08-02-2015 04:40:00 4.2 C 5.61 g/m*3 0.15 C 19.3 km/h
2477 08-02-2015 04:45:00 4.2 C 5.61 g/m*3 1.12 C 12.9 km/h
2478 08-02-2015 04:50:00 4.2 C 5.61 g/m*3 0.84 C 14.5 km/h
2479 08-02-2015 04:55:00 4.2 C 5.61 g/m*3 1.77 C 9.7 km/h
2480 08-02-2015 05:00:00 4.2 C 5.54 g/m*3 1.12 C 12.9 km/h
2481 08-02-2015 05:05:00 4.3 C 5.58 g/m*3 0.97 C 14.5 km/h
2482 08-02-2015 05:10:00 4.3 C 5.58 g/m*3 2.29 C 8.1 km/h
2483 08-02-2015 05:15:00 4.2 C 5.54 g/m*3 1.77 C 9.7 km/h
2484 08-02-2015 05:20:00 4.3 C 5.58 g/m*3 0.97 C 14.5 km/h
2485 08-02-2015 05:25:00 4.3 C 5.58 g/m*3 1.24 C 12.9 km/h
2486 08-02-2015 05:30:00 4.3 C 5.51 g/m*3 1.24 C 12.9 km/h
2487 08-02-2015 05:35:00 4.3 C 5.51 g/m*3 0.49 C 17.7 km/h
2488 08-02-2015 05:40:00 4.3 C 5.51 g/m*3 0.07 C 20.9 km/h
2489 08-02-2015 05:45:00 4.3 C 5.51 g/m*3 0.27 C 19.3 km/h
2490 08-02-2015 05:50:00 4.4 C 5.48 g/m*3 0.84 C 16.1 km/h
2491 08-02-2015 05:55:00 4.3 C 5.45 g/m*3 1.55 C 11.3 km/h
2492 08-02-2015 06:00:00 4.3 C 5.45 g/m*3 1.24 C 12.9 km/h
2493 08-02-2015 06:05:00 4.3 C 5.38 g/m*3 0.97 C 14.5 km/h
2494 08-02-2015 06:10:00 4.3 C 5.38 g/m*3 1.55 C 11.3 km/h
2495 08-02-2015 06:15:00 4.3 C 5.38 g/m*3 1.24 C 12.9 km/h
2496 08-02-2015 06:20:00 4.2 C 5.35 g/m*3 1.77 C 9.7 km/h
2497 08-02-2015 06:25:00 4.3 C 5.38 g/m*3 1.89 C 9.7 km/h
2498 08-02-2015 06:30:00 4.3 C 5.38 g/m*3 0.97 C 14.5 km/h
2499 08-02-2015 06:35:00 4.3 C 5.38 g/m*3 0.72 C 16.1 km/h
2500 08-02-2015 06:40:00 4.2 C 5.35 g/m*3 2.17 C 8.1 km/h
Sensor: Nr:Datum:Temp:Abs-Feuchte:Windchill:Wind:
Aussen-T/F 2501 08-02-2015 06:45:00 4.2 C 5.41 g/m*3 2.67 C 6.4 km/h
2502 08-02-2015 06:50:00 4.2 C 5.41 g/m*3 1.12 C 12.9 km/h
2503 08-02-2015 06:55:00 4.2 C 5.41 g/m*3 1.77 C 9.7 km/h
2504 08-02-2015 07:00:00 4.2 C 5.41 g/m*3 2.67 C 6.4 km/h
2505 08-02-2015 07:05:00 4.1 C 5.44 g/m*3 2.05 C 8.1 km/h
2506 08-02-2015 07:10:00 4.1 C 5.44 g/m*3 2.05 C 8.1 km/h
2507 08-02-2015 07:15:00 4.1 C 5.5 g/m*3 -0.18 C 20.9 km/h
2508 08-02-2015 07:20:00 3.8 C 5.46 g/m*3 -0.36 C 19.3 km/h
2509 08-02-2015 07:25:00 3.7 C 5.48 g/m*3 0.23 C 14.5 km/h
2510 08-02-2015 07:30:00 3.5 C 5.41 g/m*3 -0.51 C 17.7 km/h
2511 08-02-2015 07:35:00 3.4 C 5.37 g/m*3 -0.4 C 16.1 km/h
2512 08-02-2015 07:40:00 3.2 C 5.3 g/m*3 0.99 C 8.1 km/h
2513 08-02-2015 07:45:00 3.2 C 5.3 g/m*3 0.99 C 8.1 km/h
2514 08-02-2015 07:50:00 3.1 C 5.27 g/m*3 0.87 C 8.1 km/h
2515 08-02-2015 07:55:00 3.1 C 5.21 g/m*3 3.1 C 3.2 km/h
2516 08-02-2015 08:00:00 3.1 C 5.21 g/m*3 0.87 C 8.1 km/h
2517 08-02-2015 08:05:00 3.1 C 5.15 g/m*3 3.1 C 4.8 km/h
2518 08-02-2015 08:10:00 3.2 C 5.18 g/m*3 -0.1 C 12.9 km/h
2519 08-02-2015 08:15:00 3.3 C 5.16 g/m*3 -1.19 C 20.9 km/h
2520 08-02-2015 08:20:00 3.3 C 5.1 g/m*3 -0.52 C 16.1 km/h
2521 08-02-2015 08:25:00 3.4 C 5.19 g/m*3 0.14 C 12.9 km/h
2522 08-02-2015 08:30:00 3.3 C 5.16 g/m*3 0.34 C 11.3 km/h
2523 08-02-2015 08:35:00 3.3 C 5.16 g/m*3 0.34 C 11.3 km/h
2524 08-02-2015 08:40:00 3.3 C 5.16 g/m*3 3.3 C 4.8 km/h
2525 08-02-2015 08:45:00 3.3 C 5.22 g/m*3 3.3 C 3.2 km/h
Sensor: Nr:Datum:Temp:Abs-Feuchte:Windchill:Wind:
Aussen-T/F 2526 08-02-2015 08:50:00 3.3 C 5.16 g/m*3 3.3 C 4.8 km/h
2527 08-02-2015 08:55:00 3.3 C 5.16 g/m*3 1.63 C 6.4 km/h
2528 08-02-2015 09:00:00 3.3 C 5.16 g/m*3 1.63 C 6.4 km/h
2529 08-02-2015 09:05:00 3.3 C 5.1 g/m*3 1.63 C 6.4 km/h
2530 08-02-2015 09:10:00 3.4 C 5.07 g/m*3 -0.4 C 16.1 km/h
2531 08-02-2015 09:15:00 3.5 C 5.1 g/m*3 0.94 C 9.7 km/h
2532 08-02-2015 09:20:00 3.6 C 5.08 g/m*3 1.06 C 9.7 km/h
2533 08-02-2015 09:25:00 3.6 C 5.01 g/m*3 0.7 C 11.3 km/h
2534 08-02-2015 09:30:00 3.7 C 5.05 g/m*3 1.58 C 8.1 km/h
2535 08-02-2015 09:35:00 3.7 C 4.99 g/m*3 3.7 C 4.8 km/h
2536 08-02-2015 09:40:00 3.7 C 4.99 g/m*3 0.82 C 11.3 km/h
2537 08-02-2015 09:45:00 3.7 C 5.05 g/m*3 -0.03 C 16.1 km/h
2538 08-02-2015 09:50:00 3.6 C 5.08 g/m*3 0.39 C 12.9 km/h
2539 08-02-2015 09:55:00 3.6 C 5.14 g/m*3 0.39 C 12.9 km/h
2540 08-02-2015 10:00:00 3.5 C 5.16 g/m*3 -0.28 C 16.1 km/h
2541 08-02-2015 10:05:00 3.4 C 5.19 g/m*3 -0.14 C 14.5 km/h
2542 08-02-2015 10:10:00 3.4 C 5.25 g/m*3 0.46 C 11.3 km/h
2543 08-02-2015 10:15:00 3.4 C 5.25 g/m*3 -0.14 C 14.5 km/h
2544 08-02-2015 10:20:00 3.3 C 5.22 g/m*3 0.7 C 9.7 km/h
2545 08-02-2015 10:25:00 3.2 C 5.24 g/m*3 -0.1 C 12.9 km/h
2546 08-02-2015 10:30:00 3.1 C 5.27 g/m*3 0.87 C 8.1 km/h
2547 08-02-2015 10:35:00 3.1 C 5.33 g/m*3 0.1 C 11.3 km/h
2548 08-02-2015 10:40:00 3.2 C 5.36 g/m*3 0.99 C 8.1 km/h
2549 08-02-2015 10:45:00 3.3 C 5.34 g/m*3 -1.19 C 20.9 km/h
2550 08-02-2015 10:50:00 3.4 C 5.31 g/m*3 -0.86 C 19.3 km/h
Sensor: Nr:Datum:Temp:Abs-Feuchte:Windchill:Wind:
Aussen-T/F 2551 08-02-2015 10:55:00 3.6 C 5.32 g/m*3 -1.19 C 24.1 km/h
2552 08-02-2015 11:00:00 3.7 C 5.17 g/m*3 -0.26 C 17.7 km/h
2553 08-02-2015 11:05:00 3.8 C 5.21 g/m*3 -0.93 C 24.1 km/h
2554 08-02-2015 11:10:00 3.9 C 5.12 g/m*3 -0.01 C 17.7 km/h
2555 08-02-2015 11:15:00 4.1 C 5.18 g/m*3 0.02 C 19.3 km/h
2556 08-02-2015 11:20:00 4.2 C 5.15 g/m*3 0.15 C 19.3 km/h
2557 08-02-2015 11:25:00 4.1 C 5.06 g/m*3 -0.18 C 20.9 km/h
2558 08-02-2015 11:30:00 4 C 5.02 g/m*3 -0.11 C 19.3 km/h
2559 08-02-2015 11:35:00 3.9 C 4.99 g/m*3 -0.43 C 20.9 km/h
2560 08-02-2015 11:40:00 3.9 C 4.99 g/m*3 -0.43 C 20.9 km/h
2561 08-02-2015 11:45:00 3.9 C 4.99 g/m*3 0.47 C 14.5 km/h
2562 08-02-2015 11:50:00 3.9 C 4.99 g/m*3 -0.43 C 20.9 km/h
2563 08-02-2015 11:55:00 3.8 C 4.96 g/m*3 -0.56 C 20.9 km/h
2564 08-02-2015 12:00:00 3.8 C 4.96 g/m*3 0.35 C 14.5 km/h
2565 08-02-2015 12:05:00 3.8 C 4.96 g/m*3 0.1 C 16.1 km/h
2566 08-02-2015 12:10:00 3.9 C 4.93 g/m*3 -0.8 C 24.1 km/h
2567 08-02-2015 12:15:00 3.9 C 4.86 g/m*3 -0.01 C 17.7 km/h
2568 08-02-2015 12:20:00 4 C 4.83 g/m*3 0.34 C 16.1 km/h
2569 08-02-2015 12:25:00 4.1 C 4.8 g/m*3 -0.18 C 20.9 km/h
2570 08-02-2015 12:30:00 4.1 C 4.86 g/m*3 0.02 C 19.3 km/h
2571 08-02-2015 12:35:00 4.2 C 4.96 g/m*3 1.12 C 12.9 km/h
2572 08-02-2015 12:40:00 4.2 C 4.9 g/m*3 1.43 C 11.3 km/h
2573 08-02-2015 12:45:00 4.3 C 4.86 g/m*3 0.72 C 16.1 km/h
2574 08-02-2015 12:50:00 4.5 C 4.73 g/m*3 0.52 C 19.3 km/h
2575 08-02-2015 12:55:00 4.6 C 4.57 g/m*3 0.65 C 19.3 km/h
Sensor: Nr:Datum:Temp:Abs-Feuchte:Windchill:Wind:
Aussen-T/F 2576 08-02-2015 13:00:00 4.6 C 4.63 g/m*3 0.86 C 17.7 km/h
2577 08-02-2015 13:05:00 4.5 C 4.54 g/m*3 0.96 C 16.1 km/h
2578 08-02-2015 13:10:00 4.5 C 4.54 g/m*3 1.21 C 14.5 km/h
2579 08-02-2015 13:15:00 4.6 C 4.5 g/m*3 0.45 C 20.9 km/h
2580 08-02-2015 13:20:00 4.7 C 4.6 g/m*3 0.58 C 20.9 km/h
2581 08-02-2015 13:25:00 4.8 C 4.56 g/m*3 0.52 C 22.5 km/h
2582 08-02-2015 13:30:00 4.8 C 4.49 g/m*3 1.11 C 17.7 km/h
2583 08-02-2015 13:35:00 4.7 C 4.4 g/m*3 1.73 C 12.9 km/h
2584 08-02-2015 13:40:00 4.8 C 4.56 g/m*3 1.58 C 14.5 km/h
2585 08-02-2015 13:45:00 4.9 C 4.52 g/m*3 0.83 C 20.9 km/h
2586 08-02-2015 13:50:00 4.9 C 4.46 g/m*3 0.65 C 22.5 km/h
2587 08-02-2015 13:55:00 4.8 C 4.49 g/m*3 1.34 C 16.1 km/h
2588 08-02-2015 14:00:00 4.9 C 4.59 g/m*3 1.24 C 17.7 km/h
2589 08-02-2015 14:05:00 5 C 4.48 g/m*3 0.78 C 22.5 km/h
2590 08-02-2015 14:10:00 4.9 C 4.46 g/m*3 0.83 C 20.9 km/h
2591 08-02-2015 14:15:00 4.8 C 4.43 g/m*3 1.58 C 14.5 km/h
2592 08-02-2015 14:20:00 4.7 C 4.46 g/m*3 0.78 C 19.3 km/h
2593 08-02-2015 14:25:00 4.8 C 4.49 g/m*3 1.11 C 17.7 km/h
2594 08-02-2015 14:30:00 4.9 C 4.46 g/m*3 0.83 C 20.9 km/h
2595 08-02-2015 14:35:00 5 C 4.48 g/m*3 0.78 C 22.5 km/h
2596 08-02-2015 14:40:00 5 C 4.28 g/m*3 1.15 C 19.3 km/h
2597 08-02-2015 14:45:00 4.9 C 4.25 g/m*3 0.65 C 22.5 km/h
2598 08-02-2015 14:50:00 4.9 C 4.32 g/m*3 1.46 C 16.1 km/h
2599 08-02-2015 14:55:00 4.9 C 4.32 g/m*3 1.24 C 17.7 km/h
2600 08-02-2015 15:00:00 4.8 C 4.22 g/m*3 1.11 C 17.7 km/h
Sensor: Nr:Datum:Temp:Abs-Feuchte:Windchill:Wind:
Aussen-T/F 2601 08-02-2015 15:05:00 4.9 C 4.19 g/m*3 1.46 C 16.1 km/h
2602 08-02-2015 15:10:00 5 C 4.28 g/m*3 1.15 C 19.3 km/h
2603 08-02-2015 15:15:00 5.1 C 4.31 g/m*3 2.22 C 12.9 km/h
2604 08-02-2015 15:20:00 5.1 C 4.17 g/m*3 0.74 C 24.1 km/h
2605 08-02-2015 15:25:00 4.9 C 4.19 g/m*3 0.83 C 20.9 km/h
2606 08-02-2015 15:30:00 4.8 C 4.16 g/m*3 0.71 C 20.9 km/h
2607 08-02-2015 15:35:00 4.8 C 4.09 g/m*3 1.11 C 17.7 km/h
2608 08-02-2015 15:40:00 4.7 C 4 g/m*3 1.46 C 14.5 km/h
2609 08-02-2015 15:45:00 4.6 C 3.97 g/m*3 1.34 C 14.5 km/h
2610 08-02-2015 15:50:00 4.5 C 3.94 g/m*3 0.96 C 16.1 km/h
2611 08-02-2015 15:55:00 4.5 C 4.01 g/m*3 0.96 C 16.1 km/h
2612 08-02-2015 16:00:00 4.4 C 3.98 g/m*3 0.61 C 17.7 km/h
2613 08-02-2015 16:05:00 4.4 C 3.92 g/m*3 1.09 C 14.5 km/h
2614 08-02-2015 16:10:00 4.4 C 3.92 g/m*3 0.84 C 16.1 km/h
2615 08-02-2015 16:15:00 4.3 C 3.89 g/m*3 1.55 C 11.3 km/h
2616 08-02-2015 16:20:00 4.3 C 3.89 g/m*3 0.72 C 16.1 km/h
2617 08-02-2015 16:25:00 4.3 C 3.89 g/m*3 1.55 C 11.3 km/h
2618 08-02-2015 16:30:00 4.3 C 3.89 g/m*3 0.27 C 19.3 km/h
2619 08-02-2015 16:35:00 4.2 C 3.87 g/m*3 0.15 C 19.3 km/h
2620 08-02-2015 16:40:00 4.2 C 3.93 g/m*3 1.43 C 11.3 km/h
2621 08-02-2015 16:45:00 4.1 C 3.9 g/m*3 1.31 C 11.3 km/h
2622 08-02-2015 16:50:00 3.9 C 3.92 g/m*3 0.75 C 12.9 km/h
2623 08-02-2015 16:55:00 3.9 C 3.92 g/m*3 2.32 C 6.4 km/h
2624 08-02-2015 17:00:00 3.8 C 3.89 g/m*3 1.7 C 8.1 km/h
2625 08-02-2015 17:05:00 3.7 C 4.05 g/m*3 3.7 C 4.8 km/h
Sensor: Nr:Datum:Temp:Abs-Feuchte:Windchill:Wind:
Aussen-T/F 2626 08-02-2015 17:10:00 3.4 C 4.09 g/m*3 3.4 C 4.8 km/h
2627 08-02-2015 17:15:00 3.3 C 4.13 g/m*3 1.63 C 6.4 km/h
2628 08-02-2015 17:20:00 3.3 C 4.13 g/m*3 1.63 C 6.4 km/h
2629 08-02-2015 17:25:00 3.2 C 4.22 g/m*3 3.2 C 1.6 km/h
2630 08-02-2015 17:30:00 2.9 C 4.19 g/m*3 0.64 C 8.1 km/h
2631 08-02-2015 17:35:00 2.9 C 4.25 g/m*3 1.17 C 6.4 km/h
2632 08-02-2015 17:40:00 2.9 C 4.25 g/m*3 2.9 C 3.2 km/h
2633 08-02-2015 17:45:00 2.9 C 4.19 g/m*3 2.9 C 4.8 km/h
2634 08-02-2015 17:50:00 2.7 C 4.31 g/m*3 2.7 C 3.2 km/h
2635 08-02-2015 17:55:00 2.5 C 4.31 g/m*3 2.5 C 1.6 km/h
2636 08-02-2015 18:00:00 2.2 C 4.28 g/m*3 2.2 C 1.6 km/h
2637 08-02-2015 18:05:00 2.1 C 4.25 g/m*3 2.1 C 3.2 km/h
2638 08-02-2015 18:10:00 1.9 C 4.25 g/m*3 1.9 C 3.2 km/h
2639 08-02-2015 18:15:00 1.7 C 4.19 g/m*3 1.7 C 3.2 km/h
2640 08-02-2015 18:20:00 1.6 C 4.22 g/m*3 1.6 C 3.2 km/h
2641 08-02-2015 18:25:00 1.4 C 4.21 g/m*3 1.4 C 3.2 km/h
2642 08-02-2015 18:30:00 1.3 C 4.24 g/m*3 1.3 C 3.2 km/h
2643 08-02-2015 18:35:00 1.2 C 4.26 g/m*3 1.2 C 3.2 km/h
2644 08-02-2015 18:40:00 1.1 C 4.29 g/m*3 1.1 C 3.2 km/h
2645 08-02-2015 18:45:00 1 C 4.26 g/m*3 1 C 3.2 km/h
2646 08-02-2015 18:50:00 1 C 4.26 g/m*3 1 C 3.2 km/h
2647 08-02-2015 18:55:00 1.1 C 4.29 g/m*3 1.1 C 3.2 km/h
2648 08-02-2015 19:00:00 1.2 C 4.26 g/m*3 1.2 C 3.2 km/h
2649 08-02-2015 19:05:00 1.3 C 4.29 g/m*3 1.3 C 3.2 km/h
2650 08-02-2015 19:10:00 1.3 C 4.29 g/m*3 1.3 C 3.2 km/h
Sensor: Nr:Datum:Temp:Abs-Feuchte:Windchill:Wind:
Aussen-T/F 2651 08-02-2015 19:15:00 1.3 C 4.29 g/m*3 1.3 C 1.6 km/h
2652 08-02-2015 19:20:00 1.2 C 4.26 g/m*3 1.2 C 3.2 km/h
2653 08-02-2015 19:25:00 1.1 C 4.29 g/m*3 1.1 C 4.8 km/h
2654 08-02-2015 19:30:00 0.9 C 4.28 g/m*3 0.9 C 4.8 km/h
2655 08-02-2015 19:35:00 0.9 C 4.28 g/m*3 0.9 C 1.6 km/h
2656 08-02-2015 19:40:00 1.2 C 4.26 g/m*3 1.2 C 3.2 km/h
2657 08-02-2015 19:45:00 1.3 C 4.24 g/m*3 1.3 C 3.2 km/h
2658 08-02-2015 19:50:00 1.3 C 4.24 g/m*3 1.3 C 4.8 km/h
2659 08-02-2015 19:55:00 1.3 C 4.19 g/m*3 1.3 C 4.8 km/h
2660 08-02-2015 20:00:00 1.3 C 4.24 g/m*3 1.3 C 3.2 km/h
2661 08-02-2015 20:05:00 1.1 C 4.23 g/m*3 1.1 C 3.2 km/h
2662 08-02-2015 20:10:00 1 C 4.31 g/m*3 1 C 3.2 km/h
2663 08-02-2015 20:15:00 0.9 C 4.23 g/m*3 0.9 C 1.6 km/h
2664 08-02-2015 20:20:00 0.7 C 4.17 g/m*3 0.7 C 3.2 km/h
2665 08-02-2015 20:25:00 0.7 C 4.22 g/m*3 0.7 C 4.8 km/h
2666 08-02-2015 20:30:00 0.6 C 4.24 g/m*3 0.6 C 1.6 km/h
2667 08-02-2015 20:35:00 0.5 C 4.21 g/m*3 0.5 C 1.6 km/h
2668 08-02-2015 20:40:00 0.4 C 4.23 g/m*3 0.4 C 3.2 km/h
2669 08-02-2015 20:45:00 0.3 C 4.25 g/m*3 0.3 C 1.6 km/h
2670 08-02-2015 20:50:00 0.2 C 4.22 g/m*3 0.2 C 1.6 km/h
2671 08-02-2015 20:55:00 0.1 C 4.2 g/m*3 0.1 C 4.8 km/h
2672 08-02-2015 21:00:00 0.1 C 4.24 g/m*3 0.1 C 3.2 km/h
2673 08-02-2015 21:05:00 0.1 C 4.24 g/m*3 0.1 C 1.6 km/h
2674 08-02-2015 21:10:00 0.1 C 4.29 g/m*3 0.1 C 1.6 km/h
2675 08-02-2015 21:15:00 0.1 C 4.29 g/m*3 0.1 C 3.2 km/h
Sensor: Nr:Datum:Temp:Abs-Feuchte:Windchill:Wind:
Aussen-T/F 2676 08-02-2015 21:20:00 0.1 C 4.29 g/m*3 0.1 C 1.6 km/h
2677 08-02-2015 21:25:00 0.1 C 4.29 g/m*3 0.1 C 1.6 km/h
2678 08-02-2015 21:30:00 0.1 C 4.29 g/m*3 0.1 C 1.6 km/h
2679 08-02-2015 21:35:00 0.1 C 4.29 g/m*3 0.1 C 3.2 km/h
2680 08-02-2015 21:40:00 0.1 C 4.29 g/m*3 -2.07 C 6.4 km/h
2681 08-02-2015 21:45:00 0.2 C 4.32 g/m*3 0.2 C 1.6 km/h
2682 08-02-2015 21:50:00 0.2 C 4.37 g/m*3 0.2 C 1.6 km/h
2683 08-02-2015 21:55:00 0.3 C 4.4 g/m*3 0.3 C 1.6 km/h
2684 08-02-2015 22:00:00 0.4 C 4.38 g/m*3 0.4 C 3.2 km/h
2685 08-02-2015 22:05:00 0.4 C 4.38 g/m*3 0.4 C 3.2 km/h
2686 08-02-2015 22:10:00 0.5 C 4.41 g/m*3 0.5 C 3.2 km/h
2687 08-02-2015 22:15:00 0.6 C 4.44 g/m*3 0.6 C 4.8 km/h
2688 08-02-2015 22:20:00 0.6 C 4.44 g/m*3 0.6 C 0 km/h
2689 08-02-2015 22:25:00 0.6 C 4.44 g/m*3 0.6 C 0 km/h
2690 08-02-2015 22:30:00 0.7 C 4.53 g/m*3 0.7 C 3.2 km/h
2691 08-02-2015 22:35:00 0.7 C 4.53 g/m*3 0.7 C 3.2 km/h
2692 08-02-2015 22:40:00 0.8 C 4.51 g/m*3 0.8 C 3.2 km/h
2693 08-02-2015 22:45:00 0.8 C 4.51 g/m*3 0.8 C 0 km/h
2694 08-02-2015 22:50:00 0.8 C 4.51 g/m*3 0.8 C 0 km/h
2695 08-02-2015 22:55:00 0.9 C 4.54 g/m*3 0.9 C 1.6 km/h
2696 08-02-2015 23:00:00 1 C 4.62 g/m*3 1 C 1.6 km/h
2697 08-02-2015 23:05:00 1.1 C 4.6 g/m*3 1.1 C 4.8 km/h
2698 08-02-2015 23:10:00 1.1 C 4.6 g/m*3 1.1 C 0 km/h
2699 08-02-2015 23:15:00 1.1 C 4.6 g/m*3 1.1 C 4.8 km/h
2700 08-02-2015 23:20:00 1.2 C 4.68 g/m*3 1.2 C 3.2 km/h
Sensor: Nr:Datum:Temp:Abs-Feuchte:Windchill:Wind:
Aussen-T/F 2701 08-02-2015 23:25:00 1.3 C 4.72 g/m*3 1.3 C 3.2 km/h
2702 08-02-2015 23:30:00 1.3 C 4.66 g/m*3 -0.68 C 6.4 km/h
2703 08-02-2015 23:35:00 1.3 C 4.61 g/m*3 1.3 C 4.8 km/h
2704 08-02-2015 23:40:00 1.4 C 4.69 g/m*3 1.4 C 3.2 km/h
2705 08-02-2015 23:45:00 1.4 C 4.69 g/m*3 1.4 C 1.6 km/h
2706 08-02-2015 23:50:00 1.5 C 4.67 g/m*3 1.5 C 4.8 km/h
2707 08-02-2015 23:55:00 1.6 C 4.7 g/m*3 1.6 C 3.2 km/h
2708 09-02-2015 00:00:00 1.5 C 4.67 g/m*3 1.5 C 3.2 km/h
2709 09-02-2015 00:05:00 1.5 C 4.67 g/m*3 1.5 C 1.6 km/h
2710 09-02-2015 00:10:00 1.5 C 4.67 g/m*3 1.5 C 1.6 km/h
2711 09-02-2015 00:15:00 1.4 C 4.64 g/m*3 1.4 C 3.2 km/h
2712 09-02-2015 00:20:00 1.4 C 4.64 g/m*3 1.4 C 3.2 km/h
2713 09-02-2015 00:25:00 1.4 C 4.64 g/m*3 1.4 C 0 km/h
2714 09-02-2015 00:30:00 1.4 C 4.69 g/m*3 1.4 C 1.6 km/h
2715 09-02-2015 00:35:00 1.4 C 4.69 g/m*3 1.4 C 0 km/h
2716 09-02-2015 00:40:00 1.4 C 4.69 g/m*3 1.4 C 0 km/h
2717 09-02-2015 00:45:00 1.4 C 4.69 g/m*3 1.4 C 3.2 km/h
2718 09-02-2015 00:50:00 1.4 C 4.69 g/m*3 1.4 C 0 km/h
2719 09-02-2015 00:55:00 1.4 C 4.69 g/m*3 1.4 C 0 km/h
2720 09-02-2015 01:00:00 1.4 C 4.75 g/m*3 1.4 C 0 km/h
2721 09-02-2015 01:05:00 1.4 C 4.75 g/m*3 1.4 C 1.6 km/h
2722 09-02-2015 01:10:00 1.4 C 4.75 g/m*3 1.4 C 1.6 km/h
2723 09-02-2015 01:15:00 1.5 C 4.78 g/m*3 1.5 C 0 km/h
2724 09-02-2015 01:20:00 1.5 C 4.78 g/m*3 1.5 C 1.6 km/h
2725 09-02-2015 01:25:00 1.4 C 4.75 g/m*3 1.4 C 0 km/h
Sensor: Nr:Datum:Temp:Abs-Feuchte:Windchill:Wind:
Aussen-T/F 2726 09-02-2015 01:30:00 1.4 C 4.75 g/m*3 1.4 C 0 km/h
2727 09-02-2015 01:35:00 1.5 C 4.78 g/m*3 1.5 C 0 km/h
2728 09-02-2015 01:40:00 1.6 C 4.87 g/m*3 1.6 C 3.2 km/h
2729 09-02-2015 01:45:00 1.6 C 4.87 g/m*3 1.6 C 4.8 km/h
2730 09-02-2015 01:50:00 1.7 C 4.85 g/m*3 1.7 C 3.2 km/h
2731 09-02-2015 01:55:00 1.7 C 4.9 g/m*3 1.7 C 0 km/h
2732 09-02-2015 02:00:00 1.7 C 4.9 g/m*3 1.7 C 0 km/h
2733 09-02-2015 02:05:00 1.7 C 4.9 g/m*3 1.7 C 1.6 km/h
2734 09-02-2015 02:10:00 1.7 C 4.9 g/m*3 1.7 C 1.6 km/h
2735 09-02-2015 02:15:00 1.7 C 4.9 g/m*3 1.7 C 1.6 km/h
2736 09-02-2015 02:20:00 1.7 C 4.9 g/m*3 1.7 C 3.2 km/h
2737 09-02-2015 02:25:00 1.7 C 4.9 g/m*3 1.7 C 1.6 km/h
2738 09-02-2015 02:30:00 1.7 C 4.9 g/m*3 1.7 C 0 km/h
2739 09-02-2015 02:35:00 1.7 C 4.9 g/m*3 1.7 C 1.6 km/h
2740 09-02-2015 02:40:00 1.7 C 4.9 g/m*3 1.7 C 1.6 km/h
2741 09-02-2015 02:45:00 1.7 C 4.9 g/m*3 1.7 C 0 km/h
2742 09-02-2015 02:50:00 1.7 C 4.9 g/m*3 1.7 C 0 km/h
2743 09-02-2015 02:55:00 1.7 C 4.9 g/m*3 1.7 C 1.6 km/h
2744 09-02-2015 03:00:00 1.7 C 4.9 g/m*3 1.7 C 1.6 km/h
2745 09-02-2015 03:05:00 1.7 C 4.9 g/m*3 1.7 C 3.2 km/h
2746 09-02-2015 03:10:00 1.8 C 4.93 g/m*3 1.8 C 0 km/h
2747 09-02-2015 03:15:00 1.8 C 4.99 g/m*3 1.8 C 1.6 km/h
2748 09-02-2015 03:20:00 1.8 C 4.93 g/m*3 1.8 C 3.2 km/h
2749 09-02-2015 03:25:00 1.8 C 4.93 g/m*3 1.8 C 0 km/h
2750 09-02-2015 03:30:00 1.8 C 4.93 g/m*3 1.8 C 0 km/h
Sensor: Nr:Datum:Temp:Abs-Feuchte:Windchill:Wind:
Aussen-T/F 2751 09-02-2015 03:35:00 1.7 C 4.9 g/m*3 1.7 C 1.6 km/h
2752 09-02-2015 03:40:00 1.7 C 4.9 g/m*3 1.7 C 4.8 km/h
2753 09-02-2015 03:45:00 1.9 C 5.08 g/m*3 1.9 C 4.8 km/h
2754 09-02-2015 03:50:00 2.1 C 5.09 g/m*3 2.1 C 4.8 km/h
2755 09-02-2015 03:55:00 2.1 C 5.04 g/m*3 2.1 C 3.2 km/h
2756 09-02-2015 04:00:00 2.2 C 5.13 g/m*3 2.2 C 1.6 km/h
2757 09-02-2015 04:05:00 2.3 C 5.16 g/m*3 2.3 C 4.8 km/h
2758 09-02-2015 04:10:00 2.4 C 5.2 g/m*3 2.4 C 3.2 km/h
2759 09-02-2015 04:15:00 2.5 C 5.29 g/m*3 2.5 C 3.2 km/h
2760 09-02-2015 04:20:00 2.6 C 5.27 g/m*3 0.82 C 6.4 km/h
2761 09-02-2015 04:25:00 2.5 C 5.23 g/m*3 2.5 C 4.8 km/h
2762 09-02-2015 04:30:00 2.5 C 5.23 g/m*3 2.5 C 4.8 km/h
2763 09-02-2015 04:35:00 2.4 C 5.2 g/m*3 2.4 C 1.6 km/h
2764 09-02-2015 04:40:00 2.4 C 5.25 g/m*3 2.4 C 3.2 km/h
2765 09-02-2015 04:45:00 2.4 C 5.25 g/m*3 2.4 C 1.6 km/h
2766 09-02-2015 04:50:00 2.4 C 5.25 g/m*3 2.4 C 1.6 km/h
2767 09-02-2015 04:55:00 2.4 C 5.25 g/m*3 2.4 C 4.8 km/h
2768 09-02-2015 05:00:00 2.4 C 5.25 g/m*3 2.4 C 3.2 km/h
2769 09-02-2015 05:05:00 2.4 C 5.25 g/m*3 2.4 C 3.2 km/h
2770 09-02-2015 05:10:00 2.4 C 5.25 g/m*3 2.4 C 0 km/h
2771 09-02-2015 05:15:00 2.3 C 5.22 g/m*3 2.3 C 4.8 km/h
2772 09-02-2015 05:20:00 2.3 C 5.22 g/m*3 2.3 C 1.6 km/h
2773 09-02-2015 05:25:00 2.3 C 5.27 g/m*3 2.3 C 1.6 km/h
2774 09-02-2015 05:30:00 2.3 C 5.27 g/m*3 2.3 C 4.8 km/h
2775 09-02-2015 05:35:00 2.3 C 5.27 g/m*3 2.3 C 1.6 km/h
Sensor: Nr:Datum:Temp:Abs-Feuchte:Windchill:Wind:
Aussen-T/F 2776 09-02-2015 05:40:00 2.3 C 5.27 g/m*3 2.3 C 1.6 km/h
2777 09-02-2015 05:45:00 2.4 C 5.31 g/m*3 2.4 C 1.6 km/h
2778 09-02-2015 05:50:00 2.4 C 5.31 g/m*3 2.4 C 3.2 km/h
2779 09-02-2015 05:55:00 2.5 C 5.35 g/m*3 2.5 C 3.2 km/h
2780 09-02-2015 06:00:00 2.5 C 5.35 g/m*3 2.5 C 3.2 km/h
2781 09-02-2015 06:05:00 2.5 C 5.35 g/m*3 2.5 C 3.2 km/h
2782 09-02-2015 06:10:00 2.6 C 5.38 g/m*3 2.6 C 4.8 km/h
2783 09-02-2015 06:15:00 2.6 C 5.32 g/m*3 2.6 C 1.6 km/h
2784 09-02-2015 06:20:00 2.6 C 5.32 g/m*3 2.6 C 3.2 km/h
2785 09-02-2015 06:25:00 2.7 C 5.36 g/m*3 0.94 C 6.4 km/h
2786 09-02-2015 06:30:00 2.8 C 5.34 g/m*3 2.8 C 3.2 km/h
2787 09-02-2015 06:35:00 2.9 C 5.37 g/m*3 2.9 C 1.6 km/h
2788 09-02-2015 06:40:00 2.9 C 5.32 g/m*3 2.9 C 1.6 km/h
2789 09-02-2015 06:45:00 2.9 C 5.32 g/m*3 2.9 C 1.6 km/h
2790 09-02-2015 06:50:00 2.9 C 5.32 g/m*3 2.9 C 0 km/h
2791 09-02-2015 06:55:00 2.8 C 5.34 g/m*3 2.8 C 3.2 km/h
2792 09-02-2015 07:00:00 2.8 C 5.34 g/m*3 2.8 C 1.6 km/h
2793 09-02-2015 07:05:00 2.8 C 5.34 g/m*3 2.8 C 1.6 km/h
2794 09-02-2015 07:10:00 2.8 C 5.34 g/m*3 2.8 C 4.8 km/h
2795 09-02-2015 07:15:00 2.8 C 5.34 g/m*3 2.8 C 3.2 km/h
2796 09-02-2015 07:20:00 2.9 C 5.37 g/m*3 2.9 C 1.6 km/h
2797 09-02-2015 07:25:00 3.1 C 5.45 g/m*3 0.87 C 8.1 km/h
2798 09-02-2015 07:30:00 3.3 C 5.52 g/m*3 1.11 C 8.1 km/h
2799 09-02-2015 07:35:00 3.6 C 5.57 g/m*3 1.98 C 6.4 km/h
2800 09-02-2015 07:40:00 3.7 C 5.61 g/m*3 1.58 C 8.1 km/h
Sensor: Nr:Datum:Temp:Abs-Feuchte:Windchill:Wind:
Aussen-T/F 2801 09-02-2015 07:45:00 4.1 C 5.76 g/m*3 1 C 12.9 km/h
2802 09-02-2015 07:50:00 4.3 C 5.77 g/m*3 1.89 C 9.7 km/h
2803 09-02-2015 07:55:00 4.3 C 5.77 g/m*3 1.24 C 12.9 km/h
2804 09-02-2015 08:00:00 4.4 C 5.81 g/m*3 1.67 C 11.3 km/h
2805 09-02-2015 08:05:00 4.3 C 5.77 g/m*3 1.89 C 9.7 km/h
2806 09-02-2015 08:10:00 4.3 C 5.77 g/m*3 1.89 C 9.7 km/h
2807 09-02-2015 08:15:00 4.3 C 5.77 g/m*3 2.29 C 8.1 km/h
2808 09-02-2015 08:20:00 4.2 C 5.73 g/m*3 4.2 C 4.8 km/h
2809 09-02-2015 08:25:00 4.2 C 5.67 g/m*3 1.77 C 9.7 km/h
2810 09-02-2015 08:30:00 4.2 C 5.67 g/m*3 2.17 C 8.1 km/h
2811 09-02-2015 08:35:00 4.3 C 5.64 g/m*3 0.97 C 14.5 km/h
2812 09-02-2015 08:40:00 4.3 C 5.64 g/m*3 0.97 C 14.5 km/h
2813 09-02-2015 08:45:00 4.4 C 5.68 g/m*3 0.84 C 16.1 km/h
2814 09-02-2015 08:50:00 4.4 C 5.62 g/m*3 0.84 C 16.1 km/h
2815 09-02-2015 08:55:00 4.4 C 5.62 g/m*3 4.4 C 4.8 km/h
2816 09-02-2015 09:00:00 4.5 C 5.65 g/m*3 1.79 C 11.3 km/h
2817 09-02-2015 09:05:00 4.6 C 5.69 g/m*3 2.25 C 9.7 km/h
2818 09-02-2015 09:10:00 4.6 C 5.62 g/m*3 2.64 C 8.1 km/h
2819 09-02-2015 09:15:00 4.6 C 5.62 g/m*3 3.13 C 6.4 km/h
2820 09-02-2015 09:20:00 4.7 C 5.6 g/m*3 3.25 C 6.4 km/h
2821 09-02-2015 09:25:00 4.7 C 5.6 g/m*3 2.76 C 8.1 km/h
2822 09-02-2015 09:30:00 4.7 C 5.6 g/m*3 2.37 C 9.7 km/h
2823 09-02-2015 09:35:00 4.7 C 5.6 g/m*3 2.76 C 8.1 km/h
2824 09-02-2015 09:40:00 4.7 C 5.6 g/m*3 4.7 C 4.8 km/h
2825 09-02-2015 09:45:00 4.7 C 5.6 g/m*3 2.37 C 9.7 km/h
Sensor: Nr:Datum:Temp:Abs-Feuchte:Windchill:Wind:
Aussen-T/F 2826 09-02-2015 09:50:00 4.7 C 5.6 g/m*3 2.76 C 8.1 km/h
2827 09-02-2015 09:55:00 4.7 C 5.6 g/m*3 2.37 C 9.7 km/h
2828 09-02-2015 10:00:00 4.8 C 5.63 g/m*3 2.87 C 8.1 km/h
2829 09-02-2015 10:05:00 4.8 C 5.63 g/m*3 2.15 C 11.3 km/h
2830 09-02-2015 10:10:00 4.9 C 5.67 g/m*3 2.99 C 8.1 km/h
2831 09-02-2015 10:15:00 4.9 C 5.74 g/m*3 3.48 C 6.4 km/h
2832 09-02-2015 10:20:00 4.9 C 5.74 g/m*3 2.61 C 9.7 km/h
2833 09-02-2015 10:25:00 4.9 C 5.81 g/m*3 2.61 C 9.7 km/h
2834 09-02-2015 10:30:00 4.9 C 5.81 g/m*3 3.48 C 6.4 km/h
2835 09-02-2015 10:35:00 4.9 C 5.87 g/m*3 2.99 C 8.1 km/h
2836 09-02-2015 10:40:00 4.9 C 5.94 g/m*3 3.48 C 6.4 km/h
2837 09-02-2015 10:45:00 4.8 C 5.9 g/m*3 3.36 C 6.4 km/h
2838 09-02-2015 10:50:00 4.7 C 5.93 g/m*3 2.37 C 9.7 km/h
2839 09-02-2015 10:55:00 4.7 C 5.93 g/m*3 4.7 C 4.8 km/h
2840 09-02-2015 11:00:00 4.7 C 6 g/m*3 2.76 C 8.1 km/h
2841 09-02-2015 11:05:00 4.6 C 5.96 g/m*3 3.13 C 6.4 km/h
2842 09-02-2015 11:10:00 4.6 C 6.02 g/m*3 3.13 C 6.4 km/h
2843 09-02-2015 11:15:00 4.6 C 6.02 g/m*3 2.64 C 8.1 km/h
2844 09-02-2015 11:20:00 4.7 C 6.06 g/m*3 4.7 C 4.8 km/h
2845 09-02-2015 11:25:00 4.7 C 6.06 g/m*3 4.7 C 4.8 km/h
2846 09-02-2015 11:30:00 4.8 C 6.04 g/m*3 2.87 C 8.1 km/h
2847 09-02-2015 11:35:00 4.8 C 6.04 g/m*3 4.8 C 4.8 km/h
2848 09-02-2015 11:40:00 4.8 C 6.04 g/m*3 3.36 C 6.4 km/h
2849 09-02-2015 11:45:00 4.8 C 5.97 g/m*3 3.36 C 6.4 km/h
2850 09-02-2015 11:50:00 4.9 C 6.08 g/m*3 2.99 C 8.1 km/h
Sensor: Nr:Datum:Temp:Abs-Feuchte:Windchill:Wind:
Aussen-T/F 2851 09-02-2015 11:55:00 5 C 6.05 g/m*3 2.39 C 11.3 km/h
2852 09-02-2015 12:00:00 5.1 C 6.09 g/m*3 2.84 C 9.7 km/h
2853 09-02-2015 12:05:00 5.1 C 6.09 g/m*3 3.71 C 6.4 km/h
2854 09-02-2015 12:10:00 5.2 C 6.13 g/m*3 5.2 C 4.8 km/h
2855 09-02-2015 12:15:00 5.3 C 6.17 g/m*3 5.3 C 4.8 km/h
2856 09-02-2015 12:20:00 5.4 C 6.21 g/m*3 4.06 C 6.4 km/h
2857 09-02-2015 12:25:00 5.6 C 6.29 g/m*3 3.44 C 9.7 km/h
2858 09-02-2015 12:30:00 5.7 C 6.26 g/m*3 3.56 C 9.7 km/h
2859 09-02-2015 12:35:00 5.8 C 6.3 g/m*3 3.07 C 12.9 km/h
2860 09-02-2015 12:40:00 5.8 C 6.3 g/m*3 3.07 C 12.9 km/h
2861 09-02-2015 12:45:00 5.8 C 6.3 g/m*3 4.05 C 8.1 km/h
2862 09-02-2015 12:50:00 5.8 C 6.3 g/m*3 4.52 C 6.4 km/h
2863 09-02-2015 12:55:00 5.9 C 6.42 g/m*3 3.48 C 11.3 km/h
2864 09-02-2015 13:00:00 5.9 C 6.35 g/m*3 2.93 C 14.5 km/h
2865 09-02-2015 13:05:00 5.9 C 6.42 g/m*3 3.19 C 12.9 km/h
2866 09-02-2015 13:10:00 5.9 C 6.42 g/m*3 3.8 C 9.7 km/h
2867 09-02-2015 13:15:00 5.9 C 6.35 g/m*3 5.9 C 4.8 km/h
2868 09-02-2015 13:20:00 5.9 C 6.35 g/m*3 4.17 C 8.1 km/h
2869 09-02-2015 13:25:00 5.9 C 6.35 g/m*3 5.9 C 3.2 km/h
2870 09-02-2015 13:30:00 5.8 C 6.38 g/m*3 3.36 C 11.3 km/h
2871 09-02-2015 13:35:00 5.8 C 6.38 g/m*3 3.36 C 11.3 km/h
2872 09-02-2015 13:40:00 5.7 C 6.33 g/m*3 2.45 C 16.1 km/h
2873 09-02-2015 13:45:00 5.7 C 6.33 g/m*3 3.93 C 8.1 km/h
2874 09-02-2015 13:50:00 5.7 C 6.33 g/m*3 2.95 C 12.9 km/h
2875 09-02-2015 13:55:00 5.8 C 6.38 g/m*3 3.07 C 12.9 km/h
Sensor: Nr:Datum:Temp:Abs-Feuchte:Windchill:Wind:
Aussen-T/F 2876 09-02-2015 14:00:00 5.8 C 6.3 g/m*3 4.05 C 8.1 km/h
2877 09-02-2015 14:05:00 5.8 C 6.38 g/m*3 5.8 C 3.2 km/h
2878 09-02-2015 14:10:00 5.8 C 6.38 g/m*3 3.68 C 9.7 km/h
2879 09-02-2015 14:15:00 5.7 C 6.33 g/m*3 2.95 C 12.9 km/h
2880 09-02-2015 14:20:00 5.7 C 6.4 g/m*3 3.56 C 9.7 km/h
2881 09-02-2015 14:25:00 5.6 C 6.36 g/m*3 3.81 C 8.1 km/h
2882 09-02-2015 14:30:00 5.4 C 6.35 g/m*3 3.2 C 9.7 km/h
2883 09-02-2015 14:35:00 5.4 C 6.35 g/m*3 4.06 C 6.4 km/h
2884 09-02-2015 14:40:00 5.3 C 6.31 g/m*3 5.3 C 4.8 km/h
2885 09-02-2015 14:45:00 5.3 C 6.31 g/m*3 5.3 C 3.2 km/h
2886 09-02-2015 14:50:00 5.3 C 6.31 g/m*3 5.3 C 1.6 km/h
2887 09-02-2015 14:55:00 5.3 C 6.31 g/m*3 3.94 C 6.4 km/h
2888 09-02-2015 15:00:00 5.3 C 6.31 g/m*3 3.08 C 9.7 km/h
2889 09-02-2015 15:05:00 5.3 C 6.31 g/m*3 3.94 C 6.4 km/h
2890 09-02-2015 15:10:00 5.3 C 6.31 g/m*3 3.46 C 8.1 km/h
2891 09-02-2015 15:15:00 5.3 C 6.31 g/m*3 3.08 C 9.7 km/h
2892 09-02-2015 15:20:00 5.3 C 6.31 g/m*3 3.08 C 9.7 km/h
2893 09-02-2015 15:25:00 5.3 C 6.31 g/m*3 5.3 C 4.8 km/h
2894 09-02-2015 15:30:00 5.3 C 6.38 g/m*3 5.3 C 4.8 km/h
2895 09-02-2015 15:35:00 5.2 C 6.33 g/m*3 5.2 C 4.8 km/h
2896 09-02-2015 15:40:00 5.2 C 6.33 g/m*3 5.2 C 4.8 km/h
2897 09-02-2015 15:45:00 5.2 C 6.33 g/m*3 3.82 C 6.4 km/h
2898 09-02-2015 15:50:00 5.2 C 6.4 g/m*3 5.2 C 0 km/h
2899 09-02-2015 15:55:00 5.1 C 6.36 g/m*3 5.1 C 4.8 km/h
2900 09-02-2015 16:00:00 5.1 C 6.36 g/m*3 5.1 C 4.8 km/h
Sensor: Nr:Datum:Temp:Abs-Feuchte:Windchill:Wind:
Aussen-T/F 2901 09-02-2015 16:05:00 5.1 C 6.36 g/m*3 5.1 C 4.8 km/h
2902 09-02-2015 16:10:00 5.1 C 6.36 g/m*3 3.71 C 6.4 km/h
2903 09-02-2015 16:15:00 5.1 C 6.36 g/m*3 2.51 C 11.3 km/h
2904 09-02-2015 16:20:00 5.1 C 6.36 g/m*3 5.1 C 3.2 km/h
2905 09-02-2015 16:25:00 5.1 C 6.36 g/m*3 5.1 C 3.2 km/h
2906 09-02-2015 16:30:00 5.1 C 6.36 g/m*3 5.1 C 1.6 km/h
2907 09-02-2015 16:35:00 5.1 C 6.36 g/m*3 5.1 C 3.2 km/h
2908 09-02-2015 16:40:00 5 C 6.32 g/m*3 5 C 4.8 km/h
2909 09-02-2015 16:45:00 5.1 C 6.36 g/m*3 5.1 C 3.2 km/h
2910 09-02-2015 16:50:00 5.1 C 6.36 g/m*3 5.1 C 4.8 km/h
2911 09-02-2015 16:55:00 5.1 C 6.36 g/m*3 5.1 C 3.2 km/h
2912 09-02-2015 17:00:00 5 C 6.32 g/m*3 5 C 3.2 km/h
2913 09-02-2015 17:05:00 5 C 6.32 g/m*3 5 C 3.2 km/h
2914 09-02-2015 17:10:00 4.9 C 6.28 g/m*3 4.9 C 3.2 km/h
2915 09-02-2015 17:15:00 4.9 C 6.28 g/m*3 4.9 C 3.2 km/h
2916 09-02-2015 17:20:00 4.9 C 6.28 g/m*3 4.9 C 3.2 km/h
2917 09-02-2015 17:25:00 4.9 C 6.28 g/m*3 3.48 C 6.4 km/h
2918 09-02-2015 17:30:00 4.9 C 6.28 g/m*3 4.9 C 1.6 km/h
2919 09-02-2015 17:35:00 4.9 C 6.28 g/m*3 4.9 C 4.8 km/h
2920 09-02-2015 17:40:00 4.9 C 6.35 g/m*3 4.9 C 3.2 km/h
2921 09-02-2015 17:45:00 4.9 C 6.35 g/m*3 4.9 C 3.2 km/h
2922 09-02-2015 17:50:00 4.9 C 6.28 g/m*3 4.9 C 4.8 km/h
2923 09-02-2015 17:55:00 4.9 C 6.28 g/m*3 4.9 C 4.8 km/h
2924 09-02-2015 18:00:00 5 C 6.32 g/m*3 5 C 3.2 km/h
2925 09-02-2015 18:05:00 5 C 6.32 g/m*3 5 C 4.8 km/h
Sensor: Nr:Datum:Temp:Abs-Feuchte:Windchill:Wind:
Aussen-T/F 2926 09-02-2015 18:10:00 5 C 6.32 g/m*3 5 C 4.8 km/h
2927 09-02-2015 18:15:00 5.1 C 6.36 g/m*3 3.23 C 8.1 km/h
2928 09-02-2015 18:20:00 5.1 C 6.36 g/m*3 3.71 C 6.4 km/h
2929 09-02-2015 18:25:00 5.1 C 6.36 g/m*3 5.1 C 3.2 km/h
2930 09-02-2015 18:30:00 5.1 C 6.36 g/m*3 3.23 C 8.1 km/h
2931 09-02-2015 18:35:00 5.1 C 6.36 g/m*3 5.1 C 3.2 km/h
2932 09-02-2015 18:40:00 5.1 C 6.36 g/m*3 3.71 C 6.4 km/h
2933 09-02-2015 18:45:00 5.1 C 6.36 g/m*3 3.71 C 6.4 km/h
2934 09-02-2015 18:50:00 5.1 C 6.36 g/m*3 5.1 C 1.6 km/h
2935 09-02-2015 18:55:00 5.1 C 6.36 g/m*3 5.1 C 1.6 km/h
2936 09-02-2015 19:00:00 5.1 C 6.36 g/m*3 5.1 C 3.2 km/h
2937 09-02-2015 19:05:00 5.1 C 6.36 g/m*3 5.1 C 3.2 km/h
2938 09-02-2015 19:10:00 5.1 C 6.36 g/m*3 5.1 C 0 km/h
2939 09-02-2015 19:15:00 5.1 C 6.36 g/m*3 3.71 C 6.4 km/h
2940 09-02-2015 19:20:00 5.1 C 6.36 g/m*3 5.1 C 0 km/h
2941 09-02-2015 19:25:00 5.1 C 6.36 g/m*3 5.1 C 3.2 km/h
2942 09-02-2015 19:30:00 5.1 C 6.43 g/m*3 5.1 C 1.6 km/h
2943 09-02-2015 19:35:00 5 C 6.39 g/m*3 5 C 4.8 km/h
2944 09-02-2015 19:40:00 5 C 6.39 g/m*3 5 C 3.2 km/h
2945 09-02-2015 19:45:00 5 C 6.39 g/m*3 2.09 C 12.9 km/h
2946 09-02-2015 19:50:00 5.1 C 6.43 g/m*3 5.1 C 1.6 km/h
2947 09-02-2015 19:55:00 5.1 C 6.43 g/m*3 5.1 C 3.2 km/h
2948 09-02-2015 20:00:00 5.1 C 6.43 g/m*3 5.1 C 3.2 km/h
2949 09-02-2015 20:05:00 5.1 C 6.36 g/m*3 5.1 C 1.6 km/h
2950 09-02-2015 20:10:00 5 C 6.32 g/m*3 5 C 1.6 km/h
Sensor: Nr:Datum:Temp:Abs-Feuchte:Windchill:Wind:
Aussen-T/F 2951 09-02-2015 20:15:00 5 C 6.39 g/m*3 5 C 1.6 km/h
2952 09-02-2015 20:20:00 5 C 6.39 g/m*3 5 C 1.6 km/h
2953 09-02-2015 20:25:00 4.9 C 6.28 g/m*3 4.9 C 3.2 km/h
2954 09-02-2015 20:30:00 5 C 6.39 g/m*3 5 C 3.2 km/h
2955 09-02-2015 20:35:00 5 C 6.32 g/m*3 5 C 0 km/h
2956 09-02-2015 20:40:00 5 C 6.32 g/m*3 5 C 1.6 km/h
2957 09-02-2015 20:45:00 5 C 6.32 g/m*3 5 C 0 km/h
2958 09-02-2015 20:50:00 4.9 C 6.35 g/m*3 4.9 C 3.2 km/h
2959 09-02-2015 20:55:00 5 C 6.39 g/m*3 5 C 1.6 km/h
2960 09-02-2015 21:00:00 5 C 6.39 g/m*3 5 C 0 km/h
2961 09-02-2015 21:05:00 5 C 6.39 g/m*3 5 C 4.8 km/h
2962 09-02-2015 21:10:00 5 C 6.39 g/m*3 5 C 0 km/h
2963 09-02-2015 21:15:00 5 C 6.39 g/m*3 5 C 4.8 km/h
2964 09-02-2015 21:20:00 5.1 C 6.43 g/m*3 5.1 C 4.8 km/h
2965 09-02-2015 21:25:00 5.1 C 6.43 g/m*3 5.1 C 4.8 km/h
2966 09-02-2015 21:30:00 5.1 C 6.43 g/m*3 5.1 C 0 km/h
2967 09-02-2015 21:35:00 5.1 C 6.5 g/m*3 5.1 C 1.6 km/h
2968 09-02-2015 21:40:00 4.9 C 6.35 g/m*3 4.9 C 0 km/h
2969 09-02-2015 21:45:00 4.9 C 6.41 g/m*3 4.9 C 0 km/h
2970 09-02-2015 21:50:00 4.8 C 6.37 g/m*3 4.8 C 0 km/h
2971 09-02-2015 21:55:00 4.8 C 6.37 g/m*3 4.8 C 3.2 km/h
2972 09-02-2015 22:00:00 4.8 C 6.37 g/m*3 4.8 C 0 km/h
2973 09-02-2015 22:05:00 4.7 C 6.33 g/m*3 4.7 C 3.2 km/h
2974 09-02-2015 22:10:00 4.7 C 6.33 g/m*3 4.7 C 3.2 km/h
2975 09-02-2015 22:15:00 4.7 C 6.33 g/m*3 4.7 C 1.6 km/h
Sensor: Nr:Datum:Temp:Abs-Feuchte:Windchill:Wind:
Aussen-T/F 2976 09-02-2015 22:20:00 4.7 C 6.39 g/m*3 4.7 C 1.6 km/h
2977 09-02-2015 22:25:00 4.7 C 6.39 g/m*3 4.7 C 1.6 km/h
2978 09-02-2015 22:30:00 4.7 C 6.39 g/m*3 4.7 C 0 km/h
2979 09-02-2015 22:35:00 4.7 C 6.39 g/m*3 4.7 C 1.6 km/h
2980 09-02-2015 22:40:00 4.7 C 6.39 g/m*3 4.7 C 3.2 km/h
2981 09-02-2015 22:45:00 4.7 C 6.39 g/m*3 4.7 C 1.6 km/h
2982 09-02-2015 22:50:00 4.6 C 6.35 g/m*3 4.6 C 0 km/h
2983 09-02-2015 22:55:00 4.7 C 6.39 g/m*3 4.7 C 3.2 km/h
2984 09-02-2015 23:00:00 4.7 C 6.39 g/m*3 4.7 C 4.8 km/h
2985 09-02-2015 23:05:00 4.7 C 6.39 g/m*3 4.7 C 1.6 km/h
2986 09-02-2015 23:10:00 4.7 C 6.39 g/m*3 4.7 C 0 km/h
2987 09-02-2015 23:15:00 4.7 C 6.39 g/m*3 4.7 C 1.6 km/h
2988 09-02-2015 23:20:00 4.7 C 6.39 g/m*3 4.7 C 1.6 km/h
2989 09-02-2015 23:25:00 4.7 C 6.39 g/m*3 4.7 C 3.2 km/h
2990 09-02-2015 23:30:00 4.7 C 6.39 g/m*3 4.7 C 3.2 km/h
2991 09-02-2015 23:35:00 4.7 C 6.39 g/m*3 4.7 C 3.2 km/h
2992 09-02-2015 23:40:00 4.7 C 6.39 g/m*3 4.7 C 4.8 km/h
2993 09-02-2015 23:45:00 4.7 C 6.39 g/m*3 4.7 C 1.6 km/h
2994 09-02-2015 23:50:00 4.7 C 6.39 g/m*3 4.7 C 1.6 km/h
2995 09-02-2015 23:55:00 4.7 C 6.39 g/m*3 4.7 C 4.8 km/h
2996 10-02-2015 00:00:00 4.7 C 6.33 g/m*3 3.25 C 6.4 km/h
2997 10-02-2015 00:05:00 4.7 C 6.33 g/m*3 4.7 C 1.6 km/h
2998 10-02-2015 00:10:00 4.6 C 6.29 g/m*3 4.6 C 1.6 km/h
2999 10-02-2015 00:15:00 4.7 C 6.33 g/m*3 4.7 C 0 km/h
3000 10-02-2015 00:20:00 4.6 C 6.29 g/m*3 4.6 C 0 km/h
Sensor: Nr:Datum:Temp:Abs-Feuchte:Windchill:Wind:
Aussen-T/F 3001 10-02-2015 00:25:00 4.6 C 6.29 g/m*3 4.6 C 3.2 km/h
3002 10-02-2015 00:30:00 4.5 C 6.24 g/m*3 4.5 C 0 km/h
3003 10-02-2015 00:35:00 4.4 C 6.27 g/m*3 4.4 C 0 km/h
3004 10-02-2015 00:40:00 4.4 C 6.27 g/m*3 4.4 C 0 km/h
3005 10-02-2015 00:45:00 4.4 C 6.27 g/m*3 4.4 C 0 km/h
3006 10-02-2015 00:50:00 4.3 C 6.23 g/m*3 4.3 C 0 km/h
3007 10-02-2015 00:55:00 4.3 C 6.23 g/m*3 4.3 C 0 km/h
3008 10-02-2015 01:00:00 4.3 C 6.23 g/m*3 4.3 C 0 km/h
3009 10-02-2015 01:05:00 4.3 C 6.23 g/m*3 4.3 C 1.6 km/h
3010 10-02-2015 01:10:00 4.3 C 6.23 g/m*3 4.3 C 0 km/h
3011 10-02-2015 01:15:00 4.3 C 6.23 g/m*3 4.3 C 1.6 km/h
3012 10-02-2015 01:20:00 4.3 C 6.23 g/m*3 4.3 C 0 km/h
3013 10-02-2015 01:25:00 4.2 C 6.19 g/m*3 4.2 C 3.2 km/h
3014 10-02-2015 01:30:00 4.2 C 6.19 g/m*3 4.2 C 0 km/h
3015 10-02-2015 01:35:00 4.2 C 6.19 g/m*3 4.2 C 0 km/h
3016 10-02-2015 01:40:00 4.2 C 6.19 g/m*3 4.2 C 0 km/h
3017 10-02-2015 01:45:00 4.2 C 6.19 g/m*3 4.2 C 0 km/h
3018 10-02-2015 01:50:00 4.2 C 6.19 g/m*3 4.2 C 1.6 km/h
3019 10-02-2015 01:55:00 4.2 C 6.25 g/m*3 4.2 C 1.6 km/h
3020 10-02-2015 02:00:00 4.2 C 6.19 g/m*3 4.2 C 0 km/h
3021 10-02-2015 02:05:00 4.2 C 6.19 g/m*3 4.2 C 1.6 km/h
3022 10-02-2015 02:10:00 4.2 C 6.19 g/m*3 4.2 C 3.2 km/h
3023 10-02-2015 02:15:00 4.2 C 6.19 g/m*3 4.2 C 1.6 km/h
3024 10-02-2015 02:20:00 4.2 C 6.19 g/m*3 4.2 C 3.2 km/h
3025 10-02-2015 02:25:00 4.2 C 6.19 g/m*3 4.2 C 1.6 km/h
Sensor: Nr:Datum:Temp:Abs-Feuchte:Windchill:Wind:
Aussen-T/F 3026 10-02-2015 02:30:00 4.2 C 6.19 g/m*3 4.2 C 1.6 km/h
3027 10-02-2015 02:35:00 4.2 C 6.19 g/m*3 4.2 C 1.6 km/h
3028 10-02-2015 02:40:00 4.2 C 6.19 g/m*3 4.2 C 1.6 km/h
3029 10-02-2015 02:45:00 4.2 C 6.25 g/m*3 4.2 C 3.2 km/h
3030 10-02-2015 02:50:00 4.2 C 6.25 g/m*3 4.2 C 3.2 km/h
3031 10-02-2015 02:55:00 4.2 C 6.19 g/m*3 4.2 C 3.2 km/h
3032 10-02-2015 03:00:00 4.2 C 6.19 g/m*3 4.2 C 3.2 km/h
3033 10-02-2015 03:05:00 4.3 C 6.23 g/m*3 4.3 C 3.2 km/h
3034 10-02-2015 03:10:00 4.3 C 6.23 g/m*3 4.3 C 0 km/h
3035 10-02-2015 03:15:00 4.3 C 6.23 g/m*3 4.3 C 0 km/h
3036 10-02-2015 03:20:00 4.3 C 6.23 g/m*3 4.3 C 0 km/h
3037 10-02-2015 03:25:00 4.3 C 6.23 g/m*3 4.3 C 0 km/h
3038 10-02-2015 03:30:00 4.3 C 6.23 g/m*3 4.3 C 1.6 km/h
3039 10-02-2015 03:35:00 4.3 C 6.29 g/m*3 4.3 C 1.6 km/h
3040 10-02-2015 03:40:00 4.3 C 6.23 g/m*3 4.3 C 0 km/h
3041 10-02-2015 03:45:00 4.3 C 6.23 g/m*3 4.3 C 0 km/h
3042 10-02-2015 03:50:00 4.2 C 6.19 g/m*3 4.2 C 3.2 km/h
3043 10-02-2015 03:55:00 4.3 C 6.23 g/m*3 4.3 C 3.2 km/h
3044 10-02-2015 04:00:00 4.2 C 6.19 g/m*3 4.2 C 1.6 km/h
3045 10-02-2015 04:05:00 4.2 C 6.19 g/m*3 4.2 C 1.6 km/h
3046 10-02-2015 04:10:00 4.2 C 6.25 g/m*3 4.2 C 3.2 km/h
3047 10-02-2015 04:15:00 4.2 C 6.25 g/m*3 4.2 C 0 km/h
3048 10-02-2015 04:20:00 4.3 C 6.29 g/m*3 4.3 C 0 km/h
3049 10-02-2015 04:25:00 4.3 C 6.29 g/m*3 4.3 C 0 km/h
3050 10-02-2015 04:30:00 4.3 C 6.29 g/m*3 4.3 C 0 km/h
Sensor: Nr:Datum:Temp:Abs-Feuchte:Windchill:Wind:
Aussen-T/F 3051 10-02-2015 04:35:00 4.3 C 6.23 g/m*3 4.3 C 0 km/h
3052 10-02-2015 04:40:00 4.3 C 6.29 g/m*3 4.3 C 0 km/h
3053 10-02-2015 04:45:00 4.3 C 6.29 g/m*3 4.3 C 0 km/h
3054 10-02-2015 04:50:00 4.3 C 6.29 g/m*3 4.3 C 1.6 km/h
3055 10-02-2015 04:55:00 4.3 C 6.29 g/m*3 4.3 C 1.6 km/h
3056 10-02-2015 05:00:00 4.3 C 6.29 g/m*3 4.3 C 0 km/h
3057 10-02-2015 05:05:00 4.3 C 6.29 g/m*3 4.3 C 0 km/h
3058 10-02-2015 05:10:00 4.3 C 6.29 g/m*3 4.3 C 0 km/h
3059 10-02-2015 05:15:00 4.3 C 6.29 g/m*3 4.3 C 1.6 km/h
3060 10-02-2015 05:20:00 4.3 C 6.29 g/m*3 4.3 C 0 km/h
3061 10-02-2015 05:25:00 4.3 C 6.29 g/m*3 4.3 C 0 km/h
3062 10-02-2015 05:30:00 4.3 C 6.29 g/m*3 4.3 C 0 km/h
3063 10-02-2015 05:35:00 4.3 C 6.29 g/m*3 4.3 C 0 km/h
3064 10-02-2015 05:40:00 4.2 C 6.25 g/m*3 4.2 C 0 km/h
3065 10-02-2015 05:45:00 4.2 C 6.25 g/m*3 4.2 C 1.6 km/h
3066 10-02-2015 05:50:00 4.2 C 6.25 g/m*3 4.2 C 0 km/h
3067 10-02-2015 05:55:00 4.3 C 6.29 g/m*3 4.3 C 0 km/h
3068 10-02-2015 06:00:00 4.2 C 6.25 g/m*3 4.2 C 0 km/h
3069 10-02-2015 06:05:00 4.2 C 6.25 g/m*3 4.2 C 0 km/h
3070 10-02-2015 06:10:00 4.2 C 6.25 g/m*3 4.2 C 0 km/h
3071 10-02-2015 06:15:00 4.2 C 6.25 g/m*3 4.2 C 0 km/h
3072 10-02-2015 06:20:00 4.2 C 6.25 g/m*3 4.2 C 0 km/h
3073 10-02-2015 06:25:00 4.2 C 6.25 g/m*3 4.2 C 0 km/h
3074 10-02-2015 06:30:00 4.3 C 6.29 g/m*3 4.3 C 0 km/h
3075 10-02-2015 06:35:00 4.3 C 6.29 g/m*3 4.3 C 0 km/h
Sensor: Nr:Datum:Temp:Abs-Feuchte:Windchill:Wind:
Aussen-T/F 3076 10-02-2015 06:40:00 4.2 C 6.25 g/m*3 4.2 C 0 km/h
3077 10-02-2015 06:45:00 4.2 C 6.25 g/m*3 4.2 C 1.6 km/h
3078 10-02-2015 06:50:00 4.3 C 6.29 g/m*3 4.3 C 0 km/h
3079 10-02-2015 06:55:00 4.3 C 6.29 g/m*3 4.3 C 0 km/h
3080 10-02-2015 07:00:00 4.3 C 6.29 g/m*3 4.3 C 3.2 km/h
3081 10-02-2015 07:05:00 4.4 C 6.33 g/m*3 4.4 C 0 km/h
3082 10-02-2015 07:10:00 4.4 C 6.33 g/m*3 4.4 C 0 km/h
3083 10-02-2015 07:15:00 4.4 C 6.33 g/m*3 4.4 C 3.2 km/h
3084 10-02-2015 07:20:00 4.4 C 6.33 g/m*3 4.4 C 1.6 km/h
3085 10-02-2015 07:25:00 4.4 C 6.33 g/m*3 4.4 C 0 km/h
3086 10-02-2015 07:30:00 4.4 C 6.33 g/m*3 4.4 C 1.6 km/h
3087 10-02-2015 07:35:00 4.4 C 6.33 g/m*3 4.4 C 0 km/h
3088 10-02-2015 07:40:00 4.4 C 6.33 g/m*3 4.4 C 0 km/h
3089 10-02-2015 07:45:00 4.4 C 6.33 g/m*3 4.4 C 0 km/h
3090 10-02-2015 07:50:00 4.4 C 6.33 g/m*3 4.4 C 1.6 km/h
3091 10-02-2015 07:55:00 4.4 C 6.33 g/m*3 4.4 C 0 km/h
3092 10-02-2015 08:00:00 4.4 C 6.33 g/m*3 4.4 C 0 km/h
3093 10-02-2015 08:05:00 4.4 C 6.33 g/m*3 4.4 C 3.2 km/h
3094 10-02-2015 08:10:00 4.3 C 6.29 g/m*3 4.3 C 1.6 km/h
3095 10-02-2015 08:15:00 4.4 C 6.33 g/m*3 4.4 C 0 km/h
3096 10-02-2015 08:20:00 4.4 C 6.33 g/m*3 4.4 C 1.6 km/h
3097 10-02-2015 08:25:00 4.4 C 6.33 g/m*3 4.4 C 1.6 km/h
3098 10-02-2015 08:30:00 4.4 C 6.33 g/m*3 4.4 C 0 km/h
3099 10-02-2015 08:35:00 4.4 C 6.33 g/m*3 4.4 C 1.6 km/h
3100 10-02-2015 08:40:00 4.4 C 6.33 g/m*3 4.4 C 0 km/h
Sensor: Nr:Datum:Temp:Abs-Feuchte:Windchill:Wind:
Aussen-T/F 3101 10-02-2015 08:45:00 4.4 C 6.33 g/m*3 4.4 C 1.6 km/h
3102 10-02-2015 08:50:00 4.5 C 6.38 g/m*3 4.5 C 1.6 km/h
3103 10-02-2015 08:55:00 4.6 C 6.42 g/m*3 4.6 C 0 km/h
3104 10-02-2015 09:00:00 4.6 C 6.42 g/m*3 4.6 C 1.6 km/h
3105 10-02-2015 09:05:00 4.6 C 6.42 g/m*3 4.6 C 0 km/h
3106 10-02-2015 09:10:00 4.6 C 6.42 g/m*3 4.6 C 0 km/h
3107 10-02-2015 09:15:00 4.5 C 6.38 g/m*3 4.5 C 0 km/h
3108 10-02-2015 09:20:00 4.5 C 6.38 g/m*3 4.5 C 0 km/h
3109 10-02-2015 09:25:00 4.6 C 6.42 g/m*3 4.6 C 0 km/h
3110 10-02-2015 09:30:00 4.7 C 6.46 g/m*3 4.7 C 0 km/h
3111 10-02-2015 09:35:00 4.7 C 6.46 g/m*3 4.7 C 0 km/h
3112 10-02-2015 09:40:00 4.8 C 6.5 g/m*3 4.8 C 0 km/h
3113 10-02-2015 09:45:00 4.8 C 6.5 g/m*3 4.8 C 0 km/h
3114 10-02-2015 09:50:00 4.8 C 6.5 g/m*3 4.8 C 0 km/h
3115 10-02-2015 09:55:00 4.8 C 6.5 g/m*3 4.8 C 0 km/h
3116 10-02-2015 10:00:00 4.8 C 6.5 g/m*3 4.8 C 3.2 km/h
3117 10-02-2015 10:05:00 4.9 C 6.55 g/m*3 4.9 C 1.6 km/h
3118 10-02-2015 10:10:00 4.9 C 6.55 g/m*3 4.9 C 3.2 km/h
3119 10-02-2015 10:15:00 4.9 C 6.55 g/m*3 4.9 C 0 km/h
3120 10-02-2015 10:20:00 5 C 6.59 g/m*3 5 C 0 km/h
3121 10-02-2015 10:25:00 5.1 C 6.63 g/m*3 5.1 C 1.6 km/h
3122 10-02-2015 10:30:00 5.1 C 6.63 g/m*3 5.1 C 0 km/h
3123 10-02-2015 10:35:00 5.2 C 6.68 g/m*3 5.2 C 0 km/h
3124 10-02-2015 10:40:00 5.2 C 6.68 g/m*3 5.2 C 0 km/h
3125 10-02-2015 10:45:00 5.3 C 6.72 g/m*3 5.3 C 1.6 km/h
Sensor: Nr:Datum:Temp:Abs-Feuchte:Windchill:Wind:
Aussen-T/F 3126 10-02-2015 10:50:00 5.4 C 6.77 g/m*3 5.4 C 1.6 km/h
3127 10-02-2015 10:55:00 5.5 C 6.74 g/m*3 5.5 C 4.8 km/h
3128 10-02-2015 11:00:00 5.6 C 6.79 g/m*3 5.6 C 1.6 km/h
3129 10-02-2015 11:05:00 5.6 C 6.79 g/m*3 5.6 C 3.2 km/h
3130 10-02-2015 11:10:00 5.6 C 6.72 g/m*3 5.6 C 0 km/h
3131 10-02-2015 11:15:00 5.6 C 6.72 g/m*3 5.6 C 0 km/h
3132 10-02-2015 11:20:00 5.7 C 6.76 g/m*3 5.7 C 0 km/h
3133 10-02-2015 11:25:00 5.7 C 6.76 g/m*3 5.7 C 0 km/h
3134 10-02-2015 11:30:00 5.7 C 6.69 g/m*3 5.7 C 3.2 km/h
3135 10-02-2015 11:35:00 5.8 C 6.73 g/m*3 5.8 C 0 km/h
3136 10-02-2015 11:40:00 5.8 C 6.66 g/m*3 5.8 C 3.2 km/h
3137 10-02-2015 11:45:00 5.8 C 6.66 g/m*3 5.8 C 1.6 km/h
3138 10-02-2015 11:50:00 5.8 C 6.66 g/m*3 5.8 C 1.6 km/h
3139 10-02-2015 11:55:00 5.8 C 6.66 g/m*3 5.8 C 4.8 km/h
3140 10-02-2015 12:00:00 5.8 C 6.59 g/m*3 5.8 C 1.6 km/h
3141 10-02-2015 12:05:00 5.8 C 6.59 g/m*3 5.8 C 4.8 km/h
3142 10-02-2015 12:10:00 5.8 C 6.52 g/m*3 4.05 C 8.1 km/h
3143 10-02-2015 12:15:00 5.9 C 6.49 g/m*3 3.19 C 12.9 km/h
3144 10-02-2015 12:20:00 5.9 C 6.42 g/m*3 3.48 C 11.3 km/h
3145 10-02-2015 12:25:00 6 C 6.39 g/m*3 3.92 C 9.7 km/h
3146 10-02-2015 12:30:00 6.1 C 6.36 g/m*3 4.04 C 9.7 km/h
3147 10-02-2015 12:35:00 6.2 C 6.4 g/m*3 4.15 C 9.7 km/h
3148 10-02-2015 12:40:00 6.2 C 6.4 g/m*3 4.52 C 8.1 km/h
3149 10-02-2015 12:45:00 6.3 C 6.37 g/m*3 2.98 C 17.7 km/h
3150 10-02-2015 12:50:00 6.3 C 6.37 g/m*3 2.98 C 17.7 km/h
Sensor: Nr:Datum:Temp:Abs-Feuchte:Windchill:Wind:
Aussen-T/F 3151 10-02-2015 12:55:00 6.3 C 6.37 g/m*3 4.64 C 8.1 km/h
3152 10-02-2015 13:00:00 6.3 C 6.37 g/m*3 4.27 C 9.7 km/h
3153 10-02-2015 13:05:00 6.3 C 6.37 g/m*3 5.1 C 6.4 km/h
3154 10-02-2015 13:10:00 6.3 C 6.37 g/m*3 4.27 C 9.7 km/h
3155 10-02-2015 13:15:00 6.4 C 6.33 g/m*3 4.75 C 8.1 km/h
3156 10-02-2015 13:20:00 6.4 C 6.33 g/m*3 4.39 C 9.7 km/h
3157 10-02-2015 13:25:00 6.3 C 6.29 g/m*3 5.1 C 6.4 km/h
3158 10-02-2015 13:30:00 6.3 C 6.29 g/m*3 6.3 C 4.8 km/h
3159 10-02-2015 13:35:00 6.3 C 6.29 g/m*3 4.64 C 8.1 km/h
3160 10-02-2015 13:40:00 6.3 C 6.29 g/m*3 4.64 C 8.1 km/h
3161 10-02-2015 13:45:00 6.3 C 6.29 g/m*3 5.1 C 6.4 km/h
3162 10-02-2015 13:50:00 6.3 C 6.37 g/m*3 4.64 C 8.1 km/h
3163 10-02-2015 13:55:00 6.3 C 6.37 g/m*3 4.64 C 8.1 km/h
3164 10-02-2015 14:00:00 6.2 C 6.32 g/m*3 6.2 C 4.8 km/h
3165 10-02-2015 14:05:00 6.2 C 6.32 g/m*3 6.2 C 4.8 km/h
3166 10-02-2015 14:10:00 6.2 C 6.32 g/m*3 6.2 C 3.2 km/h
3167 10-02-2015 14:15:00 6.2 C 6.32 g/m*3 6.2 C 3.2 km/h
3168 10-02-2015 14:20:00 6.2 C 6.32 g/m*3 6.2 C 4.8 km/h
3169 10-02-2015 14:25:00 6.2 C 6.4 g/m*3 6.2 C 4.8 km/h
3170 10-02-2015 14:30:00 6.2 C 6.32 g/m*3 4.98 C 6.4 km/h
3171 10-02-2015 14:35:00 6.2 C 6.25 g/m*3 6.2 C 3.2 km/h
3172 10-02-2015 14:40:00 6.2 C 6.25 g/m*3 6.2 C 4.8 km/h
3173 10-02-2015 14:45:00 6.2 C 6.25 g/m*3 6.2 C 4.8 km/h
3174 10-02-2015 14:50:00 6.2 C 6.32 g/m*3 6.2 C 4.8 km/h
3175 10-02-2015 14:55:00 6.2 C 6.25 g/m*3 6.2 C 4.8 km/h
Sensor: Nr:Datum:Temp:Abs-Feuchte:Windchill:Wind:
Aussen-T/F 3176 10-02-2015 15:00:00 6.2 C 6.25 g/m*3 4.98 C 6.4 km/h
3177 10-02-2015 15:05:00 6.2 C 6.25 g/m*3 6.2 C 1.6 km/h
3178 10-02-2015 15:10:00 6.2 C 6.18 g/m*3 6.2 C 3.2 km/h
3179 10-02-2015 15:15:00 6.1 C 6.21 g/m*3 6.1 C 1.6 km/h
3180 10-02-2015 15:20:00 6.1 C 6.28 g/m*3 4.86 C 6.4 km/h
3181 10-02-2015 15:25:00 6.1 C 6.28 g/m*3 4.86 C 6.4 km/h
3182 10-02-2015 15:30:00 6.1 C 6.28 g/m*3 6.1 C 3.2 km/h
3183 10-02-2015 15:35:00 6.1 C 6.21 g/m*3 6.1 C 4.8 km/h
3184 10-02-2015 15:40:00 6.1 C 6.21 g/m*3 6.1 C 3.2 km/h
3185 10-02-2015 15:45:00 6.1 C 6.21 g/m*3 6.1 C 4.8 km/h
3186 10-02-2015 15:50:00 6 C 6.1 g/m*3 4.75 C 6.4 km/h
3187 10-02-2015 15:55:00 6 C 6.1 g/m*3 3.92 C 9.7 km/h
3188 10-02-2015 16:00:00 6 C 6.17 g/m*3 4.75 C 6.4 km/h
3189 10-02-2015 16:05:00 5.9 C 6.13 g/m*3 4.17 C 8.1 km/h
3190 10-02-2015 16:10:00 5.9 C 6.13 g/m*3 5.9 C 4.8 km/h
3191 10-02-2015 16:15:00 5.9 C 6.06 g/m*3 3.48 C 11.3 km/h
3192 10-02-2015 16:20:00 5.9 C 6.13 g/m*3 3.8 C 9.7 km/h
3193 10-02-2015 16:25:00 5.9 C 6.06 g/m*3 4.17 C 8.1 km/h
3194 10-02-2015 16:30:00 5.8 C 6.02 g/m*3 4.52 C 6.4 km/h
3195 10-02-2015 16:35:00 5.8 C 6.02 g/m*3 4.05 C 8.1 km/h
3196 10-02-2015 16:40:00 5.8 C 6.02 g/m*3 5.8 C 4.8 km/h
3197 10-02-2015 16:45:00 5.8 C 6.02 g/m*3 4.52 C 6.4 km/h
3198 10-02-2015 16:50:00 5.8 C 6.09 g/m*3 5.8 C 4.8 km/h
3199 10-02-2015 16:55:00 5.7 C 6.05 g/m*3 5.7 C 1.6 km/h
3200 10-02-2015 17:00:00 5.7 C 5.98 g/m*3 5.7 C 3.2 km/h
Sensor: Nr:Datum:Temp:Abs-Feuchte:Windchill:Wind:
Aussen-T/F 3201 10-02-2015 17:05:00 5.7 C 5.98 g/m*3 4.4 C 6.4 km/h
3202 10-02-2015 17:10:00 5.7 C 5.98 g/m*3 4.4 C 6.4 km/h
3203 10-02-2015 17:15:00 5.7 C 5.98 g/m*3 3.56 C 9.7 km/h
3204 10-02-2015 17:20:00 5.7 C 6.05 g/m*3 3.93 C 8.1 km/h
3205 10-02-2015 17:25:00 5.7 C 6.05 g/m*3 5.7 C 4.8 km/h
3206 10-02-2015 17:30:00 5.6 C 6.01 g/m*3 5.6 C 4.8 km/h
3207 10-02-2015 17:35:00 5.6 C 6.01 g/m*3 5.6 C 1.6 km/h
3208 10-02-2015 17:40:00 5.6 C 6.01 g/m*3 5.6 C 4.8 km/h
3209 10-02-2015 17:45:00 5.6 C 6.01 g/m*3 5.6 C 4.8 km/h
3210 10-02-2015 17:50:00 5.6 C 6.01 g/m*3 3.81 C 8.1 km/h
3211 10-02-2015 17:55:00 5.6 C 6.01 g/m*3 5.6 C 3.2 km/h
3212 10-02-2015 18:00:00 5.6 C 6.01 g/m*3 5.6 C 3.2 km/h
3213 10-02-2015 18:05:00 5.5 C 5.97 g/m*3 5.5 C 1.6 km/h
3214 10-02-2015 18:10:00 5.5 C 5.97 g/m*3 5.5 C 3.2 km/h
3215 10-02-2015 18:15:00 5.5 C 5.97 g/m*3 5.5 C 3.2 km/h
3216 10-02-2015 18:20:00 5.5 C 6.04 g/m*3 5.5 C 1.6 km/h
3217 10-02-2015 18:25:00 5.4 C 6 g/m*3 5.4 C 3.2 km/h
3218 10-02-2015 18:30:00 5.4 C 6 g/m*3 5.4 C 3.2 km/h
3219 10-02-2015 18:35:00 5.4 C 6 g/m*3 3.58 C 8.1 km/h
3220 10-02-2015 18:40:00 5.4 C 6 g/m*3 4.06 C 6.